Darstellungsparameter: Aktuell verwendete Einstellungen:
Skalierung der Graphiken ... ?
xyx+y,   Skalierungsfaktor:      Skalierung: Modus: x, Faktor: 1
Darstellungszeitraum ... ?
Vom - - bis: - -   Zeitraum: 03.09.2015 - 01.10.2015
Min/Max/Avg-Anzeige ... ?
Zeige MMA aktuell
Zeige MMA Monat
Zeige MMA alles
Zeige --A aktuell
Zeige --A Monat
Zeige --A alles
Keine MMA-Anzeige
MMA:
Keine MMA-Graphiken
MMA-Basis: 03.09.2015 - 01.10.2015
Quicknavigation für Darstellung... ?
Tage:      1T, 2T, 3T, 5T -1T -2T -3T -5T +1T +2T +3T +5T
Wochen: 1W, 2W, 3W -1W -2W -3W +1W +2W +3W
Monate: 1M, 3M, 6M -1M -3M -6M +1M +3M +6M
Jahre:    1J, 3J, 5J, 10J -1J -3J -5J -10J +1J +3J +5J +10J
Nutze für die Darstellung ... ?
Originaldaten oder Mittelwerte auf ...
Stundenbasis Tagesbasis Wochenbasis
Monatsbasis Jahresbasis      Datenbasis: Original-Daten
Darstellen als:
Statistik (Auto) Statistik J:M      Darstellung:
Zur Graphik,    zurück zur Übersicht aller Sensoren.
 
Tabellarische Datenbersicht: ?
 
Sensor: Nr:Datum:Temp:Feuchte:
Aussen-T/F 1 03-09-2015 00:02:17 12.6 C 81 %
2 03-09-2015 00:14:18 12.5 C 81 %
3 03-09-2015 00:26:17 12.5 C 82 %
4 03-09-2015 00:38:17 12.5 C 82 %
5 03-09-2015 00:50:17 12.3 C 83 %
6 03-09-2015 01:02:17 12.1 C 83 %
7 03-09-2015 01:14:17 11.7 C 83 %
8 03-09-2015 01:26:17 11.6 C 84 %
9 03-09-2015 01:38:17 11.6 C 84 %
10 03-09-2015 01:50:17 11.6 C 85 %
11 03-09-2015 02:02:17 11.5 C 85 %
12 03-09-2015 02:14:17 11.6 C 86 %
13 03-09-2015 02:26:17 11.4 C 86 %
14 03-09-2015 02:38:17 11.1 C 86 %
15 03-09-2015 02:50:17 11.1 C 86 %
16 03-09-2015 03:02:17 11.1 C 87 %
17 03-09-2015 03:14:17 10.8 C 87 %
18 03-09-2015 03:26:17 10.7 C 87 %
19 03-09-2015 03:38:17 10.5 C 87 %
20 03-09-2015 03:50:17 10.7 C 88 %
21 03-09-2015 04:02:17 10.5 C 88 %
22 03-09-2015 04:14:17 10.4 C 88 %
23 03-09-2015 04:26:17 10.4 C 88 %
24 03-09-2015 04:38:17 10.2 C 88 %
25 03-09-2015 04:50:17 10.3 C 88 %
Sensor: Nr:Datum:Temp:Feuchte:
Aussen-T/F 26 03-09-2015 05:02:17 10.2 C 88 %
27 03-09-2015 05:14:17 10.5 C 88 %
28 03-09-2015 05:26:17 10.3 C 89 %
29 03-09-2015 05:38:17 10.1 C 89 %
30 03-09-2015 05:50:17 10.2 C 89 %
31 03-09-2015 06:02:17 10.4 C 89 %
32 03-09-2015 06:14:17 10.6 C 89 %
33 03-09-2015 06:26:17 10.8 C 89 %
34 03-09-2015 06:38:17 10.7 C 89 %
35 03-09-2015 06:50:17 10.6 C 89 %
36 03-09-2015 07:02:17 10.5 C 89 %
37 03-09-2015 07:14:17 10.4 C 89 %
38 03-09-2015 07:26:17 10.3 C 89 %
39 03-09-2015 07:38:17 10.7 C 89 %
40 03-09-2015 07:50:17 11 C 89 %
41 03-09-2015 08:02:17 11.2 C 89 %
42 03-09-2015 08:14:18 11.3 C 89 %
43 03-09-2015 08:26:17 11.5 C 88 %
44 03-09-2015 08:38:17 11.6 C 87 %
45 03-09-2015 08:50:17 11.8 C 86 %
46 03-09-2015 09:02:17 11.8 C 85 %
47 03-09-2015 09:14:17 11.8 C 85 %
48 03-09-2015 09:26:17 11.8 C 84 %
49 03-09-2015 09:38:17 12 C 83 %
50 03-09-2015 09:50:17 12.1 C 83 %
Sensor: Nr:Datum:Temp:Feuchte:
Aussen-T/F 51 03-09-2015 10:02:17 12.4 C 83 %
52 03-09-2015 10:14:17 12.7 C 83 %
53 03-09-2015 10:26:17 12.9 C 82 %
54 03-09-2015 10:38:17 13.1 C 81 %
55 03-09-2015 10:50:17 13.2 C 81 %
56 03-09-2015 11:02:17 13.3 C 81 %
57 03-09-2015 11:14:17 13.8 C 82 %
58 03-09-2015 11:26:17 14.6 C 82 %
59 03-09-2015 11:38:17 14.6 C 78 %
60 03-09-2015 11:50:17 14.8 C 76 %
61 03-09-2015 12:02:17 16.1 C 57 %
62 03-09-2015 12:14:17 16.6 C 53 %
63 03-09-2015 12:26:17 16.2 C 58 %
64 03-09-2015 12:38:17 16.2 C 55 %
65 03-09-2015 12:50:17 17.1 C 50 %
66 03-09-2015 13:02:17 17.5 C 48 %
67 03-09-2015 13:14:17 17.8 C 45 %
68 03-09-2015 13:26:17 17.2 C 50 %
69 03-09-2015 13:38:17 16.3 C 61 %
70 03-09-2015 13:50:17 15.5 C 69 %
71 03-09-2015 14:02:17 14.5 C 75 %
72 03-09-2015 14:14:17 13.7 C 77 %
73 03-09-2015 14:26:17 13.8 C 80 %
74 03-09-2015 14:38:17 14.4 C 81 %
75 03-09-2015 14:50:17 15.4 C 81 %
Sensor: Nr:Datum:Temp:Feuchte:
Aussen-T/F 76 03-09-2015 15:02:17 16 C 78 %
77 03-09-2015 15:14:17 16.5 C 72 %
78 03-09-2015 15:26:17 17.2 C 68 %
79 03-09-2015 15:38:17 17.1 C 67 %
80 03-09-2015 15:50:17 18.9 C 54 %
81 03-09-2015 16:02:17 19.2 C 42 %
82 03-09-2015 16:14:17 20.5 C 36 %
83 03-09-2015 16:26:17 21.1 C 36 %
84 03-09-2015 16:38:17 20.4 C 37 %
85 03-09-2015 16:50:17 19.6 C 41 %
86 03-09-2015 17:02:17 22.3 C 40 %
87 03-09-2015 17:14:17 23.1 C 32 %
88 03-09-2015 17:26:17 20.5 C 35 %
89 03-09-2015 17:38:17 21.4 C 32 %
90 03-09-2015 17:50:17 22.1 C 33 %
91 03-09-2015 18:02:17 23.3 C 35 %
92 03-09-2015 18:14:17 20.7 C 38 %
93 03-09-2015 18:26:17 24.6 C 28 %
94 03-09-2015 18:38:17 24.8 C 30 %
95 03-09-2015 18:50:17 24 C 32 %
96 03-09-2015 19:02:17 19.8 C 39 %
97 03-09-2015 19:14:17 18.6 C 46 %
98 03-09-2015 19:26:17 17.2 C 50 %
99 03-09-2015 19:38:17 16 C 54 %
100 03-09-2015 19:50:17 15.3 C 57 %
Sensor: Nr:Datum:Temp:Feuchte:
Aussen-T/F 101 03-09-2015 20:02:17 15.2 C 57 %
102 03-09-2015 20:14:17 16 C 48 %
103 03-09-2015 20:26:17 15.6 C 53 %
104 03-09-2015 20:38:17 14.7 C 58 %
105 03-09-2015 20:50:17 14.4 C 60 %
106 03-09-2015 21:02:17 13.8 C 64 %
107 03-09-2015 21:14:17 13.3 C 66 %
108 03-09-2015 21:26:17 13.4 C 67 %
109 03-09-2015 21:38:17 13.7 C 68 %
110 03-09-2015 21:50:17 13.8 C 67 %
111 03-09-2015 22:02:17 13.3 C 72 %
112 03-09-2015 22:14:17 13.1 C 76 %
113 03-09-2015 22:26:17 12.7 C 79 %
114 03-09-2015 22:38:17 12.7 C 81 %
115 03-09-2015 22:50:17 12.5 C 82 %
116 03-09-2015 23:02:17 12.2 C 82 %
117 03-09-2015 23:14:17 12 C 83 %
118 03-09-2015 23:26:17 11.4 C 84 %
119 03-09-2015 23:38:17 11.1 C 84 %
120 03-09-2015 23:50:17 10.8 C 85 %
121 04-09-2015 00:02:17 10.8 C 85 %
122 04-09-2015 00:14:17 10.9 C 86 %
123 04-09-2015 00:26:17 10.8 C 87 %
124 04-09-2015 00:38:17 10.8 C 87 %
125 04-09-2015 00:50:17 10.8 C 87 %
Sensor: Nr:Datum:Temp:Feuchte:
Aussen-T/F 126 04-09-2015 01:02:17 10.6 C 88 %
127 04-09-2015 01:14:17 10.6 C 88 %
128 04-09-2015 01:26:16 10.6 C 88 %
129 04-09-2015 01:38:17 10.5 C 88 %
130 04-09-2015 01:50:17 10.5 C 88 %
131 04-09-2015 02:02:17 10.6 C 88 %
132 04-09-2015 02:14:17 10.7 C 89 %
133 04-09-2015 02:26:17 10.7 C 89 %
134 04-09-2015 02:38:17 10.8 C 89 %
135 04-09-2015 02:50:17 11 C 89 %
136 04-09-2015 03:02:17 11 C 89 %
137 04-09-2015 03:14:17 11.1 C 89 %
138 04-09-2015 03:26:17 11.1 C 89 %
139 04-09-2015 03:38:17 11.1 C 89 %
140 04-09-2015 03:50:16 11 C 89 %
141 04-09-2015 04:02:17 10.9 C 90 %
142 04-09-2015 04:14:17 10.6 C 89 %
143 04-09-2015 04:26:17 10.3 C 89 %
144 04-09-2015 04:38:17 10.4 C 89 %
145 04-09-2015 04:50:17 10.2 C 89 %
146 04-09-2015 05:02:17 10.2 C 89 %
147 04-09-2015 05:14:17 9.8 C 90 %
148 04-09-2015 05:26:17 10.1 C 89 %
149 04-09-2015 05:38:17 10.1 C 89 %
150 04-09-2015 05:50:17 10.4 C 90 %
Sensor: Nr:Datum:Temp:Feuchte:
Aussen-T/F 151 04-09-2015 06:02:17 10.4 C 90 %
152 04-09-2015 06:14:17 10.2 C 89 %
153 04-09-2015 06:26:17 10.2 C 89 %
154 04-09-2015 06:38:17 10.4 C 90 %
155 04-09-2015 06:50:17 10.5 C 90 %
156 04-09-2015 07:02:17 10.6 C 90 %
157 04-09-2015 07:14:17 10.6 C 90 %
158 04-09-2015 07:26:17 10.7 C 90 %
159 04-09-2015 07:38:17 10.9 C 90 %
160 04-09-2015 07:50:17 11.1 C 89 %
161 04-09-2015 08:02:17 11.3 C 89 %
162 04-09-2015 08:14:17 11.6 C 87 %
163 04-09-2015 08:26:17 11.8 C 84 %
164 04-09-2015 08:38:17 11.8 C 82 %
165 04-09-2015 08:50:17 12 C 78 %
166 04-09-2015 09:02:17 12.5 C 74 %
167 04-09-2015 09:14:17 12.9 C 70 %
168 04-09-2015 09:26:17 13.2 C 65 %
169 04-09-2015 09:38:17 13.2 C 63 %
170 04-09-2015 09:50:17 13.1 C 62 %
171 04-09-2015 10:02:17 13.4 C 62 %
172 04-09-2015 10:14:17 13.7 C 59 %
173 04-09-2015 10:26:17 14 C 56 %
174 04-09-2015 10:38:17 14.3 C 57 %
175 04-09-2015 10:50:17 14.2 C 56 %
Sensor: Nr:Datum:Temp:Feuchte:
Aussen-T/F 176 04-09-2015 11:02:17 14.8 C 53 %
177 04-09-2015 11:14:17 15.3 C 51 %
178 04-09-2015 11:26:17 15.6 C 49 %
179 04-09-2015 11:38:17 16.2 C 47 %
180 04-09-2015 11:50:17 16.4 C 45 %
181 04-09-2015 12:02:17 15.8 C 48 %
182 04-09-2015 12:14:17 15.7 C 47 %
183 04-09-2015 12:26:17 16 C 46 %
184 04-09-2015 12:38:17 16.6 C 44 %
185 04-09-2015 12:50:17 16.5 C 45 %
186 04-09-2015 13:02:17 16.9 C 45 %
187 04-09-2015 13:14:17 16.8 C 43 %
188 04-09-2015 13:26:17 16.4 C 42 %
189 04-09-2015 13:38:17 16.4 C 42 %
190 04-09-2015 13:50:17 16.7 C 42 %
191 04-09-2015 14:02:17 17 C 40 %
192 04-09-2015 14:14:17 17.7 C 40 %
193 04-09-2015 14:26:17 17.4 C 37 %
194 04-09-2015 14:38:17 17.9 C 38 %
195 04-09-2015 14:50:17 18.4 C 38 %
196 04-09-2015 15:02:17 18.6 C 38 %
197 04-09-2015 15:14:18 17.9 C 37 %
198 04-09-2015 15:26:17 18 C 36 %
199 04-09-2015 15:38:17 18.5 C 36 %
200 04-09-2015 15:50:17 18.6 C 36 %
Sensor: Nr:Datum:Temp:Feuchte:
Aussen-T/F 201 04-09-2015 16:02:17 18.3 C 35 %
202 04-09-2015 16:14:17 19 C 35 %
203 04-09-2015 16:26:17 18.9 C 35 %
204 04-09-2015 16:38:17 19.3 C 32 %
205 04-09-2015 16:50:17 19.6 C 33 %
206 04-09-2015 17:02:17 19.7 C 33 %
207 04-09-2015 17:14:17 18.6 C 36 %
208 04-09-2015 17:26:17 18.7 C 37 %
209 04-09-2015 17:38:17 17.7 C 37 %
210 04-09-2015 17:50:17 17.7 C 40 %
211 04-09-2015 18:02:17 17.4 C 42 %
212 04-09-2015 18:14:17 17.6 C 40 %
213 04-09-2015 18:26:17 17 C 46 %
214 04-09-2015 18:38:17 16.2 C 50 %
215 04-09-2015 18:50:17 16.1 C 46 %
216 04-09-2015 19:02:17 15.7 C 50 %
217 04-09-2015 19:14:17 16 C 49 %
218 04-09-2015 19:26:17 16.2 C 51 %
219 04-09-2015 19:38:17 15.6 C 50 %
220 04-09-2015 19:50:17 14.7 C 56 %
221 04-09-2015 20:02:17 13.7 C 60 %
222 04-09-2015 20:14:17 13.4 C 62 %
223 04-09-2015 20:26:17 12.9 C 64 %
224 04-09-2015 20:38:17 12.7 C 65 %
225 04-09-2015 20:50:17 12.4 C 66 %
Sensor: Nr:Datum:Temp:Feuchte:
Aussen-T/F 226 04-09-2015 21:02:17 12.3 C 67 %
227 04-09-2015 21:14:17 12.1 C 67 %
228 04-09-2015 21:26:17 12.5 C 64 %
229 04-09-2015 21:38:17 12.7 C 63 %
230 04-09-2015 21:50:17 13.4 C 56 %
231 04-09-2015 22:02:17 13.6 C 55 %
232 04-09-2015 22:14:17 13.6 C 56 %
233 04-09-2015 22:26:17 12.8 C 60 %
234 04-09-2015 22:38:17 12.2 C 63 %
235 04-09-2015 22:50:17 12.4 C 62 %
236 04-09-2015 23:02:17 11.8 C 65 %
237 04-09-2015 23:14:17 11.5 C 67 %
238 04-09-2015 23:26:17 11.4 C 68 %
239 04-09-2015 23:38:17 11 C 69 %
240 04-09-2015 23:50:17 11 C 70 %
241 05-09-2015 00:02:17 10.7 C 71 %
242 05-09-2015 00:14:17 10.5 C 72 %
243 05-09-2015 00:26:17 10.9 C 71 %
244 05-09-2015 00:38:17 11 C 69 %
245 05-09-2015 00:50:17 10.4 C 72 %
246 05-09-2015 01:02:17 10.1 C 73 %
247 05-09-2015 01:14:17 10 C 74 %
248 05-09-2015 01:26:17 9.9 C 77 %
249 05-09-2015 01:38:17 9.7 C 78 %
250 05-09-2015 01:50:17 9.6 C 79 %
Sensor: Nr:Datum:Temp:Feuchte:
Aussen-T/F 251 05-09-2015 02:02:17 9.6 C 80 %
252 05-09-2015 02:14:17 10 C 79 %
253 05-09-2015 02:26:17 9.9 C 79 %
254 05-09-2015 02:38:17 9.7 C 79 %
255 05-09-2015 02:50:17 9.6 C 80 %
256 05-09-2015 03:02:17 9.6 C 81 %
257 05-09-2015 03:14:17 9.8 C 81 %
258 05-09-2015 03:26:16 9.9 C 80 %
259 05-09-2015 03:38:17 9.7 C 80 %
260 05-09-2015 03:50:17 9.6 C 81 %
261 05-09-2015 04:02:17 9.7 C 81 %
262 05-09-2015 04:14:17 9.8 C 81 %
263 05-09-2015 04:26:17 10.1 C 80 %
264 05-09-2015 04:38:17 10.4 C 80 %
265 05-09-2015 04:50:17 11 C 74 %
266 05-09-2015 05:02:17 11.1 C 72 %
267 05-09-2015 05:14:17 11.2 C 71 %
268 05-09-2015 05:26:17 11.5 C 70 %
269 05-09-2015 05:38:17 11.5 C 70 %
270 05-09-2015 05:50:17 11.8 C 67 %
271 05-09-2015 06:02:17 11.9 C 66 %
272 05-09-2015 06:14:18 11.9 C 65 %
273 05-09-2015 06:26:16 11.9 C 65 %
274 05-09-2015 06:38:17 11.9 C 66 %
275 05-09-2015 06:50:17 11.9 C 66 %
Sensor: Nr:Datum:Temp:Feuchte:
Aussen-T/F 276 05-09-2015 07:02:17 11.8 C 67 %
277 05-09-2015 07:14:17 11.7 C 69 %
278 05-09-2015 07:26:17 11.7 C 69 %
279 05-09-2015 07:38:17 11.9 C 69 %
280 05-09-2015 07:50:17 12 C 67 %
281 05-09-2015 08:02:18 12.1 C 67 %
282 05-09-2015 08:14:18 12.5 C 65 %
283 05-09-2015 08:26:17 12.8 C 64 %
284 05-09-2015 08:38:17 13 C 62 %
285 05-09-2015 08:50:17 13 C 62 %
286 05-09-2015 09:02:17 13 C 62 %
287 05-09-2015 09:14:17 13 C 64 %
288 05-09-2015 09:26:17 13.3 C 64 %
289 05-09-2015 09:38:17 13.6 C 62 %
290 05-09-2015 09:50:17 13.4 C 63 %
291 05-09-2015 10:02:17 13.8 C 62 %
292 05-09-2015 10:14:17 13.8 C 63 %
293 05-09-2015 10:26:17 12.8 C 71 %
294 05-09-2015 10:38:17 13.2 C 73 %
295 05-09-2015 10:50:17 14.1 C 68 %
296 05-09-2015 11:02:17 14.1 C 65 %
297 05-09-2015 11:14:17 13 C 72 %
298 05-09-2015 11:26:17 12.9 C 79 %
299 05-09-2015 11:38:17 13.1 C 80 %
300 05-09-2015 11:50:17 13.7 C 80 %
Sensor: Nr:Datum:Temp:Feuchte:
Aussen-T/F 301 05-09-2015 12:02:17 14.1 C 78 %
302 05-09-2015 12:14:17 14.5 C 75 %
303 05-09-2015 12:26:17 14.8 C 72 %
304 05-09-2015 12:38:17 14.5 C 72 %
305 05-09-2015 12:50:17 14.1 C 74 %
306 05-09-2015 13:02:17 14.6 C 79 %
307 05-09-2015 13:14:17 15.1 C 78 %
308 05-09-2015 13:26:17 14.6 C 77 %
309 05-09-2015 13:38:17 14.7 C 78 %
310 05-09-2015 13:50:17 15.1 C 77 %
311 05-09-2015 14:02:17 15 C 76 %
312 05-09-2015 14:14:17 15 C 75 %
313 05-09-2015 14:26:17 15.8 C 70 %
314 05-09-2015 14:38:17 16 C 66 %
315 05-09-2015 14:50:17 16.2 C 62 %
316 05-09-2015 15:02:17 16.2 C 56 %
317 05-09-2015 15:14:17 16.6 C 54 %
318 05-09-2015 15:26:17 16.6 C 52 %
319 05-09-2015 15:38:17 17.8 C 46 %
320 05-09-2015 15:50:17 16.9 C 49 %
321 05-09-2015 16:02:17 18.8 C 42 %
322 05-09-2015 16:14:17 18.5 C 43 %
323 05-09-2015 16:26:17 19.6 C 40 %
324 05-09-2015 16:38:17 18.3 C 39 %
325 05-09-2015 16:50:17 18.8 C 40 %
Sensor: Nr:Datum:Temp:Feuchte:
Aussen-T/F 326 05-09-2015 17:02:17 18.8 C 40 %
327 05-09-2015 17:14:18 20.1 C 38 %
328 05-09-2015 17:26:17 18.4 C 38 %
329 05-09-2015 17:38:17 17.3 C 42 %
330 05-09-2015 17:50:17 16.7 C 46 %
331 05-09-2015 18:02:17 16.7 C 46 %
332 05-09-2015 18:14:17 16.1 C 48 %
333 05-09-2015 18:26:17 14.2 C 65 %
334 05-09-2015 18:38:17 13.7 C 72 %
335 05-09-2015 18:50:17 13.6 C 73 %
336 05-09-2015 19:02:17 13.8 C 74 %
337 05-09-2015 19:14:17 13.4 C 77 %
338 05-09-2015 19:26:17 13.2 C 80 %
339 05-09-2015 19:38:17 12.8 C 83 %
340 05-09-2015 19:50:17 12.8 C 84 %
341 05-09-2015 20:02:17 12.7 C 85 %
342 05-09-2015 20:14:17 12.6 C 85 %
343 05-09-2015 20:26:17 12.6 C 86 %
344 05-09-2015 20:38:17 12.5 C 86 %
345 05-09-2015 20:50:17 12.4 C 86 %
346 05-09-2015 21:02:17 12.5 C 85 %
347 05-09-2015 21:14:17 12.4 C 84 %
348 05-09-2015 21:26:17 12.3 C 83 %
349 05-09-2015 21:38:17 12.1 C 82 %
350 05-09-2015 21:50:17 12 C 80 %
Sensor: Nr:Datum:Temp:Feuchte:
Aussen-T/F 351 05-09-2015 22:02:17 11.8 C 80 %
352 05-09-2015 22:14:17 11.7 C 80 %
353 05-09-2015 22:26:17 11.8 C 78 %
354 05-09-2015 22:38:17 12 C 74 %
355 05-09-2015 22:50:17 12.1 C 72 %
356 05-09-2015 23:02:17 11.8 C 74 %
357 05-09-2015 23:14:17 11.6 C 75 %
358 05-09-2015 23:26:17 11.7 C 75 %
359 05-09-2015 23:38:17 11.6 C 72 %
360 05-09-2015 23:50:17 11.6 C 72 %
361 06-09-2015 00:02:17 11.6 C 69 %
362 06-09-2015 00:14:17 11.4 C 68 %
363 06-09-2015 00:26:17 11.2 C 68 %
364 06-09-2015 00:38:17 11.2 C 67 %
365 06-09-2015 00:50:17 11.2 C 68 %
366 06-09-2015 01:02:17 11.1 C 69 %
367 06-09-2015 01:14:17 11.1 C 68 %
368 06-09-2015 01:26:17 11 C 70 %
369 06-09-2015 01:38:17 11.1 C 69 %
370 06-09-2015 01:50:17 11 C 68 %
371 06-09-2015 02:02:17 11 C 68 %
372 06-09-2015 02:14:17 10.7 C 69 %
373 06-09-2015 02:26:17 10.1 C 71 %
374 06-09-2015 02:38:17 10.2 C 74 %
375 06-09-2015 02:50:17 10.3 C 73 %
Sensor: Nr:Datum:Temp:Feuchte:
Aussen-T/F 376 06-09-2015 03:02:17 10.4 C 73 %
377 06-09-2015 03:14:17 10.4 C 73 %
378 06-09-2015 03:26:17 10.7 C 71 %
379 06-09-2015 03:38:17 10.7 C 71 %
380 06-09-2015 03:50:17 10.6 C 70 %
381 06-09-2015 04:02:17 10.5 C 70 %
382 06-09-2015 04:14:17 10.5 C 70 %
383 06-09-2015 04:26:17 10 C 72 %
384 06-09-2015 04:38:17 9.8 C 73 %
385 06-09-2015 04:50:17 9.3 C 75 %
386 06-09-2015 05:02:17 9.4 C 77 %
387 06-09-2015 05:14:17 9.1 C 78 %
388 06-09-2015 05:26:17 9.2 C 79 %
389 06-09-2015 05:38:17 8.9 C 81 %
390 06-09-2015 05:50:17 8.7 C 82 %
391 06-09-2015 06:02:17 8.8 C 82 %
392 06-09-2015 06:14:17 9.1 C 80 %
393 06-09-2015 06:26:17 8.8 C 80 %
394 06-09-2015 06:38:17 9 C 78 %
395 06-09-2015 06:50:17 9.2 C 77 %
396 06-09-2015 07:02:17 9.2 C 76 %
397 06-09-2015 07:14:17 9.4 C 74 %
398 06-09-2015 07:26:17 9.4 C 73 %
399 06-09-2015 07:38:17 9.3 C 73 %
400 06-09-2015 07:50:17 9.2 C 74 %
Sensor: Nr:Datum:Temp:Feuchte:
Aussen-T/F 401 06-09-2015 08:02:17 9.3 C 74 %
402 06-09-2015 08:14:17 9.3 C 75 %
403 06-09-2015 08:26:17 9.6 C 75 %
404 06-09-2015 08:38:17 9.9 C 74 %
405 06-09-2015 08:50:17 10.2 C 72 %
406 06-09-2015 09:02:16 10.6 C 69 %
407 06-09-2015 09:14:17 11 C 67 %
408 06-09-2015 09:26:17 11.9 C 61 %
409 06-09-2015 09:38:17 12.2 C 58 %
410 06-09-2015 09:50:17 12.7 C 58 %
411 06-09-2015 10:02:17 12.9 C 56 %
412 06-09-2015 10:14:17 12.6 C 54 %
413 06-09-2015 10:26:17 12.5 C 54 %
414 06-09-2015 10:38:17 12.7 C 53 %
415 06-09-2015 10:50:16 13.2 C 50 %
416 06-09-2015 11:02:17 13.4 C 51 %
417 06-09-2015 11:14:17 13.6 C 49 %
418 06-09-2015 11:26:17 14.2 C 47 %
419 06-09-2015 11:38:17 14.3 C 46 %
420 06-09-2015 11:50:17 14.2 C 48 %
421 06-09-2015 12:02:17 14.6 C 44 %
422 06-09-2015 12:14:17 14.9 C 44 %
423 06-09-2015 12:26:17 14.5 C 45 %
424 06-09-2015 12:38:17 14.3 C 43 %
425 06-09-2015 12:50:17 15.1 C 42 %
Sensor: Nr:Datum:Temp:Feuchte:
Aussen-T/F 426 06-09-2015 13:02:17 15.4 C 42 %
427 06-09-2015 13:14:17 15.1 C 40 %
428 06-09-2015 13:26:17 15.5 C 40 %
429 06-09-2015 13:38:16 15.7 C 42 %
430 06-09-2015 13:50:17 16.5 C 39 %
431 06-09-2015 14:02:17 16.4 C 40 %
432 06-09-2015 14:14:17 16.5 C 39 %
433 06-09-2015 14:26:17 16.4 C 40 %
434 06-09-2015 14:38:17 16.2 C 39 %
435 06-09-2015 14:50:17 16.1 C 40 %
436 06-09-2015 15:02:17 16.6 C 41 %
437 06-09-2015 15:14:17 15.8 C 40 %
438 06-09-2015 15:26:17 16.4 C 41 %
439 06-09-2015 15:38:17 17 C 41 %
440 06-09-2015 15:50:17 17.5 C 38 %
441 06-09-2015 16:14:17 17.7 C 38 %
442 06-09-2015 16:14:17 17.6 C 38 %
443 06-09-2015 16:26:17 16.9 C 40 %
444 06-09-2015 16:38:17 16.7 C 40 %
445 06-09-2015 16:50:17 15.8 C 41 %
446 06-09-2015 17:03:16 15.5 C 40 %
447 06-09-2015 17:14:17 15.9 C 43 %
448 06-09-2015 17:26:17 16.5 C 39 %
449 06-09-2015 17:38:17 18.7 C 36 %
450 06-09-2015 17:50:17 21.5 C 26 %
Sensor: Nr:Datum:Temp:Feuchte:
Aussen-T/F 451 06-09-2015 18:02:17 22.3 C 25 %
452 06-09-2015 18:14:17 23.7 C 22 %
453 06-09-2015 18:26:17 20.6 C 28 %
454 06-09-2015 18:38:17 17.3 C 37 %
455 06-09-2015 18:50:17 16.3 C 40 %
456 06-09-2015 19:02:17 16 C 41 %
457 06-09-2015 19:14:17 15.5 C 44 %
458 06-09-2015 19:27:16 15.2 C 44 %
459 06-09-2015 19:38:17 15.1 C 45 %
460 06-09-2015 19:50:17 14.7 C 47 %
461 06-09-2015 20:03:17 14.2 C 50 %
462 06-09-2015 20:14:17 14.2 C 50 %
463 06-09-2015 20:26:17 14.3 C 47 %
464 06-09-2015 20:38:18 14.2 C 48 %
465 06-09-2015 20:50:17 14 C 50 %
466 06-09-2015 21:02:17 13.9 C 51 %
467 06-09-2015 21:14:17 13.3 C 55 %
468 06-09-2015 21:27:17 13.3 C 55 %
469 06-09-2015 21:38:17 13.4 C 53 %
470 06-09-2015 21:50:17 13.3 C 54 %
471 06-09-2015 22:02:17 12.8 C 56 %
472 06-09-2015 22:14:17 12.6 C 57 %
473 06-09-2015 22:26:17 12.4 C 58 %
474 06-09-2015 22:38:17 12.2 C 59 %
475 06-09-2015 22:50:17 12.2 C 60 %
Sensor: Nr:Datum:Temp:Feuchte:
Aussen-T/F 476 06-09-2015 23:02:17 12.6 C 58 %
477 06-09-2015 23:14:17 12.7 C 57 %
478 06-09-2015 23:26:17 12.5 C 57 %
479 06-09-2015 23:38:17 12.4 C 59 %
480 06-09-2015 23:50:17 12.5 C 58 %
481 07-09-2015 00:02:17 12.5 C 58 %
482 07-09-2015 00:14:17 12.4 C 58 %
483 07-09-2015 00:26:17 12.4 C 59 %
484 07-09-2015 00:38:17 12.4 C 59 %
485 07-09-2015 00:50:17 12.2 C 60 %
486 07-09-2015 01:02:17 11.9 C 62 %
487 07-09-2015 01:14:17 11.8 C 64 %
488 07-09-2015 01:26:17 12 C 61 %
489 07-09-2015 01:39:17 12.1 C 60 %
490 07-09-2015 01:50:17 12.1 C 61 %
491 07-09-2015 02:02:17 12.1 C 60 %
492 07-09-2015 02:14:17 12 C 61 %
493 07-09-2015 02:26:17 12.1 C 61 %
494 07-09-2015 02:38:17 12 C 61 %
495 07-09-2015 02:51:17 12 C 61 %
496 07-09-2015 03:03:17 12 C 62 %
497 07-09-2015 03:15:17 11.4 C 68 %
498 07-09-2015 03:27:17 11.1 C 75 %
499 07-09-2015 03:39:17 10.9 C 79 %
500 07-09-2015 03:51:17 10.7 C 81 %
Sensor: Nr:Datum:Temp:Feuchte:
Aussen-T/F 501 07-09-2015 04:03:17 10.8 C 82 %
502 07-09-2015 04:15:17 10.9 C 82 %
503 07-09-2015 04:27:17 11 C 81 %
504 07-09-2015 04:39:17 11.1 C 81 %
505 07-09-2015 04:51:17 11.2 C 80 %
506 07-09-2015 05:03:17 11.4 C 79 %
507 07-09-2015 05:15:17 11.4 C 78 %
508 07-09-2015 05:27:17 11.4 C 77 %
509 07-09-2015 05:39:17 11.4 C 77 %
510 07-09-2015 05:51:17 11.5 C 76 %
511 07-09-2015 06:03:17 11.5 C 76 %
512 07-09-2015 06:15:16 11.5 C 75 %
513 07-09-2015 06:27:17 11.5 C 75 %
514 07-09-2015 06:39:17 11.6 C 74 %
515 07-09-2015 06:51:17 11.6 C 74 %
516 07-09-2015 07:03:16 11.6 C 75 %
517 07-09-2015 07:15:17 11.4 C 75 %
518 07-09-2015 07:27:17 11.4 C 78 %
519 07-09-2015 07:39:16 11.4 C 79 %
520 07-09-2015 07:51:17 11.7 C 79 %
521 07-09-2015 08:03:16 11.8 C 78 %
522 07-09-2015 08:15:16 11.9 C 78 %
523 07-09-2015 08:27:16 11.9 C 78 %
524 07-09-2015 08:39:17 12.1 C 77 %
525 07-09-2015 08:51:17 12.2 C 76 %
Sensor: Nr:Datum:Temp:Feuchte:
Aussen-T/F 526 07-09-2015 09:03:17 12.6 C 74 %
527 07-09-2015 09:15:17 12.8 C 71 %
528 07-09-2015 09:27:17 12.9 C 71 %
529 07-09-2015 09:39:16 12.9 C 70 %
530 07-09-2015 09:51:17 13 C 69 %
531 07-09-2015 10:03:17 13 C 69 %
532 07-09-2015 10:15:16 13.2 C 69 %
533 07-09-2015 10:27:16 13.5 C 69 %
534 07-09-2015 10:39:16 13.5 C 69 %
535 07-09-2015 10:51:17 13.5 C 69 %
536 07-09-2015 11:03:17 13.6 C 68 %
537 07-09-2015 11:15:17 13.8 C 68 %
538 07-09-2015 11:27:17 13.8 C 68 %
539 07-09-2015 11:39:16 14 C 67 %
540 07-09-2015 11:51:16 14.2 C 66 %
541 07-09-2015 12:03:17 14.6 C 64 %
542 07-09-2015 12:15:17 14.7 C 64 %
543 07-09-2015 12:27:17 14.8 C 63 %
544 07-09-2015 12:39:16 14.9 C 64 %
545 07-09-2015 12:51:17 15.1 C 60 %
546 07-09-2015 13:03:16 15 C 61 %
547 07-09-2015 13:15:16 15.2 C 60 %
548 07-09-2015 13:27:16 15.6 C 60 %
549 07-09-2015 13:39:16 15.8 C 59 %
550 07-09-2015 13:51:17 15.5 C 61 %
Sensor: Nr:Datum:Temp:Feuchte:
Aussen-T/F 551 07-09-2015 14:03:16 16.7 C 56 %
552 07-09-2015 14:15:16 17 C 53 %
553 07-09-2015 14:27:16 16.4 C 54 %
554 07-09-2015 14:39:16 16.4 C 56 %
555 07-09-2015 14:51:16 16.2 C 55 %
556 07-09-2015 15:03:16 16.6 C 55 %
557 07-09-2015 15:15:16 16.8 C 53 %
558 07-09-2015 15:27:17 16.3 C 54 %
559 07-09-2015 15:39:16 16.3 C 57 %
560 07-09-2015 15:51:16 16.3 C 59 %
561 07-09-2015 16:03:16 16.6 C 57 %
562 07-09-2015 16:15:16 16.8 C 56 %
563 07-09-2015 16:27:16 16.4 C 56 %
564 07-09-2015 16:39:16 15.6 C 60 %
565 07-09-2015 16:51:16 14.6 C 70 %
566 07-09-2015 17:03:16 14.9 C 74 %
567 07-09-2015 17:15:16 15 C 74 %
568 07-09-2015 17:27:16 15 C 75 %
569 07-09-2015 17:39:16 14.9 C 77 %
570 07-09-2015 17:51:16 14.9 C 78 %
571 07-09-2015 18:03:16 14.9 C 78 %
572 07-09-2015 18:15:16 14.7 C 77 %
573 07-09-2015 18:27:16 14.6 C 78 %
574 07-09-2015 18:39:16 14.8 C 79 %
575 07-09-2015 18:51:16 14.6 C 80 %
Sensor: Nr:Datum:Temp:Feuchte:
Aussen-T/F 576 07-09-2015 19:03:16 14.4 C 80 %
577 07-09-2015 19:15:15 14.3 C 80 %
578 07-09-2015 19:27:15 14.2 C 80 %
579 07-09-2015 19:39:16 14.2 C 80 %
580 07-09-2015 19:51:16 14.1 C 80 %
581 07-09-2015 20:03:16 13.8 C 81 %
582 07-09-2015 20:15:16 13.8 C 82 %
583 07-09-2015 20:27:16 13.9 C 82 %
584 07-09-2015 20:39:16 13.6 C 82 %
585 07-09-2015 20:51:16 13.6 C 83 %
586 07-09-2015 21:03:16 13.6 C 83 %
587 07-09-2015 21:15:16 13.7 C 83 %
588 07-09-2015 21:27:16 13.7 C 83 %
589 07-09-2015 21:39:16 13.7 C 83 %
590 07-09-2015 21:51:16 13.6 C 83 %
591 07-09-2015 22:03:16 13.7 C 83 %
592 07-09-2015 22:15:16 13.7 C 83 %
593 07-09-2015 22:27:16 13.7 C 83 %
594 07-09-2015 22:39:16 13.9 C 82 %
595 07-09-2015 22:51:15 13.7 C 82 %
596 07-09-2015 23:03:16 13.7 C 82 %
597 07-09-2015 23:15:16 13.5 C 83 %
598 07-09-2015 23:27:16 13.4 C 84 %
599 07-09-2015 23:39:16 13.5 C 84 %
600 07-09-2015 23:51:15 13.5 C 85 %
Sensor: Nr:Datum:Temp:Feuchte:
Aussen-T/F 601 08-09-2015 00:03:15 13.5 C 86 %
602 08-09-2015 00:15:16 13.4 C 86 %
603 08-09-2015 00:27:16 13.3 C 87 %
604 08-09-2015 00:39:16 13.3 C 87 %
605 08-09-2015 00:51:16 13.4 C 87 %
606 08-09-2015 01:03:16 13.4 C 87 %
607 08-09-2015 01:15:15 13.4 C 87 %
608 08-09-2015 01:27:15 13.4 C 88 %
609 08-09-2015 01:39:15 13.4 C 88 %
610 08-09-2015 01:51:16 13.4 C 88 %
611 08-09-2015 02:03:16 13.4 C 88 %
612 08-09-2015 02:15:15 13.4 C 88 %
613 08-09-2015 02:27:15 13.4 C 88 %
614 08-09-2015 02:39:15 13.3 C 88 %
615 08-09-2015 02:51:17 13.3 C 88 %
616 08-09-2015 03:03:17 13.2 C 88 %
617 08-09-2015 03:15:17 13 C 87 %
618 08-09-2015 03:27:17 12.7 C 88 %
619 08-09-2015 03:39:17 12.6 C 88 %
620 08-09-2015 03:51:17 12.5 C 88 %
621 08-09-2015 04:03:17 12.5 C 88 %
622 08-09-2015 04:15:17 12.5 C 89 %
623 08-09-2015 04:27:17 12.8 C 89 %
624 08-09-2015 04:39:17 12.9 C 89 %
625 08-09-2015 04:51:17 12.9 C 89 %
Sensor: Nr:Datum:Temp:Feuchte:
Aussen-T/F 626 08-09-2015 05:03:17 12.9 C 89 %
627 08-09-2015 05:15:17 12.9 C 89 %
628 08-09-2015 05:27:17 12.8 C 89 %
629 08-09-2015 05:39:17 12.8 C 89 %
630 08-09-2015 05:51:17 12.8 C 89 %
631 08-09-2015 06:03:17 12.8 C 90 %
632 08-09-2015 06:15:17 12.7 C 90 %
633 08-09-2015 06:27:17 12.6 C 90 %
634 08-09-2015 06:39:17 12.5 C 90 %
635 08-09-2015 06:51:17 12.4 C 89 %
636 08-09-2015 07:03:17 12.4 C 90 %
637 08-09-2015 07:15:17 12.4 C 90 %
638 08-09-2015 07:27:17 12.4 C 89 %
639 08-09-2015 07:39:17 12.5 C 90 %
640 08-09-2015 07:51:17 12.6 C 90 %
641 08-09-2015 08:03:17 12.8 C 90 %
642 08-09-2015 08:15:17 13 C 89 %
643 08-09-2015 08:27:17 13.1 C 89 %
644 08-09-2015 08:39:17 13.3 C 89 %
645 08-09-2015 08:51:17 13.6 C 89 %
646 08-09-2015 09:03:17 13.8 C 89 %
647 08-09-2015 09:15:17 14.2 C 86 %
648 08-09-2015 09:27:17 14.3 C 79 %
649 08-09-2015 09:39:17 14.2 C 70 %
650 08-09-2015 09:51:17 14.4 C 70 %
Sensor: Nr:Datum:Temp:Feuchte:
Aussen-T/F 651 08-09-2015 10:03:17 14.1 C 68 %
652 08-09-2015 10:15:17 14.6 C 67 %
653 08-09-2015 10:27:17 15 C 61 %
654 08-09-2015 10:39:17 15 C 62 %
655 08-09-2015 10:51:17 15.5 C 62 %
656 08-09-2015 11:03:17 15.4 C 58 %
657 08-09-2015 11:15:17 15.1 C 58 %
658 08-09-2015 11:27:17 15.2 C 58 %
659 08-09-2015 11:39:17 15.4 C 58 %
660 08-09-2015 11:51:17 16.1 C 56 %
661 08-09-2015 12:03:17 16.4 C 52 %
662 08-09-2015 12:15:17 16.8 C 50 %
663 08-09-2015 12:27:17 16.8 C 50 %
664 08-09-2015 12:39:17 16.2 C 52 %
665 08-09-2015 12:51:17 16.3 C 50 %
666 08-09-2015 13:03:17 16.7 C 49 %
667 08-09-2015 13:15:17 17.1 C 47 %
668 08-09-2015 13:27:17 18.1 C 45 %
669 08-09-2015 13:39:17 18 C 44 %
670 08-09-2015 13:51:17 17.7 C 45 %
671 08-09-2015 14:03:17 17.5 C 50 %
672 08-09-2015 14:15:17 17.9 C 47 %
673 08-09-2015 14:27:17 18 C 49 %
674 08-09-2015 14:39:17 19.2 C 46 %
675 08-09-2015 14:51:17 17.5 C 49 %
Sensor: Nr:Datum:Temp:Feuchte:
Aussen-T/F 676 08-09-2015 15:03:17 17.6 C 51 %
677 08-09-2015 15:15:17 17.5 C 51 %
678 08-09-2015 15:27:17 17.7 C 50 %
679 08-09-2015 15:39:17 18.2 C 47 %
680 08-09-2015 15:51:17 18.5 C 46 %
681 08-09-2015 16:03:17 19.2 C 45 %
682 08-09-2015 16:15:17 18.7 C 44 %
683 08-09-2015 16:27:17 19.4 C 43 %
684 08-09-2015 16:39:17 19.8 C 42 %
685 08-09-2015 16:51:17 20.9 C 40 %
686 08-09-2015 17:03:17 22.9 C 34 %
687 08-09-2015 17:15:17 25 C 30 %
688 08-09-2015 17:27:17 23.6 C 30 %
689 08-09-2015 17:39:17 24.9 C 29 %
690 08-09-2015 17:51:17 22 C 35 %
691 08-09-2015 18:03:17 23.6 C 31 %
692 08-09-2015 18:15:17 20.8 C 35 %
693 08-09-2015 18:27:17 20.5 C 41 %
694 08-09-2015 18:39:17 22.1 C 35 %
695 08-09-2015 18:51:17 19.9 C 40 %
696 08-09-2015 19:03:17 17.7 C 47 %
697 08-09-2015 19:15:17 16.6 C 52 %
698 08-09-2015 19:27:17 16.4 C 55 %
699 08-09-2015 19:39:17 16 C 56 %
700 08-09-2015 19:51:17 15.5 C 58 %
Sensor: Nr:Datum:Temp:Feuchte:
Aussen-T/F 701 08-09-2015 20:03:17 15.2 C 60 %
702 08-09-2015 20:15:17 14.6 C 64 %
703 08-09-2015 20:27:17 14.2 C 66 %
704 08-09-2015 20:39:17 14.1 C 69 %
705 08-09-2015 20:51:17 14.8 C 68 %
706 08-09-2015 21:03:17 15 C 66 %
707 08-09-2015 21:15:17 14.8 C 68 %
708 08-09-2015 21:27:17 14.8 C 69 %
709 08-09-2015 21:39:17 14.6 C 69 %
710 08-09-2015 21:51:17 14.5 C 70 %
711 08-09-2015 22:03:17 14.6 C 69 %
712 08-09-2015 22:15:17 14.5 C 70 %
713 08-09-2015 22:27:17 14.3 C 69 %
714 08-09-2015 22:39:17 14.3 C 70 %
715 08-09-2015 22:51:17 14.2 C 70 %
716 08-09-2015 23:03:17 14.2 C 71 %
717 08-09-2015 23:15:17 14.1 C 71 %
718 08-09-2015 23:27:17 14.1 C 71 %
719 08-09-2015 23:39:17 14.1 C 72 %
720 08-09-2015 23:51:17 14 C 72 %
721 09-09-2015 00:03:17 13.9 C 73 %
722 09-09-2015 00:15:17 14 C 73 %
723 09-09-2015 00:27:17 14 C 73 %
724 09-09-2015 00:39:17 13.9 C 74 %
725 09-09-2015 00:51:17 13.9 C 74 %
Sensor: Nr:Datum:Temp:Feuchte:
Aussen-T/F 726 09-09-2015 01:03:17 13.8 C 74 %
727 09-09-2015 01:15:17 13.8 C 74 %
728 09-09-2015 01:27:17 13.7 C 75 %
729 09-09-2015 01:39:17 13.7 C 75 %
730 09-09-2015 01:51:17 13.6 C 75 %
731 09-09-2015 02:03:17 13.7 C 76 %
732 09-09-2015 02:15:17 13.7 C 76 %
733 09-09-2015 02:27:18 13.6 C 76 %
734 09-09-2015 02:39:17 13.5 C 76 %
735 09-09-2015 02:51:17 13.5 C 76 %
736 09-09-2015 03:03:17 13.5 C 76 %
737 09-09-2015 03:15:17 13.4 C 76 %
738 09-09-2015 03:27:17 13.4 C 77 %
739 09-09-2015 03:39:17 13.4 C 77 %
740 09-09-2015 03:51:17 13.3 C 77 %
741 09-09-2015 04:03:18 13.3 C 77 %
742 09-09-2015 04:15:17 13.3 C 77 %
743 09-09-2015 04:27:17 13.3 C 77 %
744 09-09-2015 04:39:17 13.3 C 77 %
745 09-09-2015 04:51:17 13.2 C 77 %
746 09-09-2015 05:03:17 13.1 C 77 %
747 09-09-2015 05:15:17 13 C 77 %
748 09-09-2015 05:27:17 13 C 77 %
749 09-09-2015 05:39:17 13 C 77 %
750 09-09-2015 05:51:17 12.9 C 78 %
Sensor: Nr:Datum:Temp:Feuchte:
Aussen-T/F 751 09-09-2015 06:03:17 12.8 C 79 %
752 09-09-2015 06:15:17 12.8 C 79 %
753 09-09-2015 06:27:17 12.8 C 79 %
754 09-09-2015 06:39:17 12.7 C 79 %
755 09-09-2015 06:51:17 12.8 C 79 %
756 09-09-2015 07:03:17 12.9 C 80 %
757 09-09-2015 07:15:17 12.9 C 80 %
758 09-09-2015 07:27:17 12.9 C 80 %
759 09-09-2015 07:39:17 13.2 C 79 %
760 09-09-2015 07:51:17 13.2 C 79 %
761 09-09-2015 08:03:17 12.7 C 79 %
762 09-09-2015 08:15:17 12.7 C 80 %
763 09-09-2015 08:27:17 12.5 C 80 %
764 09-09-2015 08:39:18 12.4 C 80 %
765 09-09-2015 08:51:17 12.3 C 81 %
766 09-09-2015 09:03:17 12.5 C 82 %
767 09-09-2015 09:15:17 13.4 C 81 %
768 09-09-2015 09:27:17 14 C 78 %
769 09-09-2015 09:39:17 14.9 C 73 %
770 09-09-2015 09:51:17 14.6 C 64 %
771 09-09-2015 10:03:17 14.2 C 66 %
772 09-09-2015 10:15:17 14.4 C 65 %
773 09-09-2015 10:27:17 14.5 C 64 %
774 09-09-2015 10:39:17 15 C 61 %
775 09-09-2015 10:51:17 15.6 C 57 %
Sensor: Nr:Datum:Temp:Feuchte:
Aussen-T/F 776 09-09-2015 11:03:17 16.2 C 55 %
777 09-09-2015 11:15:17 17 C 50 %
778 09-09-2015 11:27:17 16.7 C 50 %
779 09-09-2015 11:39:17 16.8 C 51 %
780 09-09-2015 11:51:17 17.2 C 48 %
781 09-09-2015 12:03:17 17.6 C 45 %
782 09-09-2015 12:15:17 17.4 C 47 %
783 09-09-2015 12:27:17 16.8 C 50 %
784 09-09-2015 12:39:17 16.5 C 51 %
785 09-09-2015 12:51:17 17.1 C 47 %
786 09-09-2015 13:03:17 16.8 C 51 %
787 09-09-2015 13:15:17 17.1 C 46 %
788 09-09-2015 13:27:17 18.1 C 43 %
789 09-09-2015 13:39:17 18.1 C 42 %
790 09-09-2015 13:51:17 18.1 C 41 %
791 09-09-2015 14:03:17 18.4 C 41 %
792 09-09-2015 14:15:17 18.3 C 40 %
793 09-09-2015 14:27:17 18.9 C 42 %
794 09-09-2015 14:39:17 19 C 38 %
795 09-09-2015 14:51:17 19.1 C 39 %
796 09-09-2015 15:03:17 19.1 C 40 %
797 09-09-2015 15:15:16 19.5 C 37 %
798 09-09-2015 15:27:17 19.8 C 36 %
799 09-09-2015 15:39:17 20 C 34 %
800 09-09-2015 15:51:17 20.1 C 34 %
Sensor: Nr:Datum:Temp:Feuchte:
Aussen-T/F 801 09-09-2015 16:03:17 20.3 C 35 %
802 09-09-2015 16:15:17 20.9 C 32 %
803 09-09-2015 16:27:17 22.1 C 29 %
804 09-09-2015 16:39:17 22.4 C 28 %
805 09-09-2015 16:51:17 22.9 C 28 %
806 09-09-2015 17:03:17 23.1 C 24 %
807 09-09-2015 17:15:17 24.4 C 23 %
808 09-09-2015 17:27:17 24.7 C 21 %
809 09-09-2015 17:39:18 23.8 C 22 %
810 09-09-2015 17:51:17 25.7 C 20 %
811 09-09-2015 18:03:18 24.9 C 21 %
812 09-09-2015 18:15:17 24.4 C 22 %
813 09-09-2015 18:27:17 22.9 C 24 %
814 09-09-2015 18:39:17 23.9 C 25 %
815 09-09-2015 18:51:17 23.5 C 25 %
816 09-09-2015 19:03:17 20.4 C 35 %
817 09-09-2015 19:15:17 19.2 C 38 %
818 09-09-2015 19:27:17 18.4 C 39 %
819 09-09-2015 19:39:17 17.8 C 42 %
820 09-09-2015 19:51:17 16.8 C 46 %
821 09-09-2015 20:03:17 15.9 C 47 %
822 09-09-2015 20:15:17 15.1 C 50 %
823 09-09-2015 20:27:17 14.5 C 50 %
824 09-09-2015 20:39:17 14.2 C 52 %
825 09-09-2015 20:51:17 13.9 C 53 %
Sensor: Nr:Datum:Temp:Feuchte:
Aussen-T/F 826 09-09-2015 21:03:17 13.6 C 54 %
827 09-09-2015 21:15:17 13.4 C 55 %
828 09-09-2015 21:27:18 13.2 C 54 %
829 09-09-2015 21:39:17 13.1 C 55 %
830 09-09-2015 21:51:17 12.8 C 57 %
831 09-09-2015 22:03:17 12.6 C 57 %
832 09-09-2015 22:15:17 12.5 C 57 %
833 09-09-2015 22:27:17 12.4 C 58 %
834 09-09-2015 22:39:17 12.2 C 59 %
835 09-09-2015 22:51:17 12.5 C 57 %
836 09-09-2015 23:03:17 11.6 C 59 %
837 09-09-2015 23:15:17 11.8 C 61 %
838 09-09-2015 23:27:17 11.6 C 61 %
839 09-09-2015 23:39:17 11.5 C 61 %
840 09-09-2015 23:51:17 11.4 C 61 %
841 10-09-2015 00:03:17 11.4 C 61 %
842 10-09-2015 00:15:17 11 C 62 %
843 10-09-2015 00:27:17 10.9 C 64 %
844 10-09-2015 00:39:18 10.8 C 64 %
845 10-09-2015 00:51:17 10.7 C 65 %
846 10-09-2015 01:03:17 10.5 C 65 %
847 10-09-2015 01:15:17 10.5 C 66 %
848 10-09-2015 01:27:17 10.4 C 66 %
849 10-09-2015 01:39:17 10.4 C 66 %
850 10-09-2015 01:51:17 10.2 C 66 %
Sensor: Nr:Datum:Temp:Feuchte:
Aussen-T/F 851 10-09-2015 02:03:17 10.3 C 66 %
852 10-09-2015 02:15:17 10 C 67 %
853 10-09-2015 02:27:17 10.2 C 66 %
854 10-09-2015 02:39:17 9.9 C 68 %
855 10-09-2015 02:51:17 9.7 C 69 %
856 10-09-2015 03:03:17 9.5 C 70 %
857 10-09-2015 03:15:17 9.2 C 71 %
858 10-09-2015 03:27:17 9.1 C 72 %
859 10-09-2015 03:39:17 9.1 C 73 %
860 10-09-2015 03:51:17 9 C 73 %
861 10-09-2015 04:03:17 8.9 C 75 %
862 10-09-2015 04:15:17 8.7 C 76 %
863 10-09-2015 04:27:17 8.7 C 77 %
864 10-09-2015 04:39:17 8.5 C 77 %
865 10-09-2015 04:51:17 8.4 C 78 %
866 10-09-2015 05:03:17 8.2 C 78 %
867 10-09-2015 05:15:17 8.2 C 79 %
868 10-09-2015 05:27:17 8.1 C 80 %
869 10-09-2015 05:39:17 8 C 80 %
870 10-09-2015 05:51:17 7.9 C 82 %
871 10-09-2015 06:03:17 8 C 81 %
872 10-09-2015 06:15:17 8 C 82 %
873 10-09-2015 06:27:17 7.8 C 83 %
874 10-09-2015 06:39:17 7.7 C 84 %
875 10-09-2015 06:51:17 7.6 C 84 %
Sensor: Nr:Datum:Temp:Feuchte:
Aussen-T/F 876 10-09-2015 07:03:17 7.6 C 84 %
877 10-09-2015 07:15:17 7.8 C 84 %
878 10-09-2015 07:27:17 7.8 C 85 %
879 10-09-2015 07:39:17 7.9 C 85 %
880 10-09-2015 07:51:17 8 C 84 %
881 10-09-2015 08:03:17 8.1 C 85 %
882 10-09-2015 08:15:17 8.2 C 85 %
883 10-09-2015 08:27:17 8.4 C 85 %
884 10-09-2015 08:39:17 8.7 C 86 %
885 10-09-2015 08:51:17 8.8 C 86 %
886 10-09-2015 09:03:17 9 C 85 %
887 10-09-2015 09:15:17 9 C 85 %
888 10-09-2015 09:27:17 9.2 C 85 %
889 10-09-2015 09:39:17 9.5 C 85 %
890 10-09-2015 09:51:17 9.7 C 86 %
891 10-09-2015 10:03:17 10 C 84 %
892 10-09-2015 10:15:17 10.2 C 84 %
893 10-09-2015 10:27:17 10.7 C 85 %
894 10-09-2015 10:39:17 11.5 C 83 %
895 10-09-2015 10:51:16 11.9 C 80 %
896 10-09-2015 11:03:17 12.2 C 74 %
897 10-09-2015 11:15:17 12.8 C 70 %
898 10-09-2015 11:27:17 13.1 C 65 %
899 10-09-2015 11:39:17 14.1 C 58 %
900 10-09-2015 11:51:17 14.1 C 55 %
Sensor: Nr:Datum:Temp:Feuchte:
Aussen-T/F 901 10-09-2015 12:03:17 14.9 C 50 %
902 10-09-2015 12:15:17 15.2 C 49 %
903 10-09-2015 12:27:17 15.4 C 48 %
904 10-09-2015 12:39:17 16 C 46 %
905 10-09-2015 12:51:17 16.2 C 45 %
906 10-09-2015 13:03:17 16.3 C 44 %
907 10-09-2015 13:15:17 16.4 C 45 %
908 10-09-2015 13:27:17 16.3 C 44 %
909 10-09-2015 13:39:17 16.7 C 43 %
910 10-09-2015 13:51:17 17.5 C 41 %
911 10-09-2015 14:03:17 17.6 C 40 %
912 10-09-2015 14:15:17 18 C 40 %
913 10-09-2015 14:27:17 18.3 C 38 %
914 10-09-2015 14:39:17 19.4 C 35 %
915 10-09-2015 14:51:17 19.1 C 34 %
916 10-09-2015 15:03:17 18.6 C 35 %
917 10-09-2015 15:15:17 19.2 C 34 %
918 10-09-2015 15:27:17 19.4 C 34 %
919 10-09-2015 15:39:17 18.7 C 36 %
920 10-09-2015 15:51:17 18.4 C 38 %
921 10-09-2015 16:03:17 19.6 C 34 %
922 10-09-2015 16:15:17 18.7 C 36 %
923 10-09-2015 16:27:17 19.4 C 37 %
924 10-09-2015 16:39:18 20.3 C 32 %
925 10-09-2015 16:51:16 19.6 C 36 %
Sensor: Nr:Datum:Temp:Feuchte:
Aussen-T/F 926 10-09-2015 17:03:17 19 C 39 %
927 10-09-2015 17:15:17 25.3 C 23 %
928 10-09-2015 17:27:17 22.3 C 28 %
929 10-09-2015 17:39:17 19 C 37 %
930 10-09-2015 17:51:17 18.3 C 43 %
931 10-09-2015 18:03:17 20.8 C 35 %
932 10-09-2015 18:15:17 18.6 C 40 %
933 10-09-2015 18:27:17 20.3 C 40 %
934 10-09-2015 18:39:17 23 C 29 %
935 10-09-2015 18:51:17 22.1 C 31 %
936 10-09-2015 19:03:17 18.9 C 40 %
937 10-09-2015 19:15:16 17.4 C 43 %
938 10-09-2015 19:27:16 16.7 C 48 %
939 10-09-2015 19:39:17 15.4 C 52 %
940 10-09-2015 19:51:17 14.7 C 55 %
941 10-09-2015 20:03:17 14 C 56 %
942 10-09-2015 20:15:17 13.6 C 57 %
943 10-09-2015 20:27:17 13.3 C 59 %
944 10-09-2015 20:39:17 13.1 C 59 %
945 10-09-2015 20:51:16 13 C 59 %
946 10-09-2015 21:03:17 12.7 C 61 %
947 10-09-2015 21:15:17 12.5 C 61 %
948 10-09-2015 21:27:17 12 C 62 %
949 10-09-2015 21:39:17 12.2 C 61 %
950 10-09-2015 21:51:17 12 C 62 %
Sensor: Nr:Datum:Temp:Feuchte:
Aussen-T/F 951 10-09-2015 22:03:17 11.9 C 64 %
952 10-09-2015 22:15:17 11.9 C 64 %
953 10-09-2015 22:27:17 11.8 C 64 %
954 10-09-2015 22:39:17 11.6 C 64 %
955 10-09-2015 22:51:17 11.9 C 65 %
956 10-09-2015 23:03:17 11.4 C 64 %
957 10-09-2015 23:15:17 11.4 C 66 %
958 10-09-2015 23:27:17 11.1 C 66 %
959 10-09-2015 23:39:17 10.9 C 67 %
960 10-09-2015 23:51:17 10.7 C 68 %
961 11-09-2015 00:03:17 10.6 C 68 %
962 11-09-2015 00:15:17 10.5 C 69 %
963 11-09-2015 00:27:17 10.5 C 69 %
964 11-09-2015 00:39:17 10.7 C 69 %
965 11-09-2015 00:51:17 10.6 C 69 %
966 11-09-2015 01:03:17 10.7 C 68 %
967 11-09-2015 01:15:17 10.7 C 68 %
968 11-09-2015 01:27:17 10.7 C 66 %
969 11-09-2015 01:39:17 10.4 C 68 %
970 11-09-2015 01:51:17 10.2 C 69 %
971 11-09-2015 02:03:17 10.2 C 70 %
972 11-09-2015 02:15:17 10 C 70 %
973 11-09-2015 02:27:17 9.9 C 71 %
974 11-09-2015 02:39:17 9.7 C 71 %
975 11-09-2015 02:51:17 9.6 C 72 %
Sensor: Nr:Datum:Temp:Feuchte:
Aussen-T/F 976 11-09-2015 03:03:17 9.5 C 72 %
977 11-09-2015 03:15:17 9.5 C 73 %
978 11-09-2015 03:27:17 9.6 C 73 %
979 11-09-2015 03:39:17 9.3 C 73 %
980 11-09-2015 03:51:17 9.2 C 74 %
981 11-09-2015 04:03:17 9.1 C 74 %
982 11-09-2015 04:15:17 9 C 75 %
983 11-09-2015 04:27:17 8.8 C 77 %
984 11-09-2015 04:39:17 8.6 C 77 %
985 11-09-2015 04:51:17 8.7 C 79 %
986 11-09-2015 05:03:17 8.5 C 80 %
987 11-09-2015 05:15:17 8.3 C 80 %
988 11-09-2015 05:27:17 8.2 C 81 %
989 11-09-2015 05:39:17 8.1 C 81 %
990 11-09-2015 05:51:17 8 C 82 %
991 11-09-2015 06:03:17 7.9 C 83 %
992 11-09-2015 06:15:17 7.7 C 83 %
993 11-09-2015 06:27:17 7.6 C 84 %
994 11-09-2015 06:39:17 7.6 C 84 %
995 11-09-2015 06:51:17 7.4 C 84 %
996 11-09-2015 07:03:17 7.4 C 85 %
997 11-09-2015 07:15:17 7.5 C 85 %
998 11-09-2015 07:27:17 7.5 C 86 %
999 11-09-2015 07:39:17 7.5 C 86 %
1000 11-09-2015 07:51:16 7.6 C 86 %
Sensor: Nr:Datum:Temp:Feuchte:
Aussen-T/F 1001 11-09-2015 08:03:17 7.9 C 87 %
1002 11-09-2015 08:15:17 8 C 86 %
1003 11-09-2015 08:27:17 8.2 C 86 %
1004 11-09-2015 08:39:17 8.4 C 87 %
1005 11-09-2015 08:51:17 8.6 C 87 %
1006 11-09-2015 09:03:17 8.8 C 87 %
1007 11-09-2015 09:15:17 9 C 86 %
1008 11-09-2015 09:27:17 9.3 C 87 %
1009 11-09-2015 09:39:17 10 C 85 %
1010 11-09-2015 09:51:17 10 C 83 %
1011 11-09-2015 10:03:17 10.1 C 82 %
1012 11-09-2015 10:15:17 10.3 C 82 %
1013 11-09-2015 10:27:17 10.7 C 81 %
1014 11-09-2015 10:39:17 11.5 C 77 %
1015 11-09-2015 10:51:17 12.1 C 69 %
1016 11-09-2015 11:03:17 12.5 C 65 %
1017 11-09-2015 11:15:17 12.6 C 65 %
1018 11-09-2015 11:27:17 13.2 C 61 %
1019 11-09-2015 11:39:17 13.4 C 60 %
1020 11-09-2015 11:51:17 13.9 C 58 %
1021 11-09-2015 12:03:17 14.3 C 56 %
1022 11-09-2015 12:15:16 14.5 C 54 %
1023 11-09-2015 12:27:16 14.9 C 54 %
1024 11-09-2015 12:39:17 14.9 C 54 %
1025 11-09-2015 12:51:17 15.2 C 52 %
Sensor: Nr:Datum:Temp:Feuchte:
Aussen-T/F 1026 11-09-2015 13:03:17 15.8 C 51 %
1027 11-09-2015 13:15:17 16.4 C 48 %
1028 11-09-2015 13:27:17 16.6 C 49 %
1029 11-09-2015 13:39:17 16.9 C 48 %
1030 11-09-2015 13:51:17 17.6 C 46 %
1031 11-09-2015 14:03:17 18 C 44 %
1032 11-09-2015 14:15:17 17.9 C 46 %
1033 11-09-2015 14:27:17 18.1 C 43 %
1034 11-09-2015 14:39:17 18.1 C 48 %
1035 11-09-2015 14:51:17 19.5 C 40 %
1036 11-09-2015 15:03:17 19.8 C 36 %
1037 11-09-2015 15:15:17 20.4 C 36 %
1038 11-09-2015 15:27:17 21.1 C 32 %
1039 11-09-2015 15:39:17 21.3 C 33 %
1040 11-09-2015 15:51:17 21.2 C 31 %
1041 11-09-2015 16:03:17 21.3 C 35 %
1042 11-09-2015 16:15:17 19.6 C 40 %
1043 11-09-2015 16:27:17 18.2 C 47 %
1044 11-09-2015 16:39:17 18.7 C 48 %
1045 11-09-2015 16:51:17 18.2 C 48 %
1046 11-09-2015 17:03:17 20.8 C 46 %
1047 11-09-2015 17:15:17 22.9 C 36 %
1048 11-09-2015 17:27:17 26.1 C 28 %
1049 11-09-2015 17:39:17 26.6 C 27 %
1050 11-09-2015 17:51:17 25.4 C 27 %
Sensor: Nr:Datum:Temp:Feuchte:
Aussen-T/F 1051 11-09-2015 18:03:17 26 C 26 %
1052 11-09-2015 18:15:16 25.8 C 26 %
1053 11-09-2015 18:27:16 24.8 C 27 %
1054 11-09-2015 18:39:16 22.8 C 31 %
1055 11-09-2015 18:51:16 20.6 C 36 %
1056 11-09-2015 19:03:17 18.4 C 43 %
1057 11-09-2015 19:15:17 17 C 46 %
1058 11-09-2015 19:27:17 16.3 C 48 %
1059 11-09-2015 19:39:17 15.2 C 50 %
1060 11-09-2015 19:51:17 14.6 C 52 %
1061 11-09-2015 20:03:17 14.1 C 53 %
1062 11-09-2015 20:15:17 13.8 C 54 %
1063 11-09-2015 20:27:17 13.7 C 54 %
1064 11-09-2015 20:39:17 13.4 C 54 %
1065 11-09-2015 20:51:17 13.2 C 55 %
1066 11-09-2015 21:03:17 13 C 56 %
1067 11-09-2015 21:15:17 12.8 C 57 %
1068 11-09-2015 21:27:17 12.7 C 59 %
1069 11-09-2015 21:39:17 12.3 C 60 %
1070 11-09-2015 21:51:17 12.1 C 62 %
1071 11-09-2015 22:03:17 11.5 C 64 %
1072 11-09-2015 22:15:17 11.2 C 65 %
1073 11-09-2015 22:27:17 10.8 C 67 %
1074 11-09-2015 22:39:17 10.7 C 68 %
1075 11-09-2015 22:51:17 10.7 C 69 %
Sensor: Nr:Datum:Temp:Feuchte:
Aussen-T/F 1076 11-09-2015 23:03:17 10.4 C 69 %
1077 11-09-2015 23:15:17 10.3 C 69 %
1078 11-09-2015 23:27:17 10.1 C 70 %
1079 11-09-2015 23:39:17 10 C 70 %
1080 11-09-2015 23:51:17 9.9 C 72 %
1081 12-09-2015 00:03:18 9.7 C 72 %
1082 12-09-2015 00:15:17 9.6 C 73 %
1083 12-09-2015 00:27:17 9.5 C 73 %
1084 12-09-2015 00:39:17 9.3 C 74 %
1085 12-09-2015 00:51:17 9.2 C 74 %
1086 12-09-2015 01:03:17 9.3 C 75 %
1087 12-09-2015 01:15:17 9.4 C 76 %
1088 12-09-2015 01:27:17 9.6 C 77 %
1089 12-09-2015 01:39:17 9.7 C 77 %
1090 12-09-2015 01:51:17 9.8 C 77 %
1091 12-09-2015 02:03:17 9.8 C 78 %
1092 12-09-2015 02:15:17 9.8 C 78 %
1093 12-09-2015 02:27:17 9.7 C 78 %
1094 12-09-2015 02:39:17 9.5 C 77 %
1095 12-09-2015 02:51:17 9.2 C 77 %
1096 12-09-2015 03:03:17 9.2 C 78 %
1097 12-09-2015 03:15:17 9.2 C 78 %
1098 12-09-2015 03:27:17 9.3 C 79 %
1099 12-09-2015 03:39:17 9.2 C 79 %
1100 12-09-2015 03:51:17 9.2 C 79 %
Sensor: Nr:Datum:Temp:Feuchte:
Aussen-T/F 1101 12-09-2015 04:03:17 9.2 C 79 %
1102 12-09-2015 04:15:17 9.2 C 80 %
1103 12-09-2015 04:27:17 9.3 C 80 %
1104 12-09-2015 04:39:17 9.3 C 80 %
1105 12-09-2015 04:51:17 9.3 C 81 %
1106 12-09-2015 05:03:17 9.3 C 81 %
1107 12-09-2015 05:15:17 9.2 C 81 %
1108 12-09-2015 05:27:17 9.2 C 81 %
1109 12-09-2015 05:39:17 9.1 C 81 %
1110 12-09-2015 05:51:17 9.3 C 82 %
1111 12-09-2015 06:03:17 9.6 C 82 %
1112 12-09-2015 06:15:17 9.7 C 82 %
1113 12-09-2015 06:27:17 9.6 C 82 %
1114 12-09-2015 06:39:17 9.6 C 82 %
1115 12-09-2015 06:51:17 9.7 C 82 %
1116 12-09-2015 07:03:17 9.8 C 82 %
1117 12-09-2015 07:15:17 9.6 C 81 %
1118 12-09-2015 07:27:17 9.3 C 81 %
1119 12-09-2015 07:39:17 9.2 C 81 %
1120 12-09-2015 07:51:17 9.3 C 82 %
1121 12-09-2015 08:03:17 9.4 C 82 %
1122 12-09-2015 08:15:17 9.7 C 83 %
1123 12-09-2015 08:27:17 9.8 C 83 %
1124 12-09-2015 08:39:17 10 C 81 %
1125 12-09-2015 08:51:17 10.1 C 81 %
Sensor: Nr:Datum:Temp:Feuchte:
Aussen-T/F 1126 12-09-2015 09:03:17 10.7 C 82 %
1127 12-09-2015 09:15:17 11.9 C 81 %
1128 12-09-2015 09:27:17 12.7 C 77 %
1129 12-09-2015 09:39:18 13 C 71 %
1130 12-09-2015 09:51:17 13.4 C 70 %
1131 12-09-2015 10:03:17 13.8 C 70 %
1132 12-09-2015 10:15:17 14.7 C 65 %
1133 12-09-2015 10:27:17 15.1 C 58 %
1134 12-09-2015 10:39:17 15.5 C 59 %
1135 12-09-2015 10:51:17 16.2 C 53 %
1136 12-09-2015 11:03:17 16.5 C 51 %
1137 12-09-2015 11:15:17 16.9 C 53 %
1138 12-09-2015 11:27:17 17.1 C 48 %
1139 12-09-2015 11:39:17 17.7 C 48 %
1140 12-09-2015 11:51:16 17.9 C 48 %
1141 12-09-2015 12:03:17 18 C 50 %
1142 12-09-2015 12:15:17 18.1 C 47 %
1143 12-09-2015 12:27:17 18.4 C 49 %
1144 12-09-2015 12:39:17 19 C 47 %
1145 12-09-2015 12:51:17 19.3 C 48 %
1146 12-09-2015 13:03:17 19.2 C 48 %
1147 12-09-2015 13:15:17 19.2 C 49 %
1148 12-09-2015 13:27:17 19.1 C 51 %
1149 12-09-2015 13:39:17 19.4 C 52 %
1150 12-09-2015 13:51:17 19.9 C 51 %
Sensor: Nr:Datum:Temp:Feuchte:
Aussen-T/F 1151 12-09-2015 14:03:17 20.4 C 49 %
1152 12-09-2015 14:15:16 20.8 C 48 %
1153 12-09-2015 14:27:17 21.3 C 47 %
1154 12-09-2015 14:39:17 22 C 44 %
1155 12-09-2015 14:51:17 22.2 C 43 %
1156 12-09-2015 15:03:17 22.5 C 44 %
1157 12-09-2015 15:15:17 22.6 C 43 %
1158 12-09-2015 15:27:17 22.2 C 45 %
1159 12-09-2015 15:39:17 21.5 C 49 %
1160 12-09-2015 15:51:17 20.7 C 55 %
1161 12-09-2015 16:03:17 20.7 C 56 %
1162 12-09-2015 16:15:16 20.9 C 58 %
1163 12-09-2015 16:27:16 23.3 C 49 %
1164 12-09-2015 16:39:17 24.9 C 38 %
1165 12-09-2015 16:51:17 25.4 C 39 %
1166 12-09-2015 17:03:17 26.2 C 37 %
1167 12-09-2015 17:15:17 24.7 C 40 %
1168 12-09-2015 17:27:17 22.4 C 47 %
1169 12-09-2015 17:39:17 20.9 C 55 %
1170 12-09-2015 17:51:17 20.1 C 57 %
1171 12-09-2015 18:03:17 20.1 C 57 %
1172 12-09-2015 18:15:17 20 C 57 %
1173 12-09-2015 18:27:17 19.6 C 59 %
1174 12-09-2015 18:39:17 19.3 C 60 %
1175 12-09-2015 18:51:17 19.1 C 60 %
Sensor: Nr:Datum:Temp:Feuchte:
Aussen-T/F 1176 12-09-2015 19:03:17 18.8 C 61 %
1177 12-09-2015 19:15:17 18.1 C 65 %
1178 12-09-2015 19:27:17 18.5 C 64 %
1179 12-09-2015 19:39:18 18.3 C 64 %
1180 12-09-2015 19:51:17 18.1 C 65 %
1181 12-09-2015 20:03:17 17.9 C 67 %
1182 12-09-2015 20:15:17 18 C 66 %
1183 12-09-2015 20:27:17 17.9 C 67 %
1184 12-09-2015 20:39:17 17.7 C 68 %
1185 12-09-2015 20:51:17 17.7 C 69 %
1186 12-09-2015 21:03:17 17.7 C 69 %
1187 12-09-2015 21:15:17 17.7 C 68 %
1188 12-09-2015 21:27:17 17.8 C 68 %
1189 12-09-2015 21:39:17 18.6 C 66 %
1190 12-09-2015 21:51:17 18.4 C 66 %
1191 12-09-2015 22:03:17 18 C 67 %
1192 12-09-2015 22:15:17 17.9 C 70 %
1193 12-09-2015 22:27:17 17.4 C 74 %
1194 12-09-2015 22:39:17 17.1 C 78 %
1195 12-09-2015 22:51:17 17 C 80 %
1196 12-09-2015 23:03:17 16.7 C 82 %
1197 12-09-2015 23:15:17 16.4 C 82 %
1198 12-09-2015 23:27:17 16.2 C 83 %
1199 12-09-2015 23:39:17 16 C 83 %
1200 12-09-2015 23:51:17 16 C 83 %
Sensor: Nr:Datum:Temp:Feuchte:
Aussen-T/F 1201 13-09-2015 00:03:17 15.9 C 84 %
1202 13-09-2015 00:15:17 15.8 C 84 %
1203 13-09-2015 00:27:17 15.6 C 84 %
1204 13-09-2015 00:39:17 15.5 C 84 %
1205 13-09-2015 00:51:17 15.5 C 85 %
1206 13-09-2015 01:03:17 15.4 C 85 %
1207 13-09-2015 01:15:17 15.3 C 85 %
1208 13-09-2015 01:27:17 15.4 C 85 %
1209 13-09-2015 01:39:17 15.5 C 86 %
1210 13-09-2015 01:51:17 15.4 C 86 %
1211 13-09-2015 02:03:17 15.3 C 86 %
1212 13-09-2015 02:15:17 15.1 C 86 %
1213 13-09-2015 02:27:17 15.2 C 86 %
1214 13-09-2015 02:39:17 15.2 C 86 %
1215 13-09-2015 02:51:17 15 C 86 %
1216 13-09-2015 03:03:17 15.2 C 86 %
1217 13-09-2015 03:15:17 15.3 C 86 %
1218 13-09-2015 03:27:17 15.4 C 87 %
1219 13-09-2015 03:39:18 15.5 C 87 %
1220 13-09-2015 03:51:17 15.6 C 87 %
1221 13-09-2015 04:03:17 15.6 C 87 %
1222 13-09-2015 04:15:17 15.7 C 87 %
1223 13-09-2015 04:27:17 15.7 C 87 %
1224 13-09-2015 04:39:17 15.8 C 87 %
1225 13-09-2015 04:51:17 15.7 C 87 %
Sensor: Nr:Datum:Temp:Feuchte:
Aussen-T/F 1226 13-09-2015 05:03:18 15.6 C 86 %
1227 13-09-2015 05:15:17 15.6 C 86 %
1228 13-09-2015 05:27:17 15.6 C 86 %
1229 13-09-2015 05:39:17 15.6 C 86 %
1230 13-09-2015 05:51:17 15.7 C 86 %
1231 13-09-2015 06:03:17 15.6 C 86 %
1232 13-09-2015 06:15:17 15.6 C 86 %
1233 13-09-2015 06:27:17 15.6 C 86 %
1234 13-09-2015 06:39:17 15.7 C 85 %
1235 13-09-2015 06:51:17 15.8 C 85 %
1236 13-09-2015 07:03:17 15.9 C 85 %
1237 13-09-2015 07:15:17 15.9 C 85 %
1238 13-09-2015 07:27:17 16 C 84 %
1239 13-09-2015 07:39:16 16.2 C 83 %
1240 13-09-2015 07:51:17 16.4 C 83 %
1241 13-09-2015 08:03:17 16.6 C 82 %
1242 13-09-2015 08:15:17 16.7 C 80 %
1243 13-09-2015 08:27:17 16.9 C 78 %
1244 13-09-2015 08:39:17 17 C 76 %
1245 13-09-2015 08:51:17 17.3 C 74 %
1246 13-09-2015 09:03:17 17.5 C 72 %
1247 13-09-2015 09:15:16 17.7 C 71 %
1248 13-09-2015 09:27:16 17.8 C 70 %
1249 13-09-2015 09:39:17 18.1 C 69 %
1250 13-09-2015 09:51:17 18.4 C 67 %
Sensor: Nr:Datum:Temp:Feuchte:
Aussen-T/F 1251 13-09-2015 10:03:17 18.7 C 64 %
1252 13-09-2015 10:15:17 18.7 C 62 %
1253 13-09-2015 10:27:17 18.8 C 61 %
1254 13-09-2015 10:39:17 18.9 C 60 %
1255 13-09-2015 10:51:17 19.2 C 60 %
1256 13-09-2015 11:03:17 19.2 C 60 %
1257 13-09-2015 11:15:17 19.1 C 59 %
1258 13-09-2015 11:27:17 19.2 C 59 %
1259 13-09-2015 11:39:17 18.7 C 63 %
1260 13-09-2015 11:51:17 18.3 C 68 %
1261 13-09-2015 12:03:17 17.7 C 72 %
1262 13-09-2015 12:15:17 18 C 74 %
1263 13-09-2015 12:27:17 18 C 76 %
1264 13-09-2015 12:39:17 17.6 C 76 %
1265 13-09-2015 12:51:17 17.6 C 74 %
1266 13-09-2015 13:03:17 18 C 74 %
1267 13-09-2015 13:15:17 17.7 C 73 %
1268 13-09-2015 13:27:17 17.9 C 73 %
1269 13-09-2015 13:39:17 17.9 C 73 %
1270 13-09-2015 13:51:17 17.9 C 75 %
1271 13-09-2015 14:03:17 17.7 C 76 %
1272 13-09-2015 14:15:17 17.6 C 78 %
1273 13-09-2015 14:27:17 17.7 C 79 %
1274 13-09-2015 14:39:17 18 C 79 %
1275 13-09-2015 14:51:17 18 C 79 %
Sensor: Nr:Datum:Temp:Feuchte:
Aussen-T/F 1276 13-09-2015 15:03:17 17.7 C 80 %
1277 13-09-2015 15:15:17 17.7 C 81 %
1278 13-09-2015 15:27:17 17.7 C 82 %
1279 13-09-2015 15:39:17 17.7 C 83 %
1280 13-09-2015 15:51:17 18.1 C 82 %
1281 13-09-2015 16:03:17 18.1 C 82 %
1282 13-09-2015 16:15:17 18.1 C 81 %
1283 13-09-2015 16:27:17 18.1 C 81 %
1284 13-09-2015 16:39:17 17.9 C 82 %
1285 13-09-2015 16:51:17 17.7 C 82 %
1286 13-09-2015 17:03:17 17.8 C 83 %
1287 13-09-2015 17:15:17 18 C 83 %
1288 13-09-2015 17:27:17 18.1 C 83 %
1289 13-09-2015 17:39:17 18.4 C 83 %
1290 13-09-2015 17:51:17 18.4 C 82 %
1291 13-09-2015 18:03:17 21.7 C 72 %
1292 13-09-2015 18:15:17 21.5 C 59 %
1293 13-09-2015 18:27:17 23.1 C 52 %
1294 13-09-2015 18:39:17 24.1 C 50 %
1295 13-09-2015 18:51:17 21 C 58 %
1296 13-09-2015 19:03:17 19.5 C 67 %
1297 13-09-2015 19:15:17 18.3 C 73 %
1298 13-09-2015 19:27:17 17.6 C 77 %
1299 13-09-2015 19:39:17 17 C 79 %
1300 13-09-2015 19:51:17 16.5 C 81 %
Sensor: Nr:Datum:Temp:Feuchte:
Aussen-T/F 1301 13-09-2015 20:03:17 16.3 C 82 %
1302 13-09-2015 20:15:17 16 C 83 %
1303 13-09-2015 20:27:17 15.7 C 84 %
1304 13-09-2015 20:39:17 15.5 C 85 %
1305 13-09-2015 20:51:17 15.6 C 85 %
1306 13-09-2015 21:03:17 15.4 C 86 %
1307 13-09-2015 21:15:17 15.4 C 86 %
1308 13-09-2015 21:27:17 15.3 C 87 %
1309 13-09-2015 21:39:17 15.3 C 87 %
1310 13-09-2015 21:51:17 15 C 87 %
1311 13-09-2015 22:03:17 15 C 87 %
1312 13-09-2015 22:15:17 15 C 87 %
1313 13-09-2015 22:27:17 15.1 C 87 %
1314 13-09-2015 22:39:18 15.2 C 88 %
1315 13-09-2015 22:51:17 15.2 C 88 %
1316 13-09-2015 23:03:17 15.1 C 88 %
1317 13-09-2015 23:15:17 15.3 C 88 %
1318 13-09-2015 23:27:17 15.6 C 88 %
1319 13-09-2015 23:39:17 15.8 C 88 %
1320 13-09-2015 23:51:17 15.7 C 89 %
1321 14-09-2015 00:03:17 15.7 C 89 %
1322 14-09-2015 00:15:17 15.7 C 89 %
1323 14-09-2015 00:27:17 15.7 C 89 %
1324 14-09-2015 00:39:17 15.6 C 89 %
1325 14-09-2015 00:51:17 15.6 C 89 %
Sensor: Nr:Datum:Temp:Feuchte:
Aussen-T/F 1326 14-09-2015 01:03:17 15.6 C 89 %
1327 14-09-2015 01:15:17 15.5 C 89 %
1328 14-09-2015 01:27:17 15.4 C 89 %
1329 14-09-2015 01:39:17 15.4 C 89 %
1330 14-09-2015 01:51:17 15.4 C 89 %
1331 14-09-2015 02:03:17 15.4 C 89 %
1332 14-09-2015 02:15:17 15.4 C 89 %
1333 14-09-2015 02:27:17 15.3 C 89 %
1334 14-09-2015 02:39:17 15.3 C 89 %
1335 14-09-2015 02:51:17 15.3 C 89 %
1336 14-09-2015 03:03:17 15.3 C 89 %
1337 14-09-2015 03:15:17 15.2 C 89 %
1338 14-09-2015 03:27:18 15.2 C 89 %
1339 14-09-2015 03:39:17 15.1 C 89 %
1340 14-09-2015 03:51:17 15 C 89 %
1341 14-09-2015 04:03:17 15 C 89 %
1342 14-09-2015 04:15:17 15 C 89 %
1343 14-09-2015 04:27:17 15 C 89 %
1344 14-09-2015 04:39:17 14.9 C 90 %
1345 14-09-2015 04:51:17 14.9 C 90 %
1346 14-09-2015 05:03:17 14.7 C 90 %
1347 14-09-2015 05:15:17 14.6 C 90 %
1348 14-09-2015 05:27:17 14.5 C 89 %
1349 14-09-2015 05:39:17 14.4 C 89 %
1350 14-09-2015 05:51:17 14.4 C 89 %
Sensor: Nr:Datum:Temp:Feuchte:
Aussen-T/F 1351 14-09-2015 06:03:17 14.2 C 89 %
1352 14-09-2015 06:15:17 14.3 C 89 %
1353 14-09-2015 06:27:17 14.2 C 89 %
1354 14-09-2015 06:39:17 14.4 C 89 %
1355 14-09-2015 06:51:17 14.3 C 89 %
1356 14-09-2015 07:03:17 14.2 C 89 %
1357 14-09-2015 07:15:17 14.3 C 89 %
1358 14-09-2015 07:27:17 14.3 C 89 %
1359 14-09-2015 07:39:17 14.4 C 89 %
1360 14-09-2015 07:51:17 14.4 C 89 %
1361 14-09-2015 08:03:17 14.5 C 89 %
1362 14-09-2015 08:15:17 14.7 C 90 %
1363 14-09-2015 08:27:17 14.9 C 90 %
1364 14-09-2015 08:39:17 15.1 C 89 %
1365 14-09-2015 08:51:17 15.2 C 89 %
1366 14-09-2015 09:03:17 15.4 C 89 %
1367 14-09-2015 09:15:17 15.5 C 89 %
1368 14-09-2015 09:27:17 15.8 C 89 %
1369 14-09-2015 09:39:17 16 C 88 %
1370 14-09-2015 09:51:17 15.9 C 89 %
1371 14-09-2015 10:03:17 15.8 C 89 %
1372 14-09-2015 10:15:17 15.6 C 89 %
1373 14-09-2015 10:27:17 15.5 C 89 %
1374 14-09-2015 10:39:17 15.6 C 89 %
1375 14-09-2015 10:51:17 16.3 C 87 %
Sensor: Nr:Datum:Temp:Feuchte:
Aussen-T/F 1376 14-09-2015 11:03:17 17.2 C 85 %
1377 14-09-2015 11:15:17 17.2 C 82 %
1378 14-09-2015 11:27:17 17.5 C 76 %
1379 14-09-2015 11:39:17 17.5 C 68 %
1380 14-09-2015 11:51:17 17.7 C 66 %
1381 14-09-2015 12:03:17 17 C 68 %
1382 14-09-2015 12:15:17 17.5 C 68 %
1383 14-09-2015 12:27:17 18.8 C 53 %
1384 14-09-2015 12:39:18 18.8 C 51 %
1385 14-09-2015 12:51:17 18.7 C 51 %
1386 14-09-2015 13:03:17 18.5 C 52 %
1387 14-09-2015 13:15:17 18.7 C 53 %
1388 14-09-2015 13:27:17 19 C 50 %
1389 14-09-2015 13:39:17 18.8 C 55 %
1390 14-09-2015 13:51:17 19.3 C 51 %
1391 14-09-2015 14:03:18 20.1 C 47 %
1392 14-09-2015 14:15:17 17.4 C 48 %
1393 14-09-2015 14:27:17 16.4 C 74 %
1394 14-09-2015 14:39:17 16.6 C 78 %
1395 14-09-2015 14:51:17 16.6 C 79 %
1396 14-09-2015 15:03:17 17.5 C 79 %
1397 14-09-2015 15:15:17 17.2 C 80 %
1398 14-09-2015 15:27:17 16.1 C 81 %
1399 14-09-2015 15:39:17 15.9 C 83 %
1400 14-09-2015 15:51:17 15.9 C 84 %
Sensor: Nr:Datum:Temp:Feuchte:
Aussen-T/F 1401 14-09-2015 16:03:18 15.6 C 84 %
1402 14-09-2015 16:15:17 15.3 C 84 %
1403 14-09-2015 16:27:17 14.9 C 85 %
1404 14-09-2015 16:39:17 15.9 C 85 %
1405 14-09-2015 16:51:17 17 C 82 %
1406 14-09-2015 17:03:17 16.8 C 79 %
1407 14-09-2015 17:15:17 16.2 C 78 %
1408 14-09-2015 17:27:17 16.5 C 79 %
1409 14-09-2015 17:39:17 15.4 C 79 %
1410 14-09-2015 17:51:17 15.2 C 78 %
1411 14-09-2015 18:03:17 16.8 C 78 %
1412 14-09-2015 18:15:17 20.3 C 67 %
1413 14-09-2015 18:27:17 22.5 C 47 %
1414 14-09-2015 18:39:17 21.8 C 47 %
1415 14-09-2015 18:51:17 18.8 C 54 %
1416 14-09-2015 19:03:17 16.5 C 66 %
1417 14-09-2015 19:15:17 15.3 C 73 %
1418 14-09-2015 19:27:17 14.6 C 77 %
1419 14-09-2015 19:39:17 14.6 C 77 %
1420 14-09-2015 19:51:17 14 C 75 %
1421 14-09-2015 20:03:17 13.8 C 72 %
1422 14-09-2015 20:15:17 13.4 C 72 %
1423 14-09-2015 20:27:17 12.9 C 76 %
1424 14-09-2015 20:39:17 12.4 C 79 %
1425 14-09-2015 20:51:17 12.3 C 81 %
Sensor: Nr:Datum:Temp:Feuchte:
Aussen-T/F 1426 14-09-2015 21:03:17 12.3 C 83 %
1427 14-09-2015 21:15:17 12.1 C 84 %
1428 14-09-2015 21:27:18 11.8 C 85 %
1429 14-09-2015 21:39:17 11.6 C 86 %
1430 14-09-2015 21:51:17 11.5 C 86 %
1431 14-09-2015 22:03:17 11.5 C 86 %
1432 14-09-2015 22:15:17 11.3 C 86 %
1433 14-09-2015 22:27:17 11.4 C 85 %
1434 14-09-2015 22:39:17 11.4 C 84 %
1435 14-09-2015 22:51:17 11.4 C 83 %
1436 14-09-2015 23:03:17 11.4 C 82 %
1437 14-09-2015 23:15:17 11.4 C 80 %
1438 14-09-2015 23:27:17 11.2 C 79 %
1439 14-09-2015 23:39:17 10.9 C 80 %
1440 14-09-2015 23:51:17 10.8 C 82 %
1441 15-09-2015 00:03:17 10.6 C 83 %
1442 15-09-2015 00:15:17 10.5 C 84 %
1443 15-09-2015 00:27:17 10.4 C 84 %
1444 15-09-2015 00:39:17 10.6 C 85 %
1445 15-09-2015 00:51:17 10.4 C 85 %
1446 15-09-2015 01:03:17 10.2 C 86 %
1447 15-09-2015 01:15:17 10 C 86 %
1448 15-09-2015 01:27:17 9.8 C 87 %
1449 15-09-2015 01:39:17 9.8 C 88 %
1450 15-09-2015 01:51:17 9.7 C 88 %
Sensor: Nr:Datum:Temp:Feuchte:
Aussen-T/F 1451 15-09-2015 02:03:17 9.5 C 88 %
1452 15-09-2015 02:15:17 9.8 C 88 %
1453 15-09-2015 02:27:17 10 C 87 %
1454 15-09-2015 02:39:17 10.2 C 88 %
1455 15-09-2015 02:51:17 10.1 C 88 %
1456 15-09-2015 03:03:17 9.8 C 89 %
1457 15-09-2015 03:15:17 9.6 C 89 %
1458 15-09-2015 03:27:17 9.4 C 89 %
1459 15-09-2015 03:39:17 9.2 C 89 %
1460 15-09-2015 03:51:17 9.2 C 89 %
1461 15-09-2015 04:03:17 9.2 C 89 %
1462 15-09-2015 04:15:17 9.2 C 89 %
1463 15-09-2015 04:27:17 9.4 C 89 %
1464 15-09-2015 04:39:17 9.4 C 89 %
1465 15-09-2015 04:51:17 9.2 C 89 %
1466 15-09-2015 05:03:17 9.1 C 89 %
1467 15-09-2015 05:15:17 9 C 89 %
1468 15-09-2015 05:27:17 9 C 90 %
1469 15-09-2015 05:39:17 9 C 90 %
1470 15-09-2015 05:51:17 9 C 90 %
1471 15-09-2015 06:03:17 9 C 90 %
1472 15-09-2015 06:15:17 9 C 90 %
1473 15-09-2015 06:27:17 9.1 C 90 %
1474 15-09-2015 06:39:17 9.1 C 90 %
1475 15-09-2015 06:51:17 9.2 C 90 %
Sensor: Nr:Datum:Temp:Feuchte:
Aussen-T/F 1476 15-09-2015 07:03:17 9.1 C 90 %
1477 15-09-2015 07:15:17 9.2 C 90 %
1478 15-09-2015 07:27:17 9.2 C 90 %
1479 15-09-2015 07:39:17 9.3 C 89 %
1480 15-09-2015 07:51:17 9.5 C 89 %
1481 15-09-2015 08:03:17 10 C 89 %
1482 15-09-2015 08:15:17 10.3 C 89 %
1483 15-09-2015 08:27:17 10.8 C 88 %
1484 15-09-2015 08:39:17 11.3 C 86 %
1485 15-09-2015 08:51:17 11.7 C 84 %
1486 15-09-2015 09:03:17 12.1 C 81 %
1487 15-09-2015 09:15:17 12.5 C 73 %
1488 15-09-2015 09:27:17 12.8 C 72 %
1489 15-09-2015 09:39:17 12.9 C 69 %
1490 15-09-2015 09:51:17 13.3 C 65 %
1491 15-09-2015 10:03:17 13.4 C 64 %
1492 15-09-2015 10:15:17 13.6 C 63 %
1493 15-09-2015 10:27:17 13.4 C 66 %
1494 15-09-2015 10:39:17 12.9 C 70 %
1495 15-09-2015 10:51:17 12.6 C 73 %
1496 15-09-2015 11:03:17 12.5 C 77 %
1497 15-09-2015 11:15:17 12.4 C 80 %
1498 15-09-2015 11:27:17 12.6 C 81 %
1499 15-09-2015 11:39:17 12.7 C 82 %
1500 15-09-2015 11:51:17 12.7 C 82 %
Sensor: Nr:Datum:Temp:Feuchte:
Aussen-T/F 1501 15-09-2015 12:03:17 13.6 C 83 %
1502 15-09-2015 12:15:17 13.8 C 81 %
1503 15-09-2015 12:27:17 14.3 C 79 %
1504 15-09-2015 12:39:17 14.7 C 75 %
1505 15-09-2015 12:51:17 14.9 C 71 %
1506 15-09-2015 13:03:17 14.3 C 69 %
1507 15-09-2015 13:15:17 14.1 C 71 %
1508 15-09-2015 13:27:17 14.5 C 72 %
1509 15-09-2015 13:39:17 15 C 67 %
1510 15-09-2015 13:51:17 15.4 C 60 %
1511 15-09-2015 14:03:17 15 C 61 %
1512 15-09-2015 14:15:17 13.7 C 66 %
1513 15-09-2015 14:27:17 13.4 C 72 %
1514 15-09-2015 14:39:17 13.5 C 73 %
1515 15-09-2015 14:51:17 13.5 C 69 %
1516 15-09-2015 15:03:17 14.2 C 68 %
1517 15-09-2015 15:15:17 15.4 C 62 %
1518 15-09-2015 15:27:17 16.4 C 58 %
1519 15-09-2015 15:39:17 16.8 C 58 %
1520 15-09-2015 15:51:17 16.6 C 56 %
1521 15-09-2015 16:03:17 18.2 C 53 %
1522 15-09-2015 16:15:17 18.3 C 51 %
1523 15-09-2015 16:27:17 18.2 C 45 %
1524 15-09-2015 16:39:17 18.8 C 47 %
1525 15-09-2015 16:51:17 22.5 C 40 %
Sensor: Nr:Datum:Temp:Feuchte:
Aussen-T/F 1526 15-09-2015 17:03:17 23.7 C 36 %
1527 15-09-2015 17:15:17 22.9 C 35 %
1528 15-09-2015 17:27:17 22.4 C 30 %
1529 15-09-2015 17:39:17 24.1 C 28 %
1530 15-09-2015 17:51:17 24 C 30 %
1531 15-09-2015 18:03:17 23.3 C 28 %
1532 15-09-2015 18:15:17 24.8 C 31 %
1533 15-09-2015 18:27:17 23.8 C 31 %
1534 15-09-2015 18:39:17 23.9 C 34 %
1535 15-09-2015 18:51:17 20.5 C 41 %
1536 15-09-2015 19:03:17 17.5 C 52 %
1537 15-09-2015 19:15:17 16.2 C 55 %
1538 15-09-2015 19:27:17 15.2 C 60 %
1539 15-09-2015 19:39:17 14.4 C 64 %
1540 15-09-2015 19:51:17 13.6 C 69 %
1541 15-09-2015 20:03:17 13 C 71 %
1542 15-09-2015 20:15:17 12.6 C 73 %
1543 15-09-2015 20:27:17 12.3 C 75 %
1544 15-09-2015 20:39:17 12.1 C 77 %
1545 15-09-2015 20:51:17 11.8 C 79 %
1546 15-09-2015 21:03:17 11.7 C 80 %
1547 15-09-2015 21:15:17 11.6 C 81 %
1548 15-09-2015 21:27:17 11.5 C 82 %
1549 15-09-2015 21:39:17 11.5 C 82 %
1550 15-09-2015 21:51:17 11.6 C 83 %
Sensor: Nr:Datum:Temp:Feuchte:
Aussen-T/F 1551 15-09-2015 22:03:17 11.6 C 83 %
1552 15-09-2015 22:15:17 11.4 C 83 %
1553 15-09-2015 22:27:17 11.6 C 83 %
1554 15-09-2015 22:39:17 11.8 C 83 %
1555 15-09-2015 22:51:17 12.1 C 82 %
1556 15-09-2015 23:03:17 12.8 C 77 %
1557 15-09-2015 23:15:17 12.9 C 72 %
1558 15-09-2015 23:27:17 12.5 C 71 %
1559 15-09-2015 23:39:17 11.9 C 74 %
1560 15-09-2015 23:51:17 11.6 C 76 %
1561 16-09-2015 00:03:18 11.4 C 78 %
1562 16-09-2015 00:15:17 11.4 C 79 %
1563 16-09-2015 00:27:17 11.7 C 80 %
1564 16-09-2015 00:39:17 11.8 C 81 %
1565 16-09-2015 00:51:17 12.1 C 81 %
1566 16-09-2015 01:03:17 12.1 C 81 %
1567 16-09-2015 01:15:17 12.1 C 81 %
1568 16-09-2015 01:27:17 12.1 C 81 %
1569 16-09-2015 01:39:17 12.1 C 82 %
1570 16-09-2015 01:51:17 12.1 C 83 %
1571 16-09-2015 02:03:17 12 C 83 %
1572 16-09-2015 02:15:17 12 C 84 %
1573 16-09-2015 02:27:17 12 C 85 %
1574 16-09-2015 02:39:17 12 C 85 %
1575 16-09-2015 02:51:17 12 C 86 %
Sensor: Nr:Datum:Temp:Feuchte:
Aussen-T/F 1576 16-09-2015 03:03:17 12.1 C 87 %
1577 16-09-2015 03:15:17 12.1 C 87 %
1578 16-09-2015 03:27:17 12.1 C 87 %
1579 16-09-2015 03:39:17 12.1 C 88 %
1580 16-09-2015 03:51:17 12.2 C 88 %
1581 16-09-2015 04:03:17 12.1 C 88 %
1582 16-09-2015 04:15:17 12.1 C 88 %
1583 16-09-2015 04:27:17 12.1 C 88 %
1584 16-09-2015 04:39:17 12.1 C 89 %
1585 16-09-2015 04:51:17 12.1 C 89 %
1586 16-09-2015 05:03:17 12.2 C 89 %
1587 16-09-2015 05:15:17 12.3 C 89 %
1588 16-09-2015 05:27:17 12.3 C 89 %
1589 16-09-2015 05:39:18 12.3 C 89 %
1590 16-09-2015 05:51:17 12.4 C 89 %
1591 16-09-2015 06:03:17 12.5 C 89 %
1592 16-09-2015 06:15:18 12.5 C 90 %
1593 16-09-2015 06:27:18 12.6 C 90 %
1594 16-09-2015 06:39:18 12.5 C 90 %
1595 16-09-2015 06:51:17 12.5 C 90 %
1596 16-09-2015 07:03:17 12.5 C 90 %
1597 16-09-2015 07:15:17 12.6 C 89 %
1598 16-09-2015 07:27:17 12.6 C 89 %
1599 16-09-2015 07:39:17 12.5 C 89 %
1600 16-09-2015 07:51:17 12.6 C 89 %
Sensor: Nr:Datum:Temp:Feuchte:
Aussen-T/F 1601 16-09-2015 08:03:17 12.7 C 89 %
1602 16-09-2015 08:15:17 12.8 C 90 %
1603 16-09-2015 08:27:17 12.9 C 89 %
1604 16-09-2015 08:39:17 13 C 89 %
1605 16-09-2015 08:51:17 13.4 C 89 %
1606 16-09-2015 09:03:17 13.5 C 89 %
1607 16-09-2015 09:15:17 13.5 C 89 %
1608 16-09-2015 09:27:17 13.5 C 89 %
1609 16-09-2015 09:39:17 13.5 C 89 %
1610 16-09-2015 09:51:17 13.7 C 89 %
1611 16-09-2015 10:03:17 14 C 88 %
1612 16-09-2015 10:15:17 14 C 88 %
1613 16-09-2015 10:27:17 14.4 C 88 %
1614 16-09-2015 10:39:17 14.8 C 88 %
1615 16-09-2015 10:51:17 14.6 C 86 %
1616 16-09-2015 11:03:17 14.4 C 86 %
1617 16-09-2015 11:15:17 14.5 C 86 %
1618 16-09-2015 11:27:17 14.7 C 85 %
1619 16-09-2015 11:39:18 14.8 C 85 %
1620 16-09-2015 11:51:17 15.3 C 84 %
1621 16-09-2015 12:03:17 15.9 C 84 %
1622 16-09-2015 12:15:17 15.8 C 82 %
1623 16-09-2015 12:27:17 15.4 C 81 %
1624 16-09-2015 12:39:17 15.7 C 81 %
1625 16-09-2015 12:51:17 16.1 C 80 %
Sensor: Nr:Datum:Temp:Feuchte:
Aussen-T/F 1626 16-09-2015 13:03:17 16.5 C 79 %
1627 16-09-2015 13:15:17 16.3 C 78 %
1628 16-09-2015 13:27:17 16.9 C 77 %
1629 16-09-2015 13:39:17 17.1 C 75 %
1630 16-09-2015 13:51:17 17.5 C 75 %
1631 16-09-2015 14:03:17 17.2 C 75 %
1632 16-09-2015 14:15:17 17.2 C 75 %
1633 16-09-2015 14:27:17 17.6 C 76 %
1634 16-09-2015 14:39:17 18.1 C 73 %
1635 16-09-2015 14:51:17 18.4 C 71 %
1636 16-09-2015 15:03:18 17.7 C 72 %
1637 16-09-2015 15:15:17 17.4 C 74 %
1638 16-09-2015 15:27:17 17.5 C 77 %
1639 16-09-2015 15:39:17 17.9 C 76 %
1640 16-09-2015 15:51:17 19.2 C 70 %
1641 16-09-2015 16:03:17 19.9 C 64 %
1642 16-09-2015 16:15:18 19.5 C 65 %
1643 16-09-2015 16:27:18 19.6 C 63 %
1644 16-09-2015 16:39:18 19.6 C 62 %
1645 16-09-2015 16:51:17 19 C 68 %
1646 16-09-2015 17:03:17 18.5 C 72 %
1647 16-09-2015 17:15:17 18.4 C 73 %
1648 16-09-2015 17:27:17 18.1 C 74 %
1649 16-09-2015 17:39:17 17.7 C 76 %
1650 16-09-2015 17:51:17 17.4 C 77 %
Sensor: Nr:Datum:Temp:Feuchte:
Aussen-T/F 1651 16-09-2015 18:03:17 17 C 77 %
1652 16-09-2015 18:15:17 16.8 C 78 %
1653 16-09-2015 18:27:17 16.6 C 79 %
1654 16-09-2015 18:39:17 16.4 C 82 %
1655 16-09-2015 18:51:17 16.4 C 83 %
1656 16-09-2015 19:03:17 16.5 C 84 %
1657 16-09-2015 19:15:17 16.6 C 85 %
1658 16-09-2015 19:27:17 16.6 C 86 %
1659 16-09-2015 19:39:17 16.3 C 86 %
1660 16-09-2015 19:51:17 16 C 86 %
1661 16-09-2015 20:03:18 15.6 C 87 %
1662 16-09-2015 20:15:17 15.5 C 87 %
1663 16-09-2015 20:27:17 15.5 C 87 %
1664 16-09-2015 20:39:17 15.6 C 87 %
1665 16-09-2015 20:51:17 15.7 C 88 %
1666 16-09-2015 21:03:17 15.9 C 88 %
1667 16-09-2015 21:15:17 16 C 87 %
1668 16-09-2015 21:27:17 15.7 C 88 %
1669 16-09-2015 21:39:17 15.7 C 88 %
1670 16-09-2015 21:51:17 15.5 C 88 %
1671 16-09-2015 22:03:17 15.5 C 88 %
1672 16-09-2015 22:15:17 15.5 C 88 %
1673 16-09-2015 22:27:17 15.6 C 88 %
1674 16-09-2015 22:39:17 15.8 C 88 %
1675 16-09-2015 22:51:17 15 C 88 %
Sensor: Nr:Datum:Temp:Feuchte:
Aussen-T/F 1676 16-09-2015 23:03:17 14.7 C 88 %
1677 16-09-2015 23:15:17 14.4 C 88 %
1678 16-09-2015 23:27:17 14.1 C 88 %
1679 16-09-2015 23:39:17 13.8 C 89 %
1680 16-09-2015 23:51:17 13.7 C 88 %
1681 17-09-2015 00:03:18 13.7 C 88 %
1682 17-09-2015 00:15:17 13.7 C 88 %
1683 17-09-2015 00:27:17 13.8 C 88 %
1684 17-09-2015 00:39:17 13.8 C 88 %
1685 17-09-2015 00:51:17 13.9 C 88 %
1686 17-09-2015 01:03:17 13.6 C 88 %
1687 17-09-2015 01:15:17 13.5 C 88 %
1688 17-09-2015 01:27:17 13.6 C 88 %
1689 17-09-2015 01:39:17 13.6 C 88 %
1690 17-09-2015 01:51:17 13.6 C 88 %
1691 17-09-2015 02:03:17 13.6 C 89 %
1692 17-09-2015 02:15:17 13.5 C 88 %
1693 17-09-2015 02:27:17 13.3 C 88 %
1694 17-09-2015 02:39:17 13.1 C 88 %
1695 17-09-2015 02:51:17 13.1 C 88 %
1696 17-09-2015 03:03:17 13.2 C 89 %
1697 17-09-2015 03:15:17 13.4 C 89 %
1698 17-09-2015 03:27:17 13.4 C 89 %
1699 17-09-2015 03:39:17 13.5 C 89 %
1700 17-09-2015 03:51:17 13.5 C 89 %
Sensor: Nr:Datum:Temp:Feuchte:
Aussen-T/F 1701 17-09-2015 04:03:17 13.5 C 89 %
1702 17-09-2015 04:15:17 13.5 C 89 %
1703 17-09-2015 04:27:17 13.4 C 89 %
1704 17-09-2015 04:39:17 13.4 C 89 %
1705 17-09-2015 04:51:17 13.4 C 89 %
1706 17-09-2015 05:03:17 13.5 C 89 %
1707 17-09-2015 05:15:17 13.5 C 89 %
1708 17-09-2015 05:27:17 13.5 C 89 %
1709 17-09-2015 05:39:17 13.5 C 89 %
1710 17-09-2015 05:51:17 13.6 C 89 %
1711 17-09-2015 06:03:17 13.5 C 89 %
1712 17-09-2015 06:15:17 13.3 C 89 %
1713 17-09-2015 06:27:17 13.4 C 89 %
1714 17-09-2015 06:39:17 13.5 C 89 %
1715 17-09-2015 06:51:17 13.7 C 89 %
1716 17-09-2015 07:03:17 13.7 C 89 %
1717 17-09-2015 07:15:17 13.8 C 89 %
1718 17-09-2015 07:27:17 13.8 C 89 %
1719 17-09-2015 07:39:17 14 C 88 %
1720 17-09-2015 07:51:17 14 C 88 %
1721 17-09-2015 08:03:17 14 C 88 %
1722 17-09-2015 08:15:17 14.1 C 89 %
1723 17-09-2015 08:27:17 14.2 C 89 %
1724 17-09-2015 08:39:17 14.3 C 89 %
1725 17-09-2015 08:51:17 14.4 C 89 %
Sensor: Nr:Datum:Temp:Feuchte:
Aussen-T/F 1726 17-09-2015 09:03:17 14.3 C 89 %
1727 17-09-2015 09:15:17 14.3 C 89 %
1728 17-09-2015 09:27:17 14.4 C 89 %
1729 17-09-2015 09:39:17 14.6 C 89 %
1730 17-09-2015 09:51:17 14.6 C 89 %
1731 17-09-2015 10:03:17 14.8 C 89 %
1732 17-09-2015 10:15:17 14.7 C 89 %
1733 17-09-2015 10:27:17 14.7 C 89 %
1734 17-09-2015 10:39:17 14.7 C 89 %
1735 17-09-2015 10:51:17 14.7 C 89 %
1736 17-09-2015 11:03:17 14.8 C 89 %
1737 17-09-2015 11:15:17 14.7 C 89 %
1738 17-09-2015 11:27:17 14.9 C 89 %
1739 17-09-2015 11:39:17 14.9 C 89 %
1740 17-09-2015 11:51:17 15.3 C 88 %
1741 17-09-2015 12:03:17 15.2 C 88 %
1742 17-09-2015 12:15:17 15.3 C 87 %
1743 17-09-2015 12:27:17 15.6 C 86 %
1744 17-09-2015 12:39:17 15.6 C 83 %
1745 17-09-2015 12:51:17 15.6 C 76 %
1746 17-09-2015 13:03:18 15.5 C 71 %
1747 17-09-2015 13:15:17 15.5 C 74 %
1748 17-09-2015 13:27:17 15.6 C 74 %
1749 17-09-2015 13:39:17 15.6 C 72 %
1750 17-09-2015 13:51:17 15.9 C 67 %
Sensor: Nr:Datum:Temp:Feuchte:
Aussen-T/F 1751 17-09-2015 14:03:17 15.8 C 63 %
1752 17-09-2015 14:15:17 15.5 C 65 %
1753 17-09-2015 14:27:17 15.5 C 64 %
1754 17-09-2015 14:39:17 15.8 C 63 %
1755 17-09-2015 14:51:17 16.1 C 60 %
1756 17-09-2015 15:03:17 16.2 C 64 %
1757 17-09-2015 15:15:17 16.1 C 61 %
1758 17-09-2015 15:27:17 16 C 61 %
1759 17-09-2015 15:39:17 15.8 C 63 %
1760 17-09-2015 15:51:17 15.6 C 65 %
1761 17-09-2015 16:03:17 15.8 C 65 %
1762 17-09-2015 16:15:17 15.7 C 65 %
1763 17-09-2015 16:27:17 15.6 C 65 %
1764 17-09-2015 16:39:17 15.8 C 66 %
1765 17-09-2015 16:51:17 16.4 C 62 %
1766 17-09-2015 17:03:17 16.4 C 62 %
1767 17-09-2015 17:15:17 16 C 65 %
1768 17-09-2015 17:27:17 16.1 C 62 %
1769 17-09-2015 17:39:17 15.6 C 66 %
1770 17-09-2015 17:51:17 15.8 C 65 %
1771 17-09-2015 18:03:17 16 C 62 %
1772 17-09-2015 18:15:17 16.2 C 60 %
1773 17-09-2015 18:27:17 15.9 C 62 %
1774 17-09-2015 18:39:17 16.2 C 61 %
1775 17-09-2015 18:51:17 16.1 C 60 %
Sensor: Nr:Datum:Temp:Feuchte:
Aussen-T/F 1776 17-09-2015 19:03:17 15.8 C 61 %
1777 17-09-2015 19:15:18 15.8 C 60 %
1778 17-09-2015 19:27:18 15.6 C 62 %
1779 17-09-2015 19:39:17 15.4 C 63 %
1780 17-09-2015 19:51:17 15.4 C 62 %
1781 17-09-2015 20:03:17 14.5 C 67 %
1782 17-09-2015 20:15:17 13.8 C 73 %
1783 17-09-2015 20:27:17 13.4 C 75 %
1784 17-09-2015 20:39:17 13.1 C 78 %
1785 17-09-2015 20:51:17 12.7 C 81 %
1786 17-09-2015 21:03:17 12.6 C 82 %
1787 17-09-2015 21:15:17 12.1 C 84 %
1788 17-09-2015 21:27:17 12.2 C 84 %
1789 17-09-2015 21:39:17 12.1 C 85 %
1790 17-09-2015 21:51:17 12 C 86 %
1791 17-09-2015 22:03:17 11.9 C 87 %
1792 17-09-2015 22:15:17 11.7 C 87 %
1793 17-09-2015 22:27:17 11.4 C 87 %
1794 17-09-2015 22:39:18 11.2 C 87 %
1795 17-09-2015 22:51:17 11 C 88 %
1796 17-09-2015 23:03:17 11.1 C 88 %
1797 17-09-2015 23:15:17 10.9 C 89 %
1798 17-09-2015 23:27:17 10.8 C 89 %
1799 17-09-2015 23:39:17 10.8 C 89 %
1800 17-09-2015 23:51:17 11 C 89 %
Sensor: Nr:Datum:Temp:Feuchte:
Aussen-T/F 1801 18-09-2015 00:03:17 11.2 C 89 %
1802 18-09-2015 00:15:17 11.4 C 89 %
1803 18-09-2015 00:27:17 11.5 C 90 %
1804 18-09-2015 00:39:18 11.6 C 90 %
1805 18-09-2015 00:51:17 11.7 C 90 %
1806 18-09-2015 01:03:17 11.8 C 90 %
1807 18-09-2015 01:15:17 11.9 C 90 %
1808 18-09-2015 01:27:17 12 C 90 %
1809 18-09-2015 01:39:17 12 C 90 %
1810 18-09-2015 01:51:17 11.9 C 90 %
1811 18-09-2015 02:03:17 11.7 C 91 %
1812 18-09-2015 02:15:17 11.6 C 90 %
1813 18-09-2015 02:27:17 11.6 C 90 %
1814 18-09-2015 02:39:17 11.1 C 90 %
1815 18-09-2015 02:51:17 11 C 90 %
1816 18-09-2015 03:03:18 10.9 C 91 %
1817 18-09-2015 03:15:17 10.5 C 91 %
1818 18-09-2015 03:27:17 10.5 C 91 %
1819 18-09-2015 03:39:18 10.8 C 91 %
1820 18-09-2015 03:51:17 11 C 91 %
1821 18-09-2015 04:03:17 11.1 C 90 %
1822 18-09-2015 04:15:17 11.4 C 90 %
1823 18-09-2015 04:27:17 11.4 C 91 %
1824 18-09-2015 04:39:17 11.5 C 91 %
1825 18-09-2015 04:51:17 11.5 C 91 %
Sensor: Nr:Datum:Temp:Feuchte:
Aussen-T/F 1826 18-09-2015 05:03:17 11.5 C 90 %
1827 18-09-2015 05:15:17 11.5 C 91 %
1828 18-09-2015 05:27:17 11.5 C 91 %
1829 18-09-2015 05:39:17 11.5 C 91 %
1830 18-09-2015 05:51:17 11.7 C 91 %
1831 18-09-2015 06:03:17 11.9 C 91 %
1832 18-09-2015 06:15:17 11.9 C 91 %
1833 18-09-2015 06:27:17 11.9 C 91 %
1834 18-09-2015 06:39:17 11.8 C 91 %
1835 18-09-2015 06:51:17 11.7 C 91 %
1836 18-09-2015 07:03:17 11.7 C 91 %
1837 18-09-2015 07:15:17 11.7 C 91 %
1838 18-09-2015 07:27:17 11.5 C 91 %
1839 18-09-2015 07:39:17 11.4 C 91 %
1840 18-09-2015 07:51:17 11.6 C 91 %
1841 18-09-2015 08:03:17 12.1 C 90 %
1842 18-09-2015 08:15:17 12.5 C 90 %
1843 18-09-2015 08:27:17 12.7 C 90 %
1844 18-09-2015 08:39:17 12.7 C 90 %
1845 18-09-2015 08:51:17 12.9 C 90 %
1846 18-09-2015 09:03:17 12.7 C 90 %
1847 18-09-2015 09:15:17 12.7 C 90 %
1848 18-09-2015 09:27:17 12.8 C 90 %
1849 18-09-2015 09:39:17 13 C 89 %
1850 18-09-2015 09:51:17 13.4 C 88 %
Sensor: Nr:Datum:Temp:Feuchte:
Aussen-T/F 1851 18-09-2015 10:03:17 14 C 85 %
1852 18-09-2015 10:15:17 14.4 C 81 %
1853 18-09-2015 10:27:17 14.7 C 74 %
1854 18-09-2015 10:39:17 15.2 C 67 %
1855 18-09-2015 10:51:17 14.9 C 65 %
1856 18-09-2015 11:03:17 15.3 C 65 %
1857 18-09-2015 11:15:17 15.3 C 63 %
1858 18-09-2015 11:27:17 16.1 C 57 %
1859 18-09-2015 11:39:17 16 C 58 %
1860 18-09-2015 11:51:17 15.8 C 58 %
1861 18-09-2015 12:03:17 15.7 C 58 %
1862 18-09-2015 12:15:17 15.6 C 58 %
1863 18-09-2015 12:27:17 15.7 C 59 %
1864 18-09-2015 12:39:17 16.2 C 55 %
1865 18-09-2015 12:51:17 16.5 C 53 %
1866 18-09-2015 13:03:17 17.2 C 52 %
1867 18-09-2015 13:15:17 17.8 C 47 %
1868 18-09-2015 13:27:17 17.3 C 47 %
1869 18-09-2015 13:39:17 17.2 C 46 %
1870 18-09-2015 13:51:17 17.4 C 47 %
1871 18-09-2015 14:03:17 17 C 51 %
1872 18-09-2015 14:15:17 17.7 C 47 %
1873 18-09-2015 14:27:17 18.5 C 46 %
1874 18-09-2015 14:39:17 19.2 C 42 %
1875 18-09-2015 14:51:17 19.2 C 41 %
Sensor: Nr:Datum:Temp:Feuchte:
Aussen-T/F 1876 18-09-2015 15:03:17 18.9 C 44 %
1877 18-09-2015 15:15:17 19.6 C 41 %
1878 18-09-2015 15:27:17 19.5 C 41 %
1879 18-09-2015 15:39:17 19.7 C 41 %
1880 18-09-2015 15:51:17 19.7 C 44 %
1881 18-09-2015 16:03:17 20.7 C 39 %
1882 18-09-2015 16:15:17 20.6 C 40 %
1883 18-09-2015 16:27:17 20.8 C 40 %
1884 18-09-2015 16:39:17 20.5 C 39 %
1885 18-09-2015 16:51:17 20.9 C 41 %
1886 18-09-2015 17:03:18 20.3 C 44 %
1887 18-09-2015 17:15:17 23.4 C 36 %
1888 18-09-2015 17:27:17 21.4 C 42 %
1889 18-09-2015 17:39:17 25 C 34 %
1890 18-09-2015 17:51:17 24.9 C 31 %
1891 18-09-2015 18:03:17 19.8 C 47 %
1892 18-09-2015 18:15:18 17.1 C 56 %
1893 18-09-2015 18:27:18 16.3 C 63 %
1894 18-09-2015 18:39:18 16.6 C 64 %
1895 18-09-2015 18:51:17 16.7 C 60 %
1896 18-09-2015 19:03:17 16.4 C 62 %
1897 18-09-2015 19:15:17 16.3 C 63 %
1898 18-09-2015 19:27:17 15.7 C 65 %
1899 18-09-2015 19:39:17 15.2 C 68 %
1900 18-09-2015 19:51:17 14.5 C 71 %
Sensor: Nr:Datum:Temp:Feuchte:
Aussen-T/F 1901 18-09-2015 20:03:18 13.9 C 73 %
1902 18-09-2015 20:15:18 13.5 C 75 %
1903 18-09-2015 20:27:18 13.2 C 76 %
1904 18-09-2015 20:39:17 12.9 C 78 %
1905 18-09-2015 20:51:17 12.8 C 79 %
1906 18-09-2015 21:03:17 12.6 C 79 %
1907 18-09-2015 21:15:18 12.4 C 80 %
1908 18-09-2015 21:27:18 12.4 C 81 %
1909 18-09-2015 21:39:17 12.4 C 81 %
1910 18-09-2015 21:51:17 12.4 C 82 %
1911 18-09-2015 22:03:17 12.7 C 83 %
1912 18-09-2015 22:15:17 12.8 C 83 %
1913 18-09-2015 22:27:17 12.6 C 82 %
1914 18-09-2015 22:39:17 12.3 C 81 %
1915 18-09-2015 22:51:17 12 C 81 %
1916 18-09-2015 23:03:17 11.8 C 81 %
1917 18-09-2015 23:15:17 11.7 C 82 %
1918 18-09-2015 23:27:17 11.6 C 82 %
1919 18-09-2015 23:39:17 11.6 C 83 %
1920 18-09-2015 23:51:17 11.5 C 84 %
1921 19-09-2015 00:03:18 12 C 84 %
1922 19-09-2015 00:15:17 12.4 C 84 %
1923 19-09-2015 00:27:17 12.8 C 81 %
1924 19-09-2015 00:39:17 12.8 C 76 %
1925 19-09-2015 00:51:17 12.7 C 75 %
Sensor: Nr:Datum:Temp:Feuchte:
Aussen-T/F 1926 19-09-2015 01:03:17 12.7 C 76 %
1927 19-09-2015 01:15:17 12.5 C 76 %
1928 19-09-2015 01:27:17 12.3 C 77 %
1929 19-09-2015 01:39:17 12.1 C 79 %
1930 19-09-2015 01:51:17 12 C 81 %
1931 19-09-2015 02:03:17 11.8 C 83 %
1932 19-09-2015 02:15:17 11.7 C 83 %
1933 19-09-2015 02:27:17 11.4 C 84 %
1934 19-09-2015 02:39:17 11.2 C 84 %
1935 19-09-2015 02:51:17 10.9 C 84 %
1936 19-09-2015 03:03:17 10.8 C 85 %
1937 19-09-2015 03:15:17 10.9 C 85 %
1938 19-09-2015 03:27:17 10.9 C 85 %
1939 19-09-2015 03:39:17 10.9 C 85 %
1940 19-09-2015 03:51:17 10.9 C 86 %
1941 19-09-2015 04:03:17 11.1 C 86 %
1942 19-09-2015 04:15:17 11.3 C 86 %
1943 19-09-2015 04:27:17 11.5 C 87 %
1944 19-09-2015 04:39:17 11.7 C 87 %
1945 19-09-2015 04:51:17 11.8 C 87 %
1946 19-09-2015 05:03:17 11.9 C 87 %
1947 19-09-2015 05:15:17 12 C 86 %
1948 19-09-2015 05:27:17 12 C 86 %
1949 19-09-2015 05:39:17 11.9 C 87 %
1950 19-09-2015 05:51:17 12 C 86 %
Sensor: Nr:Datum:Temp:Feuchte:
Aussen-T/F 1951 19-09-2015 06:03:17 11.8 C 86 %
1952 19-09-2015 06:15:17 11.7 C 86 %
1953 19-09-2015 06:27:17 12 C 86 %
1954 19-09-2015 06:39:17 12.1 C 86 %
1955 19-09-2015 06:51:17 12.2 C 86 %
1956 19-09-2015 07:03:17 12.2 C 86 %
1957 19-09-2015 07:15:17 12.2 C 86 %
1958 19-09-2015 07:27:17 12.3 C 86 %
1959 19-09-2015 07:39:17 12.4 C 86 %
1960 19-09-2015 07:51:17 12.5 C 86 %
1961 19-09-2015 08:03:17 12.6 C 86 %
1962 19-09-2015 08:15:17 12.8 C 86 %
1963 19-09-2015 08:27:17 12.8 C 85 %
1964 19-09-2015 08:39:17 13.2 C 84 %
1965 19-09-2015 08:51:17 13.4 C 82 %
1966 19-09-2015 09:03:17 13.7 C 81 %
1967 19-09-2015 09:15:17 14.1 C 77 %
1968 19-09-2015 09:27:17 14.4 C 73 %
1969 19-09-2015 09:39:17 14.6 C 69 %
1970 19-09-2015 09:51:17 14.6 C 66 %
1971 19-09-2015 10:03:17 14.8 C 66 %
1972 19-09-2015 10:15:17 15.1 C 64 %
1973 19-09-2015 10:27:17 15 C 62 %
1974 19-09-2015 10:39:17 14.9 C 64 %
1975 19-09-2015 10:51:17 14.8 C 64 %
Sensor: Nr:Datum:Temp:Feuchte:
Aussen-T/F 1976 19-09-2015 11:03:17 15 C 63 %
1977 19-09-2015 11:15:17 15.3 C 61 %
1978 19-09-2015 11:27:17 15.4 C 60 %
1979 19-09-2015 11:39:17 15.8 C 58 %
1980 19-09-2015 11:51:17 16.2 C 55 %
1981 19-09-2015 12:03:17 16.3 C 55 %
1982 19-09-2015 12:15:18 16.4 C 55 %
1983 19-09-2015 12:27:18 16.4 C 54 %
1984 19-09-2015 12:39:17 16.9 C 53 %
1985 19-09-2015 12:51:17 17.5 C 50 %
1986 19-09-2015 13:03:17 17.3 C 51 %
1987 19-09-2015 13:15:17 17.6 C 50 %
1988 19-09-2015 13:27:17 17.6 C 47 %
1989 19-09-2015 13:39:17 17.8 C 48 %
1990 19-09-2015 13:51:17 17.8 C 49 %
1991 19-09-2015 14:03:17 18.4 C 45 %
1992 19-09-2015 14:15:17 18.4 C 46 %
1993 19-09-2015 14:27:17 18.3 C 46 %
1994 19-09-2015 14:39:18 17.9 C 51 %
1995 19-09-2015 14:51:17 17.7 C 53 %
1996 19-09-2015 15:03:17 17.4 C 51 %
1997 19-09-2015 15:15:17 16.8 C 55 %
1998 19-09-2015 15:27:17 17.3 C 53 %
1999 19-09-2015 15:39:17 18.1 C 48 %
2000 19-09-2015 15:51:17 17.9 C 49 %
Sensor: Nr:Datum:Temp:Feuchte:
Aussen-T/F 2001 19-09-2015 16:03:18 17.6 C 49 %
2002 19-09-2015 16:15:17 16.4 C 55 %
2003 19-09-2015 16:27:17 15.4 C 67 %
2004 19-09-2015 16:39:17 15.2 C 73 %
2005 19-09-2015 16:51:17 14.9 C 73 %
2006 19-09-2015 17:03:17 15.4 C 71 %
2007 19-09-2015 17:15:17 16.2 C 65 %
2008 19-09-2015 17:27:17 15.8 C 61 %
2009 19-09-2015 17:39:17 15.9 C 69 %
2010 19-09-2015 17:51:17 17.1 C 64 %
2011 19-09-2015 18:03:17 16 C 65 %
2012 19-09-2015 18:15:17 15.4 C 70 %
2013 19-09-2015 18:27:17 15 C 73 %
2014 19-09-2015 18:39:17 15.1 C 74 %
2015 19-09-2015 18:51:17 15.2 C 69 %
2016 19-09-2015 19:03:17 14.8 C 69 %
2017 19-09-2015 19:15:17 14.4 C 73 %
2018 19-09-2015 19:27:17 14.1 C 77 %
2019 19-09-2015 19:39:17 13.8 C 79 %
2020 19-09-2015 19:51:17 13.7 C 80 %
2021 19-09-2015 20:03:17 13.5 C 81 %
2022 19-09-2015 20:15:17 13.5 C 82 %
2023 19-09-2015 20:27:17 13.7 C 83 %
2024 19-09-2015 20:39:18 13.7 C 83 %
2025 19-09-2015 20:51:17 13.9 C 83 %
Sensor: Nr:Datum:Temp:Feuchte:
Aussen-T/F 2026 19-09-2015 21:03:17 13.8 C 84 %
2027 19-09-2015 21:15:18 13.8 C 84 %
2028 19-09-2015 21:27:18 13.8 C 84 %
2029 19-09-2015 21:39:18 13.6 C 84 %
2030 19-09-2015 21:51:17 13.7 C 84 %
2031 19-09-2015 22:03:17 13.7 C 83 %
2032 19-09-2015 22:15:17 13.7 C 83 %
2033 19-09-2015 22:27:17 13.5 C 83 %
2034 19-09-2015 22:39:17 13.3 C 83 %
2035 19-09-2015 22:51:17 13.3 C 84 %
2036 19-09-2015 23:03:18 13.2 C 84 %
2037 19-09-2015 23:15:17 13.3 C 85 %
2038 19-09-2015 23:27:17 13.2 C 85 %
2039 19-09-2015 23:39:17 13.2 C 86 %
2040 19-09-2015 23:51:17 13.3 C 86 %
2041 20-09-2015 00:03:17 13.2 C 86 %
2042 20-09-2015 00:15:17 13.2 C 86 %
2043 20-09-2015 00:27:17 13.1 C 86 %
2044 20-09-2015 00:39:17 13 C 86 %
2045 20-09-2015 00:51:17 12.6 C 87 %
2046 20-09-2015 01:03:17 12.5 C 87 %
2047 20-09-2015 01:15:17 12.2 C 87 %
2048 20-09-2015 01:27:17 11.9 C 87 %
2049 20-09-2015 01:39:17 11.9 C 88 %
2050 20-09-2015 01:51:17 11.7 C 88 %
Sensor: Nr:Datum:Temp:Feuchte:
Aussen-T/F 2051 20-09-2015 02:03:17 11.4 C 88 %
2052 20-09-2015 02:15:17 11.4 C 88 %
2053 20-09-2015 02:27:17 11.6 C 88 %
2054 20-09-2015 02:39:17 11.7 C 88 %
2055 20-09-2015 02:51:17 11.4 C 88 %
2056 20-09-2015 03:03:17 11.2 C 89 %
2057 20-09-2015 03:15:17 11 C 89 %
2058 20-09-2015 03:27:17 11.1 C 89 %
2059 20-09-2015 03:39:17 11.4 C 89 %
2060 20-09-2015 03:51:17 11.7 C 90 %
2061 20-09-2015 04:03:17 11.6 C 90 %
2062 20-09-2015 04:15:17 11.6 C 90 %
2063 20-09-2015 04:27:17 11.5 C 90 %
2064 20-09-2015 04:39:17 11.7 C 90 %
2065 20-09-2015 04:51:17 11.7 C 90 %
2066 20-09-2015 05:03:17 11.7 C 90 %
2067 20-09-2015 05:15:17 11.6 C 90 %
2068 20-09-2015 05:27:17 11.5 C 90 %
2069 20-09-2015 05:39:17 11.3 C 90 %
2070 20-09-2015 05:51:17 11.2 C 90 %
2071 20-09-2015 06:03:17 11.4 C 90 %
2072 20-09-2015 06:15:17 11.4 C 90 %
2073 20-09-2015 06:27:17 11.5 C 90 %
2074 20-09-2015 06:39:17 11.5 C 90 %
2075 20-09-2015 06:51:17 11.5 C 90 %
Sensor: Nr:Datum:Temp:Feuchte:
Aussen-T/F 2076 20-09-2015 07:03:17 11.5 C 90 %
2077 20-09-2015 07:15:17 11.6 C 90 %
2078 20-09-2015 07:27:17 11.5 C 90 %
2079 20-09-2015 07:39:17 11.6 C 90 %
2080 20-09-2015 07:51:17 11.5 C 89 %
2081 20-09-2015 08:03:17 11.7 C 89 %
2082 20-09-2015 08:15:17 12.1 C 88 %
2083 20-09-2015 08:27:17 12.3 C 86 %
2084 20-09-2015 08:39:17 12.5 C 83 %
2085 20-09-2015 08:51:17 12.8 C 80 %
2086 20-09-2015 09:03:18 12.8 C 77 %
2087 20-09-2015 09:15:17 12.8 C 75 %
2088 20-09-2015 09:27:17 12.8 C 74 %
2089 20-09-2015 09:39:17 13 C 73 %
2090 20-09-2015 09:51:17 13.3 C 73 %
2091 20-09-2015 10:03:17 13.3 C 72 %
2092 20-09-2015 10:15:17 13.3 C 71 %
2093 20-09-2015 10:27:17 13.4 C 70 %
2094 20-09-2015 10:39:17 13.7 C 68 %
2095 20-09-2015 10:51:17 14 C 63 %
2096 20-09-2015 11:03:17 14.3 C 59 %
2097 20-09-2015 11:15:17 14.1 C 60 %
2098 20-09-2015 11:27:17 14.4 C 60 %
2099 20-09-2015 11:39:17 14.6 C 57 %
2100 20-09-2015 11:51:17 14.8 C 54 %
Sensor: Nr:Datum:Temp:Feuchte:
Aussen-T/F 2101 20-09-2015 12:03:17 14.3 C 54 %
2102 20-09-2015 12:15:17 14.5 C 56 %
2103 20-09-2015 12:27:17 15.2 C 54 %
2104 20-09-2015 12:39:17 15.5 C 51 %
2105 20-09-2015 12:51:17 15.6 C 52 %
2106 20-09-2015 13:03:17 15.6 C 50 %
2107 20-09-2015 13:15:17 15.2 C 49 %
2108 20-09-2015 13:27:17 15.1 C 51 %
2109 20-09-2015 13:39:17 16 C 47 %
2110 20-09-2015 13:51:17 15.9 C 49 %
2111 20-09-2015 14:03:17 15.9 C 43 %
2112 20-09-2015 14:15:17 16.2 C 45 %
2113 20-09-2015 14:27:18 16.4 C 44 %
2114 20-09-2015 14:39:17 16.1 C 45 %
2115 20-09-2015 14:51:17 16.4 C 45 %
2116 20-09-2015 15:03:17 17.3 C 40 %
2117 20-09-2015 15:15:17 16.8 C 44 %
2118 20-09-2015 15:27:17 17.7 C 41 %
2119 20-09-2015 15:39:17 18.5 C 39 %
2120 20-09-2015 15:51:17 19 C 36 %
2121 20-09-2015 16:03:17 19 C 39 %
2122 20-09-2015 16:15:18 18.3 C 40 %
2123 20-09-2015 16:27:18 17.9 C 41 %
2124 20-09-2015 16:39:18 17.4 C 41 %
2125 20-09-2015 16:51:17 16.9 C 44 %
Sensor: Nr:Datum:Temp:Feuchte:
Aussen-T/F 2126 20-09-2015 17:03:17 16.6 C 44 %
2127 20-09-2015 17:15:17 16.5 C 47 %
2128 20-09-2015 17:27:17 16.3 C 48 %
2129 20-09-2015 17:39:17 16 C 48 %
2130 20-09-2015 17:52:17 16 C 50 %
2131 20-09-2015 18:03:17 15.5 C 55 %
2132 20-09-2015 18:15:17 15.2 C 60 %
2133 20-09-2015 18:27:17 14.8 C 63 %
2134 20-09-2015 18:39:17 14.5 C 64 %
2135 20-09-2015 18:51:17 14.3 C 64 %
2136 20-09-2015 19:04:17 14.1 C 65 %
2137 20-09-2015 19:15:17 14 C 67 %
2138 20-09-2015 19:27:17 13.8 C 67 %
2139 20-09-2015 19:40:17 13.7 C 69 %
2140 20-09-2015 19:51:17 13.8 C 68 %
2141 20-09-2015 20:03:17 13.5 C 69 %
2142 20-09-2015 20:15:17 13.5 C 70 %
2143 20-09-2015 20:27:17 13.5 C 70 %
2144 20-09-2015 20:39:18 13.4 C 71 %
2145 20-09-2015 20:51:17 13.2 C 71 %
2146 20-09-2015 21:04:17 13.2 C 72 %
2147 20-09-2015 21:15:17 13.1 C 72 %
2148 20-09-2015 21:27:17 13 C 73 %
2149 20-09-2015 21:39:18 12.4 C 74 %
2150 20-09-2015 21:51:17 12 C 74 %
Sensor: Nr:Datum:Temp:Feuchte:
Aussen-T/F 2151 20-09-2015 22:03:17 11.7 C 75 %
2152 20-09-2015 22:15:17 11.4 C 76 %
2153 20-09-2015 22:27:17 11.2 C 77 %
2154 20-09-2015 22:40:17 11.2 C 78 %
2155 20-09-2015 22:52:17 10.9 C 79 %
2156 20-09-2015 23:03:17 10.8 C 80 %
2157 20-09-2015 23:16:17 10.6 C 80 %
2158 20-09-2015 23:27:17 10.5 C 81 %
2159 20-09-2015 23:39:17 10.4 C 82 %
2160 20-09-2015 23:52:17 10.4 C 82 %
2161 21-09-2015 00:04:17 10.6 C 83 %
2162 21-09-2015 00:16:17 10.6 C 83 %
2163 21-09-2015 00:28:17 10.6 C 83 %
2164 21-09-2015 00:39:17 10.6 C 83 %
2165 21-09-2015 00:52:17 10.6 C 84 %
2166 21-09-2015 01:04:17 10.5 C 84 %
2167 21-09-2015 01:16:17 10.4 C 84 %
2168 21-09-2015 01:28:17 10.4 C 84 %
2169 21-09-2015 01:40:17 10.5 C 84 %
2170 21-09-2015 01:52:17 10.4 C 85 %
2171 21-09-2015 02:04:17 10.4 C 85 %
2172 21-09-2015 02:16:17 10.4 C 85 %
2173 21-09-2015 02:28:17 10.4 C 85 %
2174 21-09-2015 02:40:17 10.2 C 85 %
2175 21-09-2015 02:52:17 10.1 C 85 %
Sensor: Nr:Datum:Temp:Feuchte:
Aussen-T/F 2176 21-09-2015 03:04:17 9.7 C 86 %
2177 21-09-2015 03:16:17 9.5 C 87 %
2178 21-09-2015 03:28:17 9.3 C 87 %
2179 21-09-2015 03:40:17 9.1 C 87 %
2180 21-09-2015 03:52:17 9 C 87 %
2181 21-09-2015 04:04:17 9 C 87 %
2182 21-09-2015 04:16:17 8.7 C 88 %
2183 21-09-2015 04:28:17 8.8 C 88 %
2184 21-09-2015 04:40:17 8.5 C 88 %
2185 21-09-2015 04:52:17 8.5 C 89 %
2186 21-09-2015 05:04:17 8.5 C 89 %
2187 21-09-2015 05:16:17 8.4 C 89 %
2188 21-09-2015 05:28:17 8.4 C 89 %
2189 21-09-2015 05:40:17 8.4 C 89 %
2190 21-09-2015 05:52:17 8.6 C 90 %
2191 21-09-2015 06:04:17 8.6 C 90 %
2192 21-09-2015 06:16:17 8.6 C 90 %
2193 21-09-2015 06:28:17 8.5 C 90 %
2194 21-09-2015 06:40:17 8.5 C 90 %
2195 21-09-2015 06:52:17 8.4 C 90 %
2196 21-09-2015 07:04:17 8.4 C 90 %
2197 21-09-2015 07:16:17 8.4 C 90 %
2198 21-09-2015 07:28:17 8.4 C 91 %
2199 21-09-2015 07:40:17 8.5 C 91 %
2200 21-09-2015 07:52:17 8.5 C 91 %
Sensor: Nr:Datum:Temp:Feuchte:
Aussen-T/F 2201 21-09-2015 08:04:17 8.4 C 90 %
2202 21-09-2015 08:16:17 8.6 C 90 %
2203 21-09-2015 08:28:17 8.9 C 91 %
2204 21-09-2015 08:40:17 9.1 C 89 %
2205 21-09-2015 08:52:17 9.1 C 89 %
2206 21-09-2015 09:04:17 9.3 C 89 %
2207 21-09-2015 09:16:17 9.3 C 87 %
2208 21-09-2015 09:28:17 9.4 C 86 %
2209 21-09-2015 09:40:17 9.7 C 85 %
2210 21-09-2015 09:52:17 10 C 82 %
2211 21-09-2015 10:04:17 10.4 C 80 %
2212 21-09-2015 10:16:17 10.5 C 78 %
2213 21-09-2015 10:28:17 10.7 C 77 %
2214 21-09-2015 10:40:17 10.6 C 75 %
2215 21-09-2015 10:52:17 10.1 C 75 %
2216 21-09-2015 11:04:17 10.1 C 77 %
2217 21-09-2015 11:16:17 10.2 C 78 %
2218 21-09-2015 11:28:17 10.3 C 78 %
2219 21-09-2015 11:40:17 10.5 C 79 %
2220 21-09-2015 11:52:17 10.7 C 80 %
2221 21-09-2015 12:04:17 11.1 C 81 %
2222 21-09-2015 12:16:17 11.5 C 82 %
2223 21-09-2015 12:28:17 12.3 C 83 %
2224 21-09-2015 12:40:18 13.2 C 82 %
2225 21-09-2015 12:52:17 14.2 C 72 %
Sensor: Nr:Datum:Temp:Feuchte:
Aussen-T/F 2226 21-09-2015 13:04:17 15.1 C 67 %
2227 21-09-2015 13:16:17 15.9 C 59 %
2228 21-09-2015 13:28:17 16.6 C 52 %
2229 21-09-2015 13:40:17 17 C 51 %
2230 21-09-2015 13:52:17 17.1 C 49 %
2231 21-09-2015 14:04:17 16.9 C 55 %
2232 21-09-2015 14:16:17 16.7 C 58 %
2233 21-09-2015 14:28:17 17.3 C 55 %
2234 21-09-2015 14:40:17 17.5 C 50 %
2235 21-09-2015 14:52:17 18 C 47 %
2236 21-09-2015 15:04:17 18 C 54 %
2237 21-09-2015 15:16:18 18.2 C 51 %
2238 21-09-2015 15:28:18 17.9 C 53 %
2239 21-09-2015 15:40:18 18.2 C 46 %
2240 21-09-2015 15:52:17 18.6 C 45 %
2241 21-09-2015 16:04:17 18.9 C 51 %
2242 21-09-2015 16:16:17 18.8 C 49 %
2243 21-09-2015 16:28:17 18.4 C 50 %
2244 21-09-2015 16:40:17 18.7 C 53 %
2245 21-09-2015 16:52:17 18.5 C 53 %
2246 21-09-2015 17:04:17 18.2 C 54 %
2247 21-09-2015 17:16:17 19.9 C 51 %
2248 21-09-2015 17:28:17 19.3 C 50 %
2249 21-09-2015 17:40:18 18.4 C 53 %
2250 21-09-2015 17:52:17 18.6 C 54 %
Sensor: Nr:Datum:Temp:Feuchte:
Aussen-T/F 2251 21-09-2015 18:04:17 18.1 C 53 %
2252 21-09-2015 18:16:17 17.3 C 55 %
2253 21-09-2015 18:28:17 16.7 C 57 %
2254 21-09-2015 18:40:17 15.7 C 60 %
2255 21-09-2015 18:52:17 15 C 63 %
2256 21-09-2015 19:04:17 14.7 C 65 %
2257 21-09-2015 19:16:17 14.4 C 66 %
2258 21-09-2015 19:28:17 14 C 67 %
2259 21-09-2015 19:40:17 13.8 C 69 %
2260 21-09-2015 19:52:17 13.7 C 70 %
2261 21-09-2015 20:04:17 13.5 C 70 %
2262 21-09-2015 20:16:17 13.5 C 71 %
2263 21-09-2015 20:28:17 13.5 C 72 %
2264 21-09-2015 20:40:18 13.5 C 72 %
2265 21-09-2015 20:52:17 13.4 C 72 %
2266 21-09-2015 21:04:18 13.3 C 72 %
2267 21-09-2015 21:16:17 13.1 C 72 %
2268 21-09-2015 21:28:17 13 C 72 %
2269 21-09-2015 21:40:17 13 C 73 %
2270 21-09-2015 21:52:17 12.8 C 74 %
2271 21-09-2015 22:04:17 12.6 C 75 %
2272 21-09-2015 22:16:17 12.7 C 75 %
2273 21-09-2015 22:28:17 12.6 C 75 %
2274 21-09-2015 22:40:17 12.5 C 75 %
2275 21-09-2015 22:52:17 12.7 C 75 %
Sensor: Nr:Datum:Temp:Feuchte:
Aussen-T/F 2276 21-09-2015 23:04:17 12.7 C 76 %
2277 21-09-2015 23:16:17 12.8 C 76 %
2278 21-09-2015 23:28:18 12.7 C 76 %
2279 21-09-2015 23:40:17 12.5 C 76 %
2280 21-09-2015 23:52:17 12.5 C 77 %
2281 22-09-2015 00:04:17 12.6 C 77 %
2282 22-09-2015 00:16:17 12.6 C 77 %
2283 22-09-2015 00:28:17 12.5 C 78 %
2284 22-09-2015 00:40:17 12.4 C 78 %
2285 22-09-2015 00:52:17 12.2 C 78 %
2286 22-09-2015 01:04:17 12.1 C 78 %
2287 22-09-2015 01:16:17 12 C 78 %
2288 22-09-2015 01:28:17 12 C 78 %
2289 22-09-2015 01:40:17 11.9 C 79 %
2290 22-09-2015 01:52:17 12 C 78 %
2291 22-09-2015 02:04:17 12 C 78 %
2292 22-09-2015 02:16:17 12 C 78 %
2293 22-09-2015 02:28:17 11.9 C 78 %
2294 22-09-2015 02:40:17 11.8 C 78 %
2295 22-09-2015 02:52:17 11.8 C 78 %
2296 22-09-2015 03:04:17 11.7 C 78 %
2297 22-09-2015 03:16:17 11.8 C 79 %
2298 22-09-2015 03:28:17 11.8 C 79 %
2299 22-09-2015 03:40:17 11.9 C 79 %
2300 22-09-2015 03:52:17 12 C 79 %
Sensor: Nr:Datum:Temp:Feuchte:
Aussen-T/F 2301 22-09-2015 04:04:17 12 C 79 %
2302 22-09-2015 04:16:17 12.1 C 78 %
2303 22-09-2015 04:28:17 12.1 C 78 %
2304 22-09-2015 04:40:17 12 C 78 %
2305 22-09-2015 04:52:17 12.1 C 78 %
2306 22-09-2015 05:04:17 12.2 C 77 %
2307 22-09-2015 05:16:17 12.3 C 76 %
2308 22-09-2015 05:28:17 12.5 C 74 %
2309 22-09-2015 05:40:17 12.8 C 71 %
2310 22-09-2015 05:52:17 12.6 C 71 %
2311 22-09-2015 06:04:17 12.5 C 72 %
2312 22-09-2015 06:16:18 12.4 C 73 %
2313 22-09-2015 06:28:18 12.5 C 73 %
2314 22-09-2015 06:40:17 12.3 C 73 %
2315 22-09-2015 06:52:17 12.1 C 76 %
2316 22-09-2015 07:04:17 12 C 79 %
2317 22-09-2015 07:16:17 11.9 C 81 %
2318 22-09-2015 07:28:17 11.8 C 82 %
2319 22-09-2015 07:40:17 12 C 83 %
2320 22-09-2015 07:52:17 12.1 C 83 %
2321 22-09-2015 08:04:17 12.3 C 84 %
2322 22-09-2015 08:16:17 12.5 C 84 %
2323 22-09-2015 08:28:17 12.7 C 85 %
2324 22-09-2015 08:40:17 13 C 83 %
2325 22-09-2015 08:52:18 13 C 82 %
Sensor: Nr:Datum:Temp:Feuchte:
Aussen-T/F 2326 22-09-2015 09:04:17 13.1 C 81 %
2327 22-09-2015 09:16:17 13.3 C 80 %
2328 22-09-2015 09:28:17 13.4 C 80 %
2329 22-09-2015 09:40:17 13.3 C 79 %
2330 22-09-2015 09:52:17 13.5 C 79 %
2331 22-09-2015 10:04:17 13.8 C 79 %
2332 22-09-2015 10:16:17 13.9 C 78 %
2333 22-09-2015 10:28:17 13.6 C 77 %
2334 22-09-2015 10:40:17 13.3 C 79 %
2335 22-09-2015 10:52:17 13.2 C 81 %
2336 22-09-2015 11:04:17 13.4 C 82 %
2337 22-09-2015 11:16:17 13.7 C 83 %
2338 22-09-2015 11:28:17 13.8 C 83 %
2339 22-09-2015 11:40:17 14.2 C 83 %
2340 22-09-2015 11:52:17 14.4 C 83 %
2341 22-09-2015 12:04:17 14.2 C 83 %
2342 22-09-2015 12:16:17 14.2 C 83 %
2343 22-09-2015 12:28:17 14.2 C 83 %
2344 22-09-2015 12:40:17 14.1 C 83 %
2345 22-09-2015 12:52:17 14 C 83 %
2346 22-09-2015 13:04:17 14.5 C 83 %
2347 22-09-2015 13:16:17 14.4 C 82 %
2348 22-09-2015 13:28:17 14.1 C 82 %
2349 22-09-2015 13:40:17 13.9 C 83 %
2350 22-09-2015 13:52:17 13.7 C 83 %
Sensor: Nr:Datum:Temp:Feuchte:
Aussen-T/F 2351 22-09-2015 14:04:17 13.5 C 83 %
2352 22-09-2015 14:16:17 13.4 C 84 %
2353 22-09-2015 14:28:17 13.6 C 84 %
2354 22-09-2015 14:40:17 14.4 C 84 %
2355 22-09-2015 14:52:17 15 C 82 %
2356 22-09-2015 15:04:17 15.2 C 78 %
2357 22-09-2015 15:16:17 15.2 C 72 %
2358 22-09-2015 15:28:17 14.9 C 72 %
2359 22-09-2015 15:40:17 15.1 C 71 %
2360 22-09-2015 15:52:17 15.5 C 68 %
2361 22-09-2015 16:04:17 16 C 67 %
2362 22-09-2015 16:16:17 16.2 C 64 %
2363 22-09-2015 16:28:17 16 C 66 %
2364 22-09-2015 16:40:17 16.3 C 62 %
2365 22-09-2015 16:52:17 17 C 62 %
2366 22-09-2015 17:04:17 16.6 C 67 %
2367 22-09-2015 17:16:17 16.2 C 65 %
2368 22-09-2015 17:28:17 15.6 C 69 %
2369 22-09-2015 17:40:17 15 C 73 %
2370 22-09-2015 17:52:17 14.6 C 75 %
2371 22-09-2015 18:04:17 14.3 C 77 %
2372 22-09-2015 18:16:17 14 C 79 %
2373 22-09-2015 18:28:17 13.7 C 81 %
2374 22-09-2015 18:40:17 13.5 C 82 %
2375 22-09-2015 18:52:17 13.2 C 83 %
Sensor: Nr:Datum:Temp:Feuchte:
Aussen-T/F 2376 22-09-2015 19:04:17 13 C 84 %
2377 22-09-2015 19:16:17 12.7 C 85 %
2378 22-09-2015 19:28:17 12.4 C 85 %
2379 22-09-2015 19:40:17 12.3 C 85 %
2380 22-09-2015 19:52:17 11.8 C 86 %
2381 22-09-2015 20:04:17 11.3 C 86 %
2382 22-09-2015 20:16:17 11 C 87 %
2383 22-09-2015 20:28:17 10.8 C 88 %
2384 22-09-2015 20:40:17 10.5 C 88 %
2385 22-09-2015 20:52:17 10.5 C 88 %
2386 22-09-2015 21:04:17 10.4 C 88 %
2387 22-09-2015 21:16:17 10.4 C 89 %
2388 22-09-2015 21:28:17 10.3 C 89 %
2389 22-09-2015 21:40:17 10.2 C 89 %
2390 22-09-2015 21:52:17 10.2 C 89 %
2391 22-09-2015 22:04:17 10 C 89 %
2392 22-09-2015 22:16:17 9.9 C 91 %
2393 22-09-2015 22:28:17 9.7 C 91 %
2394 22-09-2015 22:40:17 9.6 C 91 %
2395 22-09-2015 22:52:17 9.5 C 91 %
2396 22-09-2015 23:04:17 9.4 C 91 %
2397 22-09-2015 23:16:17 9.3 C 91 %
2398 22-09-2015 23:28:17 9.1 C 91 %
2399 22-09-2015 23:40:17 9.2 C 91 %
2400 22-09-2015 23:52:17 9.5 C 92 %
Sensor: Nr:Datum:Temp:Feuchte:
Aussen-T/F 2401 23-09-2015 00:04:17 9.6 C 92 %
2402 23-09-2015 00:16:17 9.4 C 92 %
2403 23-09-2015 00:28:17 9.5 C 92 %
2404 23-09-2015 00:40:17 9.4 C 92 %
2405 23-09-2015 00:52:17 9.5 C 92 %
2406 23-09-2015 01:04:17 9.6 C 92 %
2407 23-09-2015 01:16:17 9.6 C 92 %
2408 23-09-2015 01:28:17 9.6 C 92 %
2409 23-09-2015 01:40:17 9.7 C 92 %
2410 23-09-2015 01:52:17 9.8 C 92 %
2411 23-09-2015 02:04:17 9.7 C 92 %
2412 23-09-2015 02:16:17 9.7 C 92 %
2413 23-09-2015 02:28:17 9.5 C 92 %
2414 23-09-2015 02:40:17 9.4 C 92 %
2415 23-09-2015 02:52:17 9.4 C 92 %
2416 23-09-2015 03:04:17 9.6 C 92 %
2417 23-09-2015 03:16:17 9.6 C 92 %
2418 23-09-2015 03:28:17 9.6 C 92 %
2419 23-09-2015 03:40:17 9.7 C 92 %
2420 23-09-2015 03:52:17 9.8 C 92 %
2421 23-09-2015 04:04:17 10 C 91 %
2422 23-09-2015 04:16:17 10 C 91 %
2423 23-09-2015 04:28:18 9.9 C 93 %
2424 23-09-2015 04:40:17 9.9 C 93 %
2425 23-09-2015 04:52:17 9.9 C 93 %
Sensor: Nr:Datum:Temp:Feuchte:
Aussen-T/F 2426 23-09-2015 05:04:17 9.8 C 93 %
2427 23-09-2015 05:16:17 9.7 C 93 %
2428 23-09-2015 05:28:18 9.8 C 93 %
2429 23-09-2015 05:40:17 9.8 C 93 %
2430 23-09-2015 05:52:17 9.8 C 93 %
2431 23-09-2015 06:04:17 9.8 C 93 %
2432 23-09-2015 06:16:17 9.9 C 93 %
2433 23-09-2015 06:28:17 9.8 C 93 %
2434 23-09-2015 06:40:17 9.8 C 93 %
2435 23-09-2015 06:52:17 9.9 C 93 %
2436 23-09-2015 07:04:17 10 C 91 %
2437 23-09-2015 07:16:17 10 C 91 %
2438 23-09-2015 07:28:17 10 C 91 %
2439 23-09-2015 07:40:17 10 C 91 %
2440 23-09-2015 07:52:17 10.1 C 91 %
2441 23-09-2015 08:04:17 10 C 91 %
2442 23-09-2015 08:16:17 10.2 C 92 %
2443 23-09-2015 08:28:17 10.2 C 91 %
2444 23-09-2015 08:40:17 10.2 C 91 %
2445 23-09-2015 08:52:17 10.3 C 91 %
2446 23-09-2015 09:04:17 10.4 C 91 %
2447 23-09-2015 09:16:17 10.5 C 91 %
2448 23-09-2015 09:28:17 10.7 C 91 %
2449 23-09-2015 09:40:17 11 C 90 %
2450 23-09-2015 09:52:17 11.1 C 88 %
Sensor: Nr:Datum:Temp:Feuchte:
Aussen-T/F 2451 23-09-2015 10:04:17 11.1 C 87 %
2452 23-09-2015 10:16:17 11.1 C 86 %
2453 23-09-2015 10:28:17 11.4 C 85 %
2454 23-09-2015 10:40:17 11.5 C 84 %
2455 23-09-2015 10:52:17 11.5 C 84 %
2456 23-09-2015 11:04:17 11.8 C 84 %
2457 23-09-2015 11:16:17 12.1 C 83 %
2458 23-09-2015 11:28:17 12.3 C 81 %
2459 23-09-2015 11:40:17 12.6 C 79 %
2460 23-09-2015 11:52:17 12.9 C 76 %
2461 23-09-2015 12:04:17 13.3 C 72 %
2462 23-09-2015 12:16:17 13.7 C 71 %
2463 23-09-2015 12:28:18 13.6 C 70 %
2464 23-09-2015 12:40:17 14.3 C 68 %
2465 23-09-2015 12:52:17 14.3 C 65 %
2466 23-09-2015 13:04:17 14.1 C 65 %
2467 23-09-2015 13:16:17 14 C 68 %
2468 23-09-2015 13:28:17 13.7 C 68 %
2469 23-09-2015 13:40:18 13.5 C 70 %
2470 23-09-2015 13:52:17 13.8 C 69 %
2471 23-09-2015 14:04:17 14.5 C 67 %
2472 23-09-2015 14:16:17 13.9 C 67 %
2473 23-09-2015 14:28:17 14 C 66 %
2474 23-09-2015 14:40:17 13.7 C 71 %
2475 23-09-2015 14:52:17 14 C 68 %
Sensor: Nr:Datum:Temp:Feuchte:
Aussen-T/F 2476 23-09-2015 15:04:17 14 C 67 %
2477 23-09-2015 15:16:17 13.1 C 73 %
2478 23-09-2015 15:28:17 13.1 C 78 %
2479 23-09-2015 15:40:17 13.4 C 79 %
2480 23-09-2015 15:52:17 14 C 77 %
2481 23-09-2015 16:04:17 13.9 C 77 %
2482 23-09-2015 16:16:17 13.4 C 77 %
2483 23-09-2015 16:28:17 12.8 C 80 %
2484 23-09-2015 16:40:17 12.8 C 82 %
2485 23-09-2015 16:52:17 12.9 C 84 %
2486 23-09-2015 17:04:17 12.8 C 84 %
2487 23-09-2015 17:16:17 12.7 C 84 %
2488 23-09-2015 17:28:17 12.6 C 84 %
2489 23-09-2015 17:40:17 12.4 C 84 %
2490 23-09-2015 17:52:17 12.4 C 85 %
2491 23-09-2015 18:04:17 12.6 C 85 %
2492 23-09-2015 18:16:17 12.5 C 86 %
2493 23-09-2015 18:28:17 12.6 C 86 %
2494 23-09-2015 18:40:17 12.6 C 86 %
2495 23-09-2015 18:52:17 12.5 C 86 %
2496 23-09-2015 19:04:17 12.4 C 86 %
2497 23-09-2015 19:16:18 12.2 C 86 %
2498 23-09-2015 19:28:18 12.3 C 86 %
2499 23-09-2015 19:40:17 12.3 C 87 %
2500 23-09-2015 19:52:17 12.2 C 87 %
Sensor: Nr:Datum:Temp:Feuchte:
Aussen-T/F 2501 23-09-2015 20:04:18 12.3 C 87 %
2502 23-09-2015 20:16:17 12.2 C 87 %
2503 23-09-2015 20:28:17 12.2 C 87 %
2504 23-09-2015 20:40:17 12.2 C 87 %
2505 23-09-2015 20:52:17 12.2 C 88 %
2506 23-09-2015 21:04:17 12.1 C 88 %
2507 23-09-2015 21:16:17 12.1 C 88 %
2508 23-09-2015 21:28:17 12 C 88 %
2509 23-09-2015 21:40:17 12 C 88 %
2510 23-09-2015 21:52:17 12 C 88 %
2511 23-09-2015 22:04:17 11.9 C 89 %
2512 23-09-2015 22:16:18 11.8 C 89 %
2513 23-09-2015 22:28:18 11.9 C 89 %
2514 23-09-2015 22:40:18 11.9 C 89 %
2515 23-09-2015 22:52:17 11.8 C 90 %
2516 23-09-2015 23:04:17 11.9 C 90 %
2517 23-09-2015 23:16:17 11.8 C 90 %
2518 23-09-2015 23:28:17 11.7 C 90 %
2519 23-09-2015 23:40:17 11.7 C 90 %
2520 23-09-2015 23:52:17 11.7 C 90 %
2521 24-09-2015 00:04:17 11.7 C 90 %
2522 24-09-2015 00:16:17 11.7 C 90 %
2523 24-09-2015 00:28:17 11.7 C 90 %
2524 24-09-2015 00:40:17 11.7 C 90 %
2525 24-09-2015 00:52:17 11.8 C 91 %
Sensor: Nr:Datum:Temp:Feuchte:
Aussen-T/F 2526 24-09-2015 01:04:17 11.8 C 91 %
2527 24-09-2015 01:16:17 11.7 C 91 %
2528 24-09-2015 01:28:17 11.8 C 91 %
2529 24-09-2015 01:40:17 11.8 C 91 %
2530 24-09-2015 01:52:17 11.8 C 91 %
2531 24-09-2015 02:04:17 11.7 C 91 %
2532 24-09-2015 02:16:17 11.6 C 91 %
2533 24-09-2015 02:28:17 11.4 C 91 %
2534 24-09-2015 02:40:17 11.3 C 91 %
2535 24-09-2015 02:52:17 11.2 C 91 %
2536 24-09-2015 03:04:17 11.3 C 91 %
2537 24-09-2015 03:16:18 11 C 91 %
2538 24-09-2015 03:28:18 10.6 C 91 %
2539 24-09-2015 03:40:17 10.4 C 91 %
2540 24-09-2015 03:52:17 10.4 C 91 %
2541 24-09-2015 04:04:17 10.8 C 91 %
2542 24-09-2015 04:16:17 10.8 C 91 %
2543 24-09-2015 04:28:17 10.6 C 91 %
2544 24-09-2015 04:40:18 10.2 C 91 %
2545 24-09-2015 04:52:17 9.9 C 92 %
2546 24-09-2015 05:04:17 9.7 C 92 %
2547 24-09-2015 05:16:17 9.6 C 92 %
2548 24-09-2015 05:28:17 9.6 C 92 %
2549 24-09-2015 05:40:17 9.6 C 92 %
2550 24-09-2015 05:52:17 9.7 C 92 %
Sensor: Nr:Datum:Temp:Feuchte:
Aussen-T/F 2551 24-09-2015 06:04:17 9.6 C 92 %
2552 24-09-2015 06:16:17 9.4 C 92 %
2553 24-09-2015 06:28:17 9.4 C 92 %
2554 24-09-2015 06:40:17 9.3 C 92 %
2555 24-09-2015 06:52:17 9.3 C 92 %
2556 24-09-2015 07:04:17 9.4 C 92 %
2557 24-09-2015 07:16:17 9.6 C 93 %
2558 24-09-2015 07:28:17 9.7 C 93 %
2559 24-09-2015 07:40:17 9.8 C 93 %
2560 24-09-2015 07:52:17 9.9 C 93 %
2561 24-09-2015 08:04:17 9.8 C 93 %
2562 24-09-2015 08:16:17 9.8 C 93 %
2563 24-09-2015 08:28:17 9.9 C 93 %
2564 24-09-2015 08:40:17 9.8 C 93 %
2565 24-09-2015 08:52:17 9.8 C 93 %
2566 24-09-2015 09:04:17 9.7 C 93 %
2567 24-09-2015 09:16:18 9.7 C 93 %
2568 24-09-2015 09:28:18 9.7 C 93 %
2569 24-09-2015 09:40:17 9.8 C 93 %
2570 24-09-2015 09:52:17 10.2 C 91 %
2571 24-09-2015 10:04:17 10.7 C 92 %
2572 24-09-2015 10:16:17 11.1 C 91 %
2573 24-09-2015 10:28:17 11.5 C 91 %
2574 24-09-2015 10:40:17 12.1 C 91 %
2575 24-09-2015 10:52:17 12.7 C 91 %
Sensor: Nr:Datum:Temp:Feuchte:
Aussen-T/F 2576 24-09-2015 11:04:17 13.2 C 90 %
2577 24-09-2015 11:16:18 13.5 C 90 %
2578 24-09-2015 11:28:18 13.8 C 90 %
2579 24-09-2015 11:40:17 13.4 C 90 %
2580 24-09-2015 11:52:17 13.3 C 90 %
2581 24-09-2015 12:04:18 13.6 C 90 %
2582 24-09-2015 12:16:17 13.4 C 90 %
2583 24-09-2015 12:28:17 13.4 C 90 %
2584 24-09-2015 12:40:17 13.4 C 89 %
2585 24-09-2015 12:52:17 13.7 C 88 %
2586 24-09-2015 13:04:17 14.4 C 83 %
2587 24-09-2015 13:16:17 15.2 C 70 %
2588 24-09-2015 13:28:17 15.8 C 60 %
2589 24-09-2015 13:40:17 16 C 58 %
2590 24-09-2015 13:52:17 16 C 57 %
2591 24-09-2015 14:04:17 15.6 C 59 %
2592 24-09-2015 14:16:17 15.5 C 62 %
2593 24-09-2015 14:28:17 16.1 C 57 %
2594 24-09-2015 14:40:18 16.3 C 60 %
2595 24-09-2015 14:52:17 16.6 C 54 %
2596 24-09-2015 15:04:17 17.3 C 52 %
2597 24-09-2015 15:16:17 17.9 C 50 %
2598 24-09-2015 15:28:17 17.8 C 52 %
2599 24-09-2015 15:40:17 17.9 C 49 %
2600 24-09-2015 15:52:17 17.8 C 53 %
Sensor: Nr:Datum:Temp:Feuchte:
Aussen-T/F 2601 24-09-2015 16:04:17 17.7 C 52 %
2602 24-09-2015 16:16:17 18.2 C 55 %
2603 24-09-2015 16:28:17 17.6 C 54 %
2604 24-09-2015 16:40:17 18.6 C 57 %
2605 24-09-2015 16:52:17 19.1 C 51 %
2606 24-09-2015 17:04:17 18.7 C 55 %
2607 24-09-2015 17:16:17 21.9 C 49 %
2608 24-09-2015 17:28:17 22.9 C 39 %
2609 24-09-2015 17:40:17 24.1 C 37 %
2610 24-09-2015 17:52:17 22.6 C 39 %
2611 24-09-2015 18:04:17 18.7 C 51 %
2612 24-09-2015 18:16:17 18.5 C 55 %
2613 24-09-2015 18:28:17 18.1 C 52 %
2614 24-09-2015 18:40:17 18.9 C 52 %
2615 24-09-2015 18:52:17 16.8 C 59 %
2616 24-09-2015 19:04:17 15.1 C 64 %
2617 24-09-2015 19:16:18 13.9 C 71 %
2618 24-09-2015 19:28:18 13.4 C 74 %
2619 24-09-2015 19:40:17 13.1 C 76 %
2620 24-09-2015 19:52:17 12.7 C 78 %
2621 24-09-2015 20:04:18 12.6 C 80 %
2622 24-09-2015 20:16:17 12.3 C 80 %
2623 24-09-2015 20:28:17 12.4 C 81 %
2624 24-09-2015 20:40:17 12.4 C 81 %
2625 24-09-2015 20:52:17 12.5 C 82 %
Sensor: Nr:Datum:Temp:Feuchte:
Aussen-T/F 2626 24-09-2015 21:04:17 12.8 C 82 %
2627 24-09-2015 21:16:17 12.5 C 81 %
2628 24-09-2015 21:28:17 12.2 C 80 %
2629 24-09-2015 21:40:17 12 C 81 %
2630 24-09-2015 21:52:17 12.1 C 81 %
2631 24-09-2015 22:04:17 12.2 C 82 %
2632 24-09-2015 22:16:17 12.5 C 83 %
2633 24-09-2015 22:28:18 12.6 C 83 %
2634 24-09-2015 22:40:17 12.7 C 83 %
2635 24-09-2015 22:52:17 12.7 C 83 %
2636 24-09-2015 23:04:17 12.7 C 83 %
2637 24-09-2015 23:16:17 12.7 C 83 %
2638 24-09-2015 23:28:17 13 C 79 %
2639 24-09-2015 23:40:17 12.9 C 79 %
2640 24-09-2015 23:52:17 13.1 C 76 %
2641 25-09-2015 00:04:17 12.9 C 75 %
2642 25-09-2015 00:16:17 12.7 C 76 %
2643 25-09-2015 00:28:17 12.7 C 77 %
2644 25-09-2015 00:40:17 12.8 C 78 %
2645 25-09-2015 00:52:17 12.8 C 79 %
2646 25-09-2015 01:04:17 12.7 C 80 %
2647 25-09-2015 01:16:17 12.8 C 80 %
2648 25-09-2015 01:28:17 12.7 C 80 %
2649 25-09-2015 01:40:17 12.8 C 80 %
2650 25-09-2015 01:52:17 13.1 C 79 %
Sensor: Nr:Datum:Temp:Feuchte:
Aussen-T/F 2651 25-09-2015 02:04:17 13.1 C 78 %
2652 25-09-2015 02:16:17 13.1 C 77 %
2653 25-09-2015 02:28:17 13 C 77 %
2654 25-09-2015 02:40:17 12.8 C 78 %
2655 25-09-2015 02:52:17 12.8 C 79 %
2656 25-09-2015 03:04:17 12.8 C 79 %
2657 25-09-2015 03:16:17 12.7 C 79 %
2658 25-09-2015 03:28:17 12.7 C 79 %
2659 25-09-2015 03:40:17 12.8 C 80 %
2660 25-09-2015 03:52:17 12.8 C 80 %
2661 25-09-2015 04:04:17 12.7 C 80 %
2662 25-09-2015 04:16:17 12.6 C 79 %
2663 25-09-2015 04:28:17 12.6 C 78 %
2664 25-09-2015 04:40:17 12.5 C 79 %
2665 25-09-2015 04:52:17 12.2 C 80 %
2666 25-09-2015 05:04:17 11.8 C 82 %
2667 25-09-2015 05:16:18 11.6 C 83 %
2668 25-09-2015 05:28:18 11.7 C 84 %
2669 25-09-2015 05:40:17 11.8 C 85 %
2670 25-09-2015 05:52:17 11.9 C 86 %
2671 25-09-2015 06:04:17 12.1 C 86 %
2672 25-09-2015 06:16:17 12.2 C 87 %
2673 25-09-2015 06:28:17 12.2 C 87 %
2674 25-09-2015 06:40:17 12.1 C 87 %
2675 25-09-2015 06:52:17 11.6 C 87 %
Sensor: Nr:Datum:Temp:Feuchte:
Aussen-T/F 2676 25-09-2015 07:04:17 11 C 87 %
2677 25-09-2015 07:16:17 10.8 C 87 %
2678 25-09-2015 07:28:17 10.5 C 88 %
2679 25-09-2015 07:40:17 10.2 C 87 %
2680 25-09-2015 07:52:17 10.2 C 88 %
2681 25-09-2015 08:04:17 10 C 88 %
2682 25-09-2015 08:16:17 10.2 C 88 %
2683 25-09-2015 08:28:17 10.6 C 88 %
2684 25-09-2015 08:40:17 11.4 C 88 %
2685 25-09-2015 08:52:17 11.6 C 89 %
2686 25-09-2015 09:04:17 12.1 C 88 %
2687 25-09-2015 09:16:17 12.4 C 88 %
2688 25-09-2015 09:28:17 12.5 C 88 %
2689 25-09-2015 09:40:17 12.8 C 86 %
2690 25-09-2015 09:52:17 13.2 C 83 %
2691 25-09-2015 10:04:17 13 C 80 %
2692 25-09-2015 10:16:17 12.4 C 79 %
2693 25-09-2015 10:28:17 11.9 C 80 %
2694 25-09-2015 10:40:17 12.2 C 80 %
2695 25-09-2015 10:52:17 12.3 C 80 %
2696 25-09-2015 11:04:17 12.6 C 81 %
2697 25-09-2015 11:16:17 13 C 79 %
2698 25-09-2015 11:28:17 13.7 C 72 %
2699 25-09-2015 11:40:17 14 C 69 %
2700 25-09-2015 11:52:17 14.2 C 65 %
Sensor: Nr:Datum:Temp:Feuchte:
Aussen-T/F 2701 25-09-2015 12:04:17 14.1 C 68 %
2702 25-09-2015 12:16:17 14.1 C 71 %
2703 25-09-2015 12:28:17 14.2 C 68 %
2704 25-09-2015 12:40:17 14.2 C 70 %
2705 25-09-2015 12:52:18 14.4 C 69 %
2706 25-09-2015 13:04:17 15 C 60 %
2707 25-09-2015 13:16:18 16.5 C 50 %
2708 25-09-2015 13:28:18 16.8 C 50 %
2709 25-09-2015 13:40:17 16.5 C 53 %
2710 25-09-2015 13:52:18 16 C 56 %
2711 25-09-2015 14:04:18 15.5 C 62 %
2712 25-09-2015 14:16:17 15.3 C 58 %
2713 25-09-2015 14:28:17 15.6 C 61 %
2714 25-09-2015 14:40:17 17 C 55 %
2715 25-09-2015 14:52:17 17.9 C 42 %
2716 25-09-2015 15:04:17 17.6 C 41 %
2717 25-09-2015 15:16:17 17.6 C 42 %
2718 25-09-2015 15:28:17 17.6 C 41 %
2719 25-09-2015 15:40:17 17.9 C 41 %
2720 25-09-2015 15:52:17 18.3 C 40 %
2721 25-09-2015 16:04:17 18.1 C 39 %
2722 25-09-2015 16:16:17 17.8 C 41 %
2723 25-09-2015 16:28:17 17.7 C 44 %
2724 25-09-2015 16:40:17 17.6 C 47 %
2725 25-09-2015 16:52:17 17.4 C 55 %
Sensor: Nr:Datum:Temp:Feuchte:
Aussen-T/F 2726 25-09-2015 17:04:17 17.4 C 57 %
2727 25-09-2015 17:16:18 22.3 C 41 %
2728 25-09-2015 17:28:18 20.9 C 45 %
2729 25-09-2015 17:40:17 18.6 C 50 %
2730 25-09-2015 17:52:17 16.8 C 57 %
2731 25-09-2015 18:04:18 16.2 C 60 %
2732 25-09-2015 18:16:17 16.5 C 60 %
2733 25-09-2015 18:28:17 15.5 C 62 %
2734 25-09-2015 18:40:18 15.2 C 64 %
2735 25-09-2015 18:52:17 15.6 C 52 %
2736 25-09-2015 19:04:17 15.2 C 56 %
2737 25-09-2015 19:16:17 14.5 C 63 %
2738 25-09-2015 19:28:17 13.8 C 69 %
2739 25-09-2015 19:40:17 13.6 C 71 %
2740 25-09-2015 19:52:17 13.6 C 73 %
2741 25-09-2015 20:04:17 13.5 C 73 %
2742 25-09-2015 20:16:17 13.5 C 73 %
2743 25-09-2015 20:28:17 13.4 C 74 %
2744 25-09-2015 20:40:17 13.3 C 74 %
2745 25-09-2015 20:52:17 13.3 C 75 %
2746 25-09-2015 21:04:17 13.2 C 74 %
2747 25-09-2015 21:16:17 13.2 C 74 %
2748 25-09-2015 21:28:17 13.2 C 75 %
2749 25-09-2015 21:40:17 13.2 C 75 %
2750 25-09-2015 21:52:17 13.1 C 75 %
Sensor: Nr:Datum:Temp:Feuchte:
Aussen-T/F 2751 25-09-2015 22:04:17 13 C 75 %
2752 25-09-2015 22:16:17 13 C 75 %
2753 25-09-2015 22:28:17 13 C 75 %
2754 25-09-2015 22:40:17 13 C 75 %
2755 25-09-2015 22:52:17 12.8 C 76 %
2756 25-09-2015 23:04:17 12.7 C 76 %
2757 25-09-2015 23:16:17 12.5 C 77 %
2758 25-09-2015 23:28:17 12.7 C 77 %
2759 25-09-2015 23:40:17 12.5 C 77 %
2760 25-09-2015 23:52:17 12.5 C 78 %
2761 26-09-2015 00:04:17 12.4 C 78 %
2762 26-09-2015 00:16:17 12.4 C 78 %
2763 26-09-2015 00:28:17 12.3 C 78 %
2764 26-09-2015 00:40:17 12.2 C 78 %
2765 26-09-2015 00:52:17 12.1 C 78 %
2766 26-09-2015 01:04:17 12 C 78 %
2767 26-09-2015 01:16:17 11.9 C 78 %
2768 26-09-2015 01:28:17 11.8 C 78 %
2769 26-09-2015 01:40:17 11.8 C 79 %
2770 26-09-2015 01:52:17 11.9 C 79 %
2771 26-09-2015 02:04:17 11.8 C 79 %
2772 26-09-2015 02:16:17 11.7 C 79 %
2773 26-09-2015 02:28:18 11.6 C 79 %
2774 26-09-2015 02:40:17 11.6 C 79 %
2775 26-09-2015 02:52:17 11.4 C 79 %
Sensor: Nr:Datum:Temp:Feuchte:
Aussen-T/F 2776 26-09-2015 03:04:17 11.2 C 79 %
2777 26-09-2015 03:16:17 11.2 C 80 %
2778 26-09-2015 03:28:17 11.2 C 80 %
2779 26-09-2015 03:40:17 11.2 C 79 %
2780 26-09-2015 03:52:17 11.2 C 79 %
2781 26-09-2015 04:04:17 11 C 79 %
2782 26-09-2015 04:16:17 10.9 C 80 %
2783 26-09-2015 04:28:17 10.9 C 80 %
2784 26-09-2015 04:40:17 11 C 79 %
2785 26-09-2015 04:52:17 10.9 C 80 %
2786 26-09-2015 05:04:17 10.9 C 80 %
2787 26-09-2015 05:16:17 10.8 C 81 %
2788 26-09-2015 05:28:17 10.8 C 81 %
2789 26-09-2015 05:40:17 10.8 C 81 %
2790 26-09-2015 05:52:17 10.8 C 81 %
2791 26-09-2015 06:04:18 10.8 C 82 %
2792 26-09-2015 06:16:17 10.9 C 82 %
2793 26-09-2015 06:28:17 10.8 C 82 %
2794 26-09-2015 06:40:17 10.8 C 82 %
2795 26-09-2015 06:52:17 10.7 C 82 %
2796 26-09-2015 07:04:17 10.6 C 82 %
2797 26-09-2015 07:16:17 10.4 C 82 %
2798 26-09-2015 07:28:17 10.5 C 82 %
2799 26-09-2015 07:40:17 10.5 C 83 %
2800 26-09-2015 07:52:17 10.6 C 83 %
Sensor: Nr:Datum:Temp:Feuchte:
Aussen-T/F 2801 26-09-2015 08:04:17 10.7 C 83 %
2802 26-09-2015 08:16:17 10.9 C 84 %
2803 26-09-2015 08:28:17 11.3 C 83 %
2804 26-09-2015 08:40:17 11.3 C 82 %
2805 26-09-2015 08:52:17 11.6 C 81 %
2806 26-09-2015 09:04:18 11.8 C 78 %
2807 26-09-2015 09:16:17 12 C 74 %
2808 26-09-2015 09:28:17 12.2 C 73 %
2809 26-09-2015 09:40:17 12.3 C 71 %
2810 26-09-2015 09:52:17 12.6 C 70 %
2811 26-09-2015 10:04:17 12.7 C 70 %
2812 26-09-2015 10:16:17 13 C 67 %
2813 26-09-2015 10:28:17 13.4 C 66 %
2814 26-09-2015 10:40:17 14.1 C 64 %
2815 26-09-2015 10:52:17 14.3 C 61 %
2816 26-09-2015 11:04:17 14.1 C 61 %
2817 26-09-2015 11:16:17 14 C 60 %
2818 26-09-2015 11:28:17 14.2 C 61 %
2819 26-09-2015 11:40:17 14.1 C 60 %
2820 26-09-2015 11:52:17 14.4 C 60 %
2821 26-09-2015 12:04:17 14.6 C 59 %
2822 26-09-2015 12:16:17 14.8 C 59 %
2823 26-09-2015 12:28:17 15.1 C 57 %
2824 26-09-2015 12:40:17 15.5 C 57 %
2825 26-09-2015 12:52:17 15.8 C 55 %
Sensor: Nr:Datum:Temp:Feuchte:
Aussen-T/F 2826 26-09-2015 13:04:17 15.9 C 56 %
2827 26-09-2015 13:16:17 16.4 C 53 %
2828 26-09-2015 13:28:17 16.2 C 52 %
2829 26-09-2015 13:40:17 16.7 C 53 %
2830 26-09-2015 13:52:17 16.9 C 51 %
2831 26-09-2015 14:04:17 16.2 C 53 %
2832 26-09-2015 14:16:17 15.9 C 54 %
2833 26-09-2015 14:28:17 15.3 C 56 %
2834 26-09-2015 14:40:17 14.9 C 60 %
2835 26-09-2015 14:52:17 14.7 C 60 %
2836 26-09-2015 15:04:17 14 C 71 %
2837 26-09-2015 15:16:17 13.9 C 74 %
2838 26-09-2015 15:28:18 14 C 74 %
2839 26-09-2015 15:40:17 14.3 C 73 %
2840 26-09-2015 15:52:17 14.8 C 67 %
2841 26-09-2015 16:04:17 15.1 C 62 %
2842 26-09-2015 16:16:17 15.3 C 62 %
2843 26-09-2015 16:28:17 15.1 C 61 %
2844 26-09-2015 16:40:17 14.9 C 62 %
2845 26-09-2015 16:52:17 14.5 C 62 %
2846 26-09-2015 17:04:18 14.5 C 62 %
2847 26-09-2015 17:16:17 14.4 C 63 %
2848 26-09-2015 17:28:17 14.4 C 63 %
2849 26-09-2015 17:40:17 14.1 C 64 %
2850 26-09-2015 17:52:17 13.9 C 67 %
Sensor: Nr:Datum:Temp:Feuchte:
Aussen-T/F 2851 26-09-2015 18:04:17 13.8 C 71 %
2852 26-09-2015 18:16:17 13.7 C 72 %
2853 26-09-2015 18:28:17 13.5 C 73 %
2854 26-09-2015 18:40:17 13.4 C 74 %
2855 26-09-2015 18:52:17 13.4 C 74 %
2856 26-09-2015 19:04:17 13.1 C 74 %
2857 26-09-2015 19:16:17 12.8 C 74 %
2858 26-09-2015 19:28:17 12.5 C 75 %
2859 26-09-2015 19:40:17 12.4 C 75 %
2860 26-09-2015 19:52:17 12.4 C 76 %
2861 26-09-2015 20:04:17 12.3 C 76 %
2862 26-09-2015 20:16:17 12 C 76 %
2863 26-09-2015 20:28:17 12 C 76 %
2864 26-09-2015 20:40:17 11.3 C 78 %
2865 26-09-2015 20:52:17 11.2 C 79 %
2866 26-09-2015 21:04:17 11 C 79 %
2867 26-09-2015 21:16:17 11.2 C 81 %
2868 26-09-2015 21:28:17 11.4 C 81 %
2869 26-09-2015 21:40:18 11.5 C 81 %
2870 26-09-2015 21:52:17 11.4 C 80 %
2871 26-09-2015 22:04:17 11.3 C 79 %
2872 26-09-2015 22:16:17 11.2 C 79 %
2873 26-09-2015 22:28:17 11 C 78 %
2874 26-09-2015 22:40:17 10.8 C 79 %
2875 26-09-2015 22:52:17 10.8 C 80 %
Sensor: Nr:Datum:Temp:Feuchte:
Aussen-T/F 2876 26-09-2015 23:04:17 10.9 C 80 %
2877 26-09-2015 23:16:17 10.9 C 80 %
2878 26-09-2015 23:28:17 10.9 C 80 %
2879 26-09-2015 23:40:17 10.8 C 80 %
2880 26-09-2015 23:52:17 10.8 C 80 %
2881 27-09-2015 00:04:17 10.8 C 80 %
2882 27-09-2015 00:16:17 10.6 C 79 %
2883 27-09-2015 00:28:17 10.5 C 79 %
2884 27-09-2015 00:40:17 10.5 C 79 %
2885 27-09-2015 00:52:17 10.5 C 79 %
2886 27-09-2015 01:04:17 10.3 C 79 %
2887 27-09-2015 01:16:17 10.2 C 78 %
2888 27-09-2015 01:28:17 10 C 78 %
2889 27-09-2015 01:40:17 9.8 C 79 %
2890 27-09-2015 01:52:17 9.6 C 79 %
2891 27-09-2015 02:04:17 9.5 C 80 %
2892 27-09-2015 02:16:17 9.4 C 80 %
2893 27-09-2015 02:28:17 9.3 C 81 %
2894 27-09-2015 02:40:17 9.1 C 81 %
2895 27-09-2015 02:52:17 8.9 C 82 %
2896 27-09-2015 03:04:17 8.6 C 82 %
2897 27-09-2015 03:16:17 8.5 C 83 %
2898 27-09-2015 03:28:17 8.4 C 83 %
2899 27-09-2015 03:40:17 8.4 C 84 %
2900 27-09-2015 03:52:17 8.2 C 85 %
Sensor: Nr:Datum:Temp:Feuchte:
Aussen-T/F 2901 27-09-2015 04:04:17 8.1 C 85 %
2902 27-09-2015 04:16:18 7.9 C 87 %
2903 27-09-2015 04:28:18 7.8 C 87 %
2904 27-09-2015 04:40:17 7.5 C 87 %
2905 27-09-2015 04:52:17 7.5 C 87 %
2906 27-09-2015 05:04:17 7.3 C 87 %
2907 27-09-2015 05:16:17 7.2 C 88 %
2908 27-09-2015 05:28:17 7.2 C 88 %
2909 27-09-2015 05:40:18 7.1 C 88 %
2910 27-09-2015 05:52:17 7 C 88 %
2911 27-09-2015 06:04:17 6.9 C 89 %
2912 27-09-2015 06:16:17 7 C 89 %
2913 27-09-2015 06:28:17 6.7 C 90 %
2914 27-09-2015 06:40:17 6.6 C 90 %
2915 27-09-2015 06:52:17 6.5 C 90 %
2916 27-09-2015 07:04:17 6.5 C 90 %
2917 27-09-2015 07:16:17 6.5 C 90 %
2918 27-09-2015 07:28:17 6.4 C 90 %
2919 27-09-2015 07:40:17 6.4 C 91 %
2920 27-09-2015 07:52:17 6.4 C 91 %
2921 27-09-2015 08:04:17 6.4 C 91 %
2922 27-09-2015 08:16:17 6.5 C 91 %
2923 27-09-2015 08:28:17 6.5 C 91 %
2924 27-09-2015 08:40:17 6.9 C 91 %
2925 27-09-2015 08:52:16 7.2 C 91 %
Sensor: Nr:Datum:Temp:Feuchte:
Aussen-T/F 2926 27-09-2015 09:04:17 7.4 C 91 %
2927 27-09-2015 09:16:17 7.5 C 91 %
2928 27-09-2015 09:28:17 7.6 C 91 %
2929 27-09-2015 09:40:17 7.7 C 91 %
2930 27-09-2015 09:52:17 7.8 C 91 %
2931 27-09-2015 10:04:17 8 C 91 %
2932 27-09-2015 10:16:17 8.1 C 91 %
2933 27-09-2015 10:28:17 8.4 C 91 %
2934 27-09-2015 10:40:17 8.7 C 91 %
2935 27-09-2015 10:52:17 8.9 C 91 %
2936 27-09-2015 11:04:17 9.3 C 90 %
2937 27-09-2015 11:16:17 9.5 C 90 %
2938 27-09-2015 11:28:17 9.8 C 90 %
2939 27-09-2015 11:40:17 10.1 C 89 %
2940 27-09-2015 11:52:17 10.5 C 89 %
2941 27-09-2015 12:04:17 10.9 C 89 %
2942 27-09-2015 12:16:17 11.4 C 87 %
2943 27-09-2015 12:28:17 11.6 C 83 %
2944 27-09-2015 12:40:17 12.1 C 71 %
2945 27-09-2015 12:52:17 12.6 C 61 %
2946 27-09-2015 13:04:17 12.8 C 56 %
2947 27-09-2015 13:16:18 13.4 C 49 %
2948 27-09-2015 13:28:18 14.2 C 45 %
2949 27-09-2015 13:40:18 14.1 C 46 %
2950 27-09-2015 13:52:17 14.4 C 48 %
Sensor: Nr:Datum:Temp:Feuchte:
Aussen-T/F 2951 27-09-2015 14:04:17 15.3 C 44 %
2952 27-09-2015 14:16:17 16.3 C 41 %
2953 27-09-2015 14:28:17 15.7 C 41 %
2954 27-09-2015 14:40:17 15.6 C 43 %
2955 27-09-2015 14:52:17 16 C 41 %
2956 27-09-2015 15:04:17 16.6 C 40 %
2957 27-09-2015 15:16:17 17.3 C 38 %
2958 27-09-2015 15:28:17 16.8 C 39 %
2959 27-09-2015 15:40:17 16.4 C 40 %
2960 27-09-2015 15:52:17 16.8 C 38 %
2961 27-09-2015 16:04:17 16.9 C 40 %
2962 27-09-2015 16:16:17 16.2 C 42 %
2963 27-09-2015 16:28:17 16.9 C 44 %
2964 27-09-2015 16:40:17 20.9 C 32 %
2965 27-09-2015 16:52:17 22.2 C 29 %
2966 27-09-2015 17:04:17 22 C 30 %
2967 27-09-2015 17:16:18 22.1 C 25 %
2968 27-09-2015 17:28:18 22.2 C 30 %
2969 27-09-2015 17:40:17 23.8 C 27 %
2970 27-09-2015 17:52:17 21.7 C 31 %
2971 27-09-2015 18:04:17 21.4 C 33 %
2972 27-09-2015 18:16:17 21.7 C 33 %
2973 27-09-2015 18:28:17 20.9 C 36 %
2974 27-09-2015 18:40:17 18.1 C 40 %
2975 27-09-2015 18:52:17 14.7 C 53 %
Sensor: Nr:Datum:Temp:Feuchte:
Aussen-T/F 2976 27-09-2015 19:04:18 13.4 C 58 %
2977 27-09-2015 19:16:17 12.6 C 61 %
2978 27-09-2015 19:28:17 12.1 C 63 %
2979 27-09-2015 19:40:17 11.7 C 64 %
2980 27-09-2015 19:52:17 11.4 C 66 %
2981 27-09-2015 20:04:17 11.3 C 65 %
2982 27-09-2015 20:16:17 11.2 C 66 %
2983 27-09-2015 20:28:17 11.1 C 66 %
2984 27-09-2015 20:40:17 10.5 C 68 %
2985 27-09-2015 20:52:17 10.1 C 71 %
2986 27-09-2015 21:04:17 9.9 C 73 %
2987 27-09-2015 21:16:18 9.7 C 74 %
2988 27-09-2015 21:28:18 9.3 C 74 %
2989 27-09-2015 21:40:18 9.1 C 75 %
2990 27-09-2015 21:52:17 9 C 77 %
2991 27-09-2015 22:04:17 8.8 C 78 %
2992 27-09-2015 22:16:17 8.8 C 79 %
2993 27-09-2015 22:28:17 8.8 C 79 %
2994 27-09-2015 22:40:17 8.8 C 78 %
2995 27-09-2015 22:52:17 8.7 C 77 %
2996 27-09-2015 23:04:17 8.7 C 77 %
2997 27-09-2015 23:16:17 8.7 C 78 %
2998 27-09-2015 23:28:17 8.7 C 78 %
2999 27-09-2015 23:40:17 8.6 C 78 %
3000 27-09-2015 23:52:17 8.4 C 78 %
Sensor: Nr:Datum:Temp:Feuchte:
Aussen-T/F 3001 28-09-2015 00:04:17 8.5 C 78 %
3002 28-09-2015 00:16:17 8.4 C 78 %
3003 28-09-2015 00:28:17 8.4 C 78 %
3004 28-09-2015 00:40:17 8.4 C 79 %
3005 28-09-2015 00:52:17 8.4 C 79 %
3006 28-09-2015 01:04:18 8.4 C 79 %
3007 28-09-2015 01:16:17 7.9 C 80 %
3008 28-09-2015 01:28:17 7.8 C 80 %
3009 28-09-2015 01:40:17 7.6 C 81 %
3010 28-09-2015 01:52:17 7.4 C 81 %
3011 28-09-2015 02:04:17 7.2 C 81 %
3012 28-09-2015 02:16:18 6.9 C 83 %
3013 28-09-2015 02:28:18 6.9 C 84 %
3014 28-09-2015 02:40:17 6.8 C 84 %
3015 28-09-2015 02:52:17 6.7 C 84 %
3016 28-09-2015 03:04:17 6.6 C 85 %
3017 28-09-2015 03:16:17 6.6 C 86 %
3018 28-09-2015 03:28:17 6.5 C 86 %
3019 28-09-2015 03:40:17 6.4 C 87 %
3020 28-09-2015 03:52:17 6.3 C 87 %
3021 28-09-2015 04:04:17 6.2 C 87 %
3022 28-09-2015 04:16:17 6.1 C 88 %
3023 28-09-2015 04:28:17 6.2 C 88 %
3024 28-09-2015 04:40:17 6 C 88 %
3025 28-09-2015 04:52:17 5.9 C 89 %
Sensor: Nr:Datum:Temp:Feuchte:
Aussen-T/F 3026 28-09-2015 05:04:17 5.9 C 89 %
3027 28-09-2015 05:16:17 5.8 C 89 %
3028 28-09-2015 05:28:17 5.7 C 89 %
3029 28-09-2015 05:40:17 5.7 C 89 %
3030 28-09-2015 05:52:17 5.6 C 89 %
3031 28-09-2015 06:04:17 5.6 C 90 %
3032 28-09-2015 06:16:17 5.4 C 90 %
3033 28-09-2015 06:28:17 5.2 C 90 %
3034 28-09-2015 06:40:17 5.1 C 90 %
3035 28-09-2015 06:52:17 5.1 C 90 %
3036 28-09-2015 07:04:17 5 C 90 %
3037 28-09-2015 07:16:17 5 C 90 %
3038 28-09-2015 07:28:17 4.9 C 91 %
3039 28-09-2015 07:40:17 4.9 C 92 %
3040 28-09-2015 07:52:17 4.9 C 92 %
3041 28-09-2015 08:04:17 5 C 91 %
3042 28-09-2015 08:16:17 5.1 C 91 %
3043 28-09-2015 08:28:17 5.2 C 91 %
3044 28-09-2015 08:40:17 5.4 C 91 %
3045 28-09-2015 08:52:17 5.5 C 92 %
3046 28-09-2015 09:04:17 5.5 C 92 %
3047 28-09-2015 09:16:17 5.9 C 92 %
3048 28-09-2015 09:28:17 6.4 C 91 %
3049 28-09-2015 09:40:17 6.4 C 91 %
3050 28-09-2015 09:52:17 6.7 C 92 %
Sensor: Nr:Datum:Temp:Feuchte:
Aussen-T/F 3051 28-09-2015 10:04:17 6.7 C 92 %
3052 28-09-2015 10:16:17 6.7 C 92 %
3053 28-09-2015 10:28:17 7 C 91 %
3054 28-09-2015 10:40:17 7.6 C 92 %
3055 28-09-2015 10:52:17 8.1 C 91 %
3056 28-09-2015 11:04:17 8.5 C 91 %
3057 28-09-2015 11:16:17 8.8 C 91 %
3058 28-09-2015 11:28:17 9.1 C 91 %
3059 28-09-2015 11:40:17 9.5 C 91 %
3060 28-09-2015 11:52:17 9.7 C 91 %
3061 28-09-2015 12:04:17 10.1 C 89 %
3062 28-09-2015 12:16:17 10.4 C 89 %
3063 28-09-2015 12:28:17 11 C 88 %
3064 28-09-2015 12:40:17 12.4 C 84 %
3065 28-09-2015 12:52:17 13.1 C 60 %
3066 28-09-2015 13:04:17 13.9 C 49 %
3067 28-09-2015 13:16:18 14.2 C 46 %
3068 28-09-2015 13:28:18 14.4 C 45 %
3069 28-09-2015 13:40:17 14.5 C 44 %
3070 28-09-2015 13:52:17 14.9 C 43 %
3071 28-09-2015 14:04:17 14.9 C 44 %
3072 28-09-2015 14:16:17 15.6 C 40 %
3073 28-09-2015 14:28:17 15.3 C 41 %
3074 28-09-2015 14:40:17 15.6 C 40 %
3075 28-09-2015 14:52:17 16 C 37 %
Sensor: Nr:Datum:Temp:Feuchte:
Aussen-T/F 3076 28-09-2015 15:04:17 15.9 C 38 %
3077 28-09-2015 15:16:17 15.7 C 43 %
3078 28-09-2015 15:28:17 15.6 C 40 %
3079 28-09-2015 15:40:17 15.8 C 41 %
3080 28-09-2015 15:52:17 16 C 40 %
3081 28-09-2015 16:04:17 16.2 C 38 %
3082 28-09-2015 16:16:17 16.5 C 41 %
3083 28-09-2015 16:28:17 16.4 C 40 %
3084 28-09-2015 16:40:17 20.2 C 30 %
3085 28-09-2015 16:52:17 21.8 C 28 %
3086 28-09-2015 17:04:17 22.4 C 26 %
3087 28-09-2015 17:16:17 21.9 C 26 %
3088 28-09-2015 17:28:17 20.9 C 27 %
3089 28-09-2015 17:40:17 21.8 C 26 %
3090 28-09-2015 17:52:17 22.1 C 28 %
3091 28-09-2015 18:04:17 21 C 29 %
3092 28-09-2015 18:16:17 21.5 C 31 %
3093 28-09-2015 18:28:17 21 C 32 %
3094 28-09-2015 18:40:17 18.9 C 37 %
3095 28-09-2015 18:52:17 16.4 C 43 %
3096 28-09-2015 19:04:17 13.9 C 52 %
3097 28-09-2015 19:16:17 12.9 C 56 %
3098 28-09-2015 19:28:17 12 C 59 %
3099 28-09-2015 19:40:17 11.6 C 61 %
3100 28-09-2015 19:52:17 11.3 C 62 %
Sensor: Nr:Datum:Temp:Feuchte:
Aussen-T/F 3101 28-09-2015 20:04:17 11.1 C 63 %
3102 28-09-2015 20:16:17 11.1 C 64 %
3103 28-09-2015 20:28:17 10.9 C 65 %
3104 28-09-2015 20:40:17 10.3 C 66 %
3105 28-09-2015 20:52:17 10.1 C 66 %
3106 28-09-2015 21:04:17 9.7 C 69 %
3107 28-09-2015 21:16:18 9.5 C 70 %
3108 28-09-2015 21:28:18 9.3 C 71 %
3109 28-09-2015 21:40:18 9.1 C 71 %
3110 28-09-2015 21:52:17 8.9 C 73 %
3111 28-09-2015 22:04:17 8.9 C 74 %
3112 28-09-2015 22:16:17 8.8 C 74 %
3113 28-09-2015 22:28:17 8.7 C 75 %
3114 28-09-2015 22:40:17 8.5 C 75 %
3115 28-09-2015 22:52:17 8.2 C 76 %
3116 28-09-2015 23:04:18 8 C 76 %
3117 28-09-2015 23:16:18 7.8 C 78 %
3118 28-09-2015 23:28:18 7.8 C 78 %
3119 28-09-2015 23:40:17 7.8 C 78 %
3120 28-09-2015 23:52:17 7.2 C 81 %
3121 29-09-2015 00:04:17 7.1 C 81 %
3122 29-09-2015 00:16:17 7 C 82 %
3123 29-09-2015 00:28:17 7 C 82 %
3124 29-09-2015 00:40:17 7.2 C 83 %
3125 29-09-2015 00:52:17 7.2 C 84 %
Sensor: Nr:Datum:Temp:Feuchte:
Aussen-T/F 3126 29-09-2015 01:04:17 7.2 C 85 %
3127 29-09-2015 01:16:17 6.9 C 85 %
3128 29-09-2015 01:28:17 6.5 C 85 %
3129 29-09-2015 01:40:18 6.4 C 86 %
3130 29-09-2015 01:52:17 6.4 C 86 %
3131 29-09-2015 02:04:17 6.1 C 86 %
3132 29-09-2015 02:16:17 6 C 87 %
3133 29-09-2015 02:28:17 6 C 87 %
3134 29-09-2015 02:40:17 5.9 C 88 %
3135 29-09-2015 02:52:17 5.8 C 89 %
3136 29-09-2015 03:04:17 5.9 C 89 %
3137 29-09-2015 03:16:17 5.7 C 89 %
3138 29-09-2015 03:28:18 5.6 C 89 %
3139 29-09-2015 03:40:17 5.3 C 89 %
3140 29-09-2015 03:52:17 5.6 C 90 %
3141 29-09-2015 04:04:17 5.6 C 90 %
3142 29-09-2015 04:16:17 5.5 C 90 %
3143 29-09-2015 04:28:18 5.3 C 91 %
3144 29-09-2015 04:40:17 5.4 C 91 %
3145 29-09-2015 04:52:17 5.3 C 91 %
3146 29-09-2015 05:04:17 5.6 C 91 %
3147 29-09-2015 05:16:17 5.4 C 91 %
3148 29-09-2015 05:28:17 5.3 C 92 %
3149 29-09-2015 05:40:17 5.2 C 92 %
3150 29-09-2015 05:52:17 5.2 C 92 %
Sensor: Nr:Datum:Temp:Feuchte:
Aussen-T/F 3151 29-09-2015 06:04:17 5.2 C 92 %
3152 29-09-2015 06:16:17 5.3 C 92 %
3153 29-09-2015 06:28:17 5.2 C 92 %
3154 29-09-2015 06:40:17 5.2 C 92 %
3155 29-09-2015 06:52:17 5.3 C 93 %
3156 29-09-2015 07:04:17 5.5 C 93 %
3157 29-09-2015 07:16:17 5.4 C 93 %
3158 29-09-2015 07:28:17 5.2 C 93 %
3159 29-09-2015 07:40:17 5.2 C 93 %
3160 29-09-2015 07:52:17 5.4 C 93 %
3161 29-09-2015 08:04:17 5.4 C 93 %
3162 29-09-2015 08:16:17 5.7 C 93 %
3163 29-09-2015 08:28:17 5.9 C 93 %
3164 29-09-2015 08:40:17 6.1 C 93 %
3165 29-09-2015 08:52:17 6.2 C 93 %
3166 29-09-2015 09:04:17 6.5 C 93 %
3167 29-09-2015 09:16:17 6.5 C 93 %
3168 29-09-2015 09:28:17 6.8 C 93 %
3169 29-09-2015 09:40:17 6.9 C 93 %
3170 29-09-2015 09:52:17 7.1 C 93 %
3171 29-09-2015 10:04:17 7.4 C 93 %
3172 29-09-2015 10:16:17 7.8 C 93 %
3173 29-09-2015 10:28:17 7.9 C 93 %
3174 29-09-2015 10:40:17 8.3 C 92 %
3175 29-09-2015 10:52:17 8.6 C 92 %
Sensor: Nr:Datum:Temp:Feuchte:
Aussen-T/F 3176 29-09-2015 11:04:17 9.1 C 91 %
3177 29-09-2015 11:16:17 9.7 C 91 %
3178 29-09-2015 11:28:17 10.4 C 89 %
3179 29-09-2015 11:40:17 10.8 C 86 %
3180 29-09-2015 11:52:17 11.5 C 79 %
3181 29-09-2015 12:04:17 12 C 67 %
3182 29-09-2015 12:16:17 12.5 C 60 %
3183 29-09-2015 12:28:17 12.8 C 58 %
3184 29-09-2015 12:40:17 13.8 C 51 %
3185 29-09-2015 12:52:17 13.6 C 51 %
3186 29-09-2015 13:04:17 14.1 C 48 %
3187 29-09-2015 13:16:18 14.7 C 46 %
3188 29-09-2015 13:28:18 14.7 C 45 %
3189 29-09-2015 13:40:18 15.1 C 44 %
3190 29-09-2015 13:52:17 15.5 C 42 %
3191 29-09-2015 14:04:17 15.3 C 44 %
3192 29-09-2015 14:16:17 15.8 C 43 %
3193 29-09-2015 14:28:17 16.4 C 40 %
3194 29-09-2015 14:40:17 16.7 C 39 %
3195 29-09-2015 14:52:17 16.6 C 40 %
3196 29-09-2015 15:04:17 16 C 43 %
3197 29-09-2015 15:16:17 16.6 C 40 %
3198 29-09-2015 15:28:17 15.7 C 43 %
3199 29-09-2015 15:40:17 16.5 C 40 %
3200 29-09-2015 15:52:17 16.7 C 40 %
Sensor: Nr:Datum:Temp:Feuchte:
Aussen-T/F 3201 29-09-2015 16:04:17 17.1 C 37 %
3202 29-09-2015 16:16:17 17.4 C 37 %
3203 29-09-2015 16:28:17 17.5 C 37 %
3204 29-09-2015 16:40:17 16.8 C 39 %
3205 29-09-2015 16:52:17 17.1 C 40 %
3206 29-09-2015 17:04:17 21.3 C 32 %
3207 29-09-2015 17:16:17 18.5 C 35 %
3208 29-09-2015 17:28:17 19.6 C 35 %
3209 29-09-2015 17:40:17 20.7 C 31 %
3210 29-09-2015 17:52:17 16.9 C 40 %
3211 29-09-2015 18:04:17 18.5 C 40 %
3212 29-09-2015 18:16:17 19.7 C 36 %
3213 29-09-2015 18:28:18 19.6 C 36 %
3214 29-09-2015 18:40:17 18.7 C 36 %
3215 29-09-2015 18:52:17 15.6 C 43 %
3216 29-09-2015 19:04:17 14.2 C 48 %
3217 29-09-2015 19:16:17 13.2 C 51 %
3218 29-09-2015 19:28:17 12.3 C 55 %
3219 29-09-2015 19:40:17 11.5 C 60 %
3220 29-09-2015 19:52:17 11.1 C 61 %
3221 29-09-2015 20:04:17 10.8 C 63 %
3222 29-09-2015 20:16:17 10.8 C 63 %
3223 29-09-2015 20:28:17 10.5 C 64 %
3224 29-09-2015 20:40:17 10.5 C 63 %
3225 29-09-2015 20:52:17 10.6 C 63 %
Sensor: Nr:Datum:Temp:Feuchte:
Aussen-T/F 3226 29-09-2015 21:04:18 10.4 C 63 %
3227 29-09-2015 21:16:17 10.2 C 65 %
3228 29-09-2015 21:28:17 10 C 66 %
3229 29-09-2015 21:40:17 10 C 66 %
3230 29-09-2015 21:52:17 9.9 C 67 %
3231 29-09-2015 22:04:17 10.1 C 67 %
3232 29-09-2015 22:16:17 9.7 C 67 %
3233 29-09-2015 22:28:17 9.9 C 66 %
3234 29-09-2015 22:40:17 9.3 C 68 %
3235 29-09-2015 22:52:17 9.3 C 69 %
3236 29-09-2015 23:04:18 10 C 64 %
3237 29-09-2015 23:16:17 9.5 C 65 %
3238 29-09-2015 23:28:17 9.3 C 66 %
3239 29-09-2015 23:40:18 9.6 C 66 %
3240 29-09-2015 23:52:17 8.9 C 68 %
3241 30-09-2015 00:04:17 8.9 C 69 %
3242 30-09-2015 00:16:17 8.7 C 69 %
3243 30-09-2015 00:28:17 8.5 C 71 %
3244 30-09-2015 00:40:17 8.3 C 72 %
3245 30-09-2015 00:52:17 8 C 74 %
3246 30-09-2015 01:04:17 8.1 C 75 %
3247 30-09-2015 01:16:17 7.9 C 76 %
3248 30-09-2015 01:28:17 7.7 C 77 %
3249 30-09-2015 01:40:17 7.6 C 77 %
3250 30-09-2015 01:52:17 7.4 C 78 %
Sensor: Nr:Datum:Temp:Feuchte:
Aussen-T/F 3251 30-09-2015 02:04:17 7.5 C 78 %
3252 30-09-2015 02:16:17 7.4 C 79 %
3253 30-09-2015 02:28:17 7.4 C 79 %
3254 30-09-2015 02:40:17 7.2 C 79 %
3255 30-09-2015 02:52:17 7.1 C 80 %
3256 30-09-2015 03:04:17 7 C 80 %
3257 30-09-2015 03:16:17 6.9 C 82 %
3258 30-09-2015 03:28:17 6.9 C 82 %
3259 30-09-2015 03:40:17 6.9 C 83 %
3260 30-09-2015 03:52:17 6.9 C 83 %
3261 30-09-2015 04:04:17 6.8 C 83 %
3262 30-09-2015 04:16:17 6.8 C 83 %
3263 30-09-2015 04:28:17 6.7 C 83 %
3264 30-09-2015 04:40:17 6.6 C 84 %
3265 30-09-2015 04:52:17 6.6 C 84 %
3266 30-09-2015 05:04:17 6.6 C 84 %
3267 30-09-2015 05:16:17 6.4 C 85 %
3268 30-09-2015 05:28:17 6.3 C 85 %
3269 30-09-2015 05:40:17 6.1 C 86 %
3270 30-09-2015 05:52:17 6 C 86 %
3271 30-09-2015 06:04:17 6 C 86 %
3272 30-09-2015 06:16:17 6 C 87 %
3273 30-09-2015 06:28:17 5.9 C 88 %
3274 30-09-2015 06:40:17 5.9 C 88 %
3275 30-09-2015 06:52:17 5.7 C 88 %
Sensor: Nr:Datum:Temp:Feuchte:
Aussen-T/F 3276 30-09-2015 07:04:17 5.7 C 89 %
3277 30-09-2015 07:16:17 5.5 C 89 %
3278 30-09-2015 07:28:17 5.3 C 89 %
3279 30-09-2015 07:40:17 5.2 C 89 %
3280 30-09-2015 07:52:17 5 C 89 %
3281 30-09-2015 08:04:17 5.1 C 89 %
3282 30-09-2015 08:16:17 5.2 C 89 %
3283 30-09-2015 08:28:17 5.1 C 89 %
3284 30-09-2015 08:40:17 5.5 C 90 %
3285 30-09-2015 08:52:17 5.6 C 90 %
3286 30-09-2015 09:04:17 5.8 C 90 %
3287 30-09-2015 09:16:17 6 C 90 %
3288 30-09-2015 09:28:17 6.4 C 90 %
3289 30-09-2015 09:40:17 6.5 C 90 %
3290 30-09-2015 09:52:17 6.6 C 90 %
3291 30-09-2015 10:04:17 6.7 C 90 %
3292 30-09-2015 10:16:17 6.9 C 90 %
3293 30-09-2015 10:28:17 7.1 C 89 %
3294 30-09-2015 10:40:17 7.5 C 89 %
3295 30-09-2015 10:52:17 7.8 C 89 %
3296 30-09-2015 11:04:17 8.3 C 88 %
3297 30-09-2015 11:16:17 8.7 C 88 %
3298 30-09-2015 11:28:17 9.3 C 86 %
3299 30-09-2015 11:40:17 9.7 C 82 %
3300 30-09-2015 11:52:17 10.5 C 72 %
Sensor: Nr:Datum:Temp:Feuchte:
Aussen-T/F 3301 30-09-2015 12:04:17 11.6 C 57 %
3302 30-09-2015 12:16:17 11.8 C 54 %
3303 30-09-2015 12:28:17 11.8 C 54 %
3304 30-09-2015 12:40:17 12.7 C 49 %
3305 30-09-2015 12:52:17 12.8 C 46 %
3306 30-09-2015 13:04:17 13.5 C 45 %
3307 30-09-2015 13:16:17 13.7 C 45 %
3308 30-09-2015 13:28:17 14 C 43 %
3309 30-09-2015 13:40:17 13.9 C 45 %
3310 30-09-2015 13:52:17 14.1 C 43 %
3311 30-09-2015 14:04:17 14.1 C 44 %
3312 30-09-2015 14:16:17 14.3 C 44 %
3313 30-09-2015 14:28:17 14.8 C 41 %
3314 30-09-2015 14:40:17 15.1 C 40 %
3315 30-09-2015 14:52:17 15.3 C 39 %
3316 30-09-2015 15:04:17 15.6 C 38 %
3317 30-09-2015 15:16:17 15.5 C 39 %
3318 30-09-2015 15:28:17 15.7 C 39 %
3319 30-09-2015 15:40:17 15.7 C 39 %
3320 30-09-2015 15:52:17 15.8 C 38 %
3321 30-09-2015 16:04:17 15.9 C 37 %
3322 30-09-2015 16:16:17 15.7 C 39 %
3323 30-09-2015 16:28:17 14.9 C 42 %
3324 30-09-2015 16:40:17 18.7 C 33 %
3325 30-09-2015 16:52:17 19.2 C 30 %
Sensor: Nr:Datum:Temp:Feuchte:
Aussen-T/F 3326 30-09-2015 17:04:17 20.5 C 30 %
3327 30-09-2015 17:16:18 19.7 C 28 %
3328 30-09-2015 17:28:18 19.6 C 28 %
3329 30-09-2015 17:40:17 20.8 C 27 %
3330 30-09-2015 17:52:17 20 C 26 %
3331 30-09-2015 18:04:17 20.1 C 30 %
3332 30-09-2015 18:16:17 20.7 C 31 %
3333 30-09-2015 18:28:17 18.3 C 31 %
3334 30-09-2015 18:40:17 18.3 C 34 %
3335 30-09-2015 18:52:17 14.9 C 42 %
3336 30-09-2015 19:04:17 13.2 C 47 %
3337 30-09-2015 19:16:17 11.7 C 53 %
3338 30-09-2015 19:28:17 11.2 C 55 %
3339 30-09-2015 19:40:17 10.9 C 56 %
3340 30-09-2015 19:52:17 10.5 C 58 %
3341 30-09-2015 20:04:17 10.3 C 58 %
3342 30-09-2015 20:16:18 10.1 C 59 %
3343 30-09-2015 20:28:18 9.7 C 61 %
3344 30-09-2015 20:40:18 9.7 C 61 %
3345 30-09-2015 20:52:17 9.4 C 61 %
3346 30-09-2015 21:04:18 9.3 C 62 %
3347 30-09-2015 21:16:17 9.2 C 62 %
3348 30-09-2015 21:28:17 9 C 63 %
3349 30-09-2015 21:40:17 8.9 C 64 %
3350 30-09-2015 21:52:17 8.9 C 64 %
Sensor: Nr:Datum:Temp:Feuchte:
Aussen-T/F 3351 30-09-2015 22:04:17 8.8 C 64 %
3352 30-09-2015 22:16:17 8.6 C 65 %
3353 30-09-2015 22:28:17 8.6 C 64 %
3354 30-09-2015 22:40:17 8.4 C 64 %
3355 30-09-2015 22:52:17 8.4 C 64 %
3356 30-09-2015 23:04:18 8.3 C 65 %
3357 30-09-2015 23:16:17 8.1 C 65 %
3358 30-09-2015 23:28:17 8 C 66 %
3359 30-09-2015 23:40:17 8 C 66 %
3360 30-09-2015 23:52:17 7.9 C 67 %
3361 01-10-2015 00:04:17 7.6 C 68 %
3362 01-10-2015 00:16:17 7.8 C 67 %
3363 01-10-2015 00:28:17 7.7 C 68 %
3364 01-10-2015 00:40:17 7.6 C 67 %
3365 01-10-2015 00:52:17 7.3 C 68 %
3366 01-10-2015 01:04:17 7.1 C 69 %
3367 01-10-2015 01:16:17 6.9 C 71 %
3368 01-10-2015 01:28:17 6.8 C 71 %
3369 01-10-2015 01:40:17 6.7 C 72 %
3370 01-10-2015 01:52:17 6.6 C 72 %
3371 01-10-2015 02:04:17 6.4 C 72 %
3372 01-10-2015 02:16:17 6.4 C 73 %
3373 01-10-2015 02:28:17 6.2 C 73 %
3374 01-10-2015 02:40:17 6.2 C 73 %
3375 01-10-2015 02:52:17 6.2 C 73 %
Sensor: Nr:Datum:Temp:Feuchte:
Aussen-T/F 3376 01-10-2015 03:04:17 6.5 C 73 %
3377 01-10-2015 03:16:17 6.4 C 72 %
3378 01-10-2015 03:28:17 6.3 C 72 %
3379 01-10-2015 03:40:17 6.2 C 72 %
3380 01-10-2015 03:52:17 6 C 73 %
3381 01-10-2015 04:04:17 5.9 C 75 %
3382 01-10-2015 04:16:17 5.4 C 76 %
3383 01-10-2015 04:28:17 5.2 C 76 %
3384 01-10-2015 04:40:17 5.3 C 77 %
3385 01-10-2015 04:52:17 5.2 C 78 %
3386 01-10-2015 05:04:17 5 C 78 %
3387 01-10-2015 05:16:17 4.6 C 80 %
3388 01-10-2015 05:28:17 4.5 C 81 %
3389 01-10-2015 05:40:17 4.5 C 82 %
3390 01-10-2015 05:52:17 4.5 C 82 %
3391 01-10-2015 06:04:17 4.5 C 83 %
3392 01-10-2015 06:16:17 4.6 C 83 %
3393 01-10-2015 06:28:17 5.1 C 83 %
3394 01-10-2015 06:40:17 5 C 83 %
3395 01-10-2015 06:52:17 5.1 C 82 %
3396 01-10-2015 07:04:17 5.2 C 82 %
3397 01-10-2015 07:16:17 4.9 C 82 %
3398 01-10-2015 07:28:17 4.8 C 81 %
3399 01-10-2015 07:40:17 4.7 C 82 %
3400 01-10-2015 07:52:17 4.6 C 82 %
Sensor: Nr:Datum:Temp:Feuchte:
Aussen-T/F 3401 01-10-2015 08:04:17 4.4 C 83 %
3402 01-10-2015 08:16:17 4.4 C 83 %
3403 01-10-2015 08:28:17 4.5 C 84 %
3404 01-10-2015 08:40:17 4.6 C 84 %
3405 01-10-2015 08:52:17 4.9 C 85 %
3406 01-10-2015 09:04:17 5.1 C 84 %
3407 01-10-2015 09:16:17 5.2 C 84 %
3408 01-10-2015 09:28:17 5.4 C 84 %
3409 01-10-2015 09:40:17 5.5 C 83 %
3410 01-10-2015 09:52:17 5.6 C 83 %
3411 01-10-2015 10:04:17 5.9 C 83 %
3412 01-10-2015 10:16:17 6.1 C 82 %
3413 01-10-2015 10:28:17 6.4 C 81 %
3414 01-10-2015 10:40:17 6.9 C 79 %
3415 01-10-2015 10:52:17 8 C 71 %
3416 01-10-2015 11:04:17 8.5 C 62 %
3417 01-10-2015 11:16:17 9.2 C 53 %
3418 01-10-2015 11:28:17 9.3 C 53 %
3419 01-10-2015 11:40:17 9.6 C 54 %
3420 01-10-2015 11:52:17 9.6 C 55 %
3421 01-10-2015 12:04:17 9.9 C 53 %
3422 01-10-2015 12:16:17 10.2 C 52 %
3423 01-10-2015 12:28:17 10.2 C 51 %
3424 01-10-2015 12:40:17 10.9 C 49 %
3425 01-10-2015 12:52:17 10.8 C 48 %
Sensor: Nr:Datum:Temp:Feuchte:
Aussen-T/F 3426 01-10-2015 13:04:17 11.4 C 45 %
3427 01-10-2015 13:16:17 11.6 C 45 %
3428 01-10-2015 13:28:17 12.7 C 40 %
3429 01-10-2015 13:40:18 13 C 38 %
3430 01-10-2015 13:52:17 12.9 C 40 %
3431 01-10-2015 14:04:17 13.3 C 37 %
3432 01-10-2015 14:16:17 13.9 C 36 %
3433 01-10-2015 14:28:17 13.8 C 36 %
3434 01-10-2015 14:40:17 13.5 C 37 %
3435 01-10-2015 14:52:17 13.7 C 38 %
3436 01-10-2015 15:04:17 14.2 C 36 %
3437 01-10-2015 15:16:17 14.3 C 37 %
3438 01-10-2015 15:28:17 14.5 C 36 %
3439 01-10-2015 15:40:17 14.5 C 38 %
3440 01-10-2015 15:52:17 14.5 C 40 %
3441 01-10-2015 16:04:17 15 C 35 %
3442 01-10-2015 16:16:17 15.1 C 34 %
3443 01-10-2015 16:28:17 15.4 C 35 %
3444 01-10-2015 16:40:17 18.4 C 29 %
3445 01-10-2015 16:52:17 19 C 29 %
3446 01-10-2015 17:04:17 19.2 C 25 %
3447 01-10-2015 17:16:17 21.3 C 26 %
3448 01-10-2015 17:28:17 20.5 C 28 %
3449 01-10-2015 17:40:18 20.8 C 27 %
3450 01-10-2015 17:52:17 21 C 28 %
Sensor: Nr:Datum:Temp:Feuchte:
Aussen-T/F 3451 01-10-2015 18:04:17 20 C 28 %
3452 01-10-2015 18:16:17 20.4 C 30 %
3453 01-10-2015 18:28:17 18.3 C 34 %
3454 01-10-2015 18:40:17 16.8 C 37 %
3455 01-10-2015 18:52:17 14.2 C 44 %
3456 01-10-2015 19:04:17 12.2 C 49 %
3457 01-10-2015 19:16:17 11.3 C 53 %
3458 01-10-2015 19:28:17 10.8 C 55 %
3459 01-10-2015 19:40:17 10.4 C 56 %
3460 01-10-2015 19:52:17 10.2 C 55 %
3461 01-10-2015 20:04:17 9.9 C 57 %
3462 01-10-2015 20:16:17 9.6 C 59 %
3463 01-10-2015 20:28:17 9.3 C 59 %
3464 01-10-2015 20:40:17 8.9 C 62 %
3465 01-10-2015 20:52:17 8.7 C 62 %
3466 01-10-2015 21:04:17 8.8 C 63 %
3467 01-10-2015 21:16:18 8.8 C 62 %
3468 01-10-2015 21:28:18 8.7 C 62 %
3469 01-10-2015 21:40:17 8.6 C 61 %
3470 01-10-2015 21:52:17 8.8 C 60 %
3471 01-10-2015 22:04:17 8.7 C 61 %
3472 01-10-2015 22:16:17 8.8 C 60 %
3473 01-10-2015 22:28:17 8.5 C 61 %
3474 01-10-2015 22:40:17 8.5 C 61 %
3475 01-10-2015 22:52:17 8.3 C 61 %
Sensor: Nr:Datum:Temp:Feuchte:
Aussen-T/F 3476 01-10-2015 23:04:17 8.1 C 62 %
3477 01-10-2015 23:16:17 7.5 C 65 %
3478 01-10-2015 23:28:17 7.1 C 67 %
3479 01-10-2015 23:40:17 6.8 C 70 %
3480 01-10-2015 23:52:17 6.8 C 71 %
Sensor: Nr:Datum:Temp:Feuchte:
G-T/H 1 03-09-2015 00:02:17 18.3 C 69 %
2 03-09-2015 00:14:18 18.3 C 69 %
3 03-09-2015 00:26:17 18.3 C 69 %
4 03-09-2015 00:38:17 18.3 C 69 %
5 03-09-2015 00:50:17 18.3 C 69 %
6 03-09-2015 01:02:17 18.3 C 69 %
7 03-09-2015 01:14:17 18.3 C 68 %
8 03-09-2015 01:26:17 18.2 C 68 %
9 03-09-2015 01:38:17 18.2 C 68 %
10 03-09-2015 01:50:17 18.2 C 68 %
11 03-09-2015 02:02:17 18.1 C 68 %
12 03-09-2015 02:14:17 18.2 C 68 %
13 03-09-2015 02:26:17 18.1 C 68 %
14 03-09-2015 02:38:17 18.1 C 68 %
15 03-09-2015 02:50:17 18.1 C 68 %
16 03-09-2015 03:02:17 18 C 67 %
17 03-09-2015 03:14:17 18 C 67 %
18 03-09-2015 03:26:17 18 C 67 %
19 03-09-2015 03:38:17 17.9 C 68 %
20 03-09-2015 03:50:17 17.9 C 68 %
21 03-09-2015 04:02:17 17.9 C 68 %
22 03-09-2015 04:14:17 17.9 C 68 %
23 03-09-2015 04:26:17 17.9 C 68 %
24 03-09-2015 04:38:17 17.8 C 68 %
25 03-09-2015 04:50:17 17.8 C 68 %
Sensor: Nr:Datum:Temp:Feuchte:
G-T/H 26 03-09-2015 05:02:17 17.8 C 68 %
27 03-09-2015 05:14:17 17.8 C 68 %
28 03-09-2015 05:26:17 17.7 C 68 %
29 03-09-2015 05:38:17 17.7 C 68 %
30 03-09-2015 05:50:17 17.7 C 68 %
31 03-09-2015 06:02:17 17.7 C 68 %
32 03-09-2015 06:14:17 17.6 C 68 %
33 03-09-2015 06:26:17 17.5 C 67 %
34 03-09-2015 06:38:17 17.4 C 67 %
35 03-09-2015 06:50:17 17.3 C 66 %
36 03-09-2015 07:02:17 17.2 C 66 %
37 03-09-2015 07:14:17 17.2 C 66 %
38 03-09-2015 07:26:17 17.2 C 66 %
39 03-09-2015 07:38:17 17.2 C 66 %
40 03-09-2015 07:50:17 16.9 C 66 %
41 03-09-2015 08:02:17 17.1 C 65 %
42 03-09-2015 08:14:18 17.1 C 65 %
43 03-09-2015 08:26:17 17.1 C 66 %
44 03-09-2015 08:38:17 17.1 C 66 %
45 03-09-2015 08:50:17 17.2 C 66 %
46 03-09-2015 09:02:17 17.2 C 66 %
47 03-09-2015 09:14:17 17.1 C 66 %
48 03-09-2015 09:26:17 17.1 C 67 %
49 03-09-2015 09:38:17 17.1 C 67 %
50 03-09-2015 09:50:17 17.1 C 67 %
Sensor: Nr:Datum:Temp:Feuchte:
G-T/H 51 03-09-2015 10:02:17 17.1 C 67 %
52 03-09-2015 10:14:17 17.1 C 67 %
53 03-09-2015 10:26:17 17.1 C 67 %
54 03-09-2015 10:38:17 17.1 C 67 %
55 03-09-2015 10:50:17 17.1 C 67 %
56 03-09-2015 11:02:17 17.1 C 68 %
57 03-09-2015 11:14:17 17 C 68 %
58 03-09-2015 11:26:17 17 C 68 %
59 03-09-2015 11:38:17 17 C 68 %
60 03-09-2015 11:50:17 17 C 68 %
61 03-09-2015 12:02:17 17.1 C 68 %
62 03-09-2015 12:14:17 17.1 C 68 %
63 03-09-2015 12:26:17 17 C 68 %
64 03-09-2015 12:38:17 17.1 C 68 %
65 03-09-2015 12:50:17 17.1 C 68 %
66 03-09-2015 13:02:17 17.1 C 68 %
67 03-09-2015 13:14:17 17.1 C 68 %
68 03-09-2015 13:26:17 17.1 C 68 %
69 03-09-2015 13:38:17 17.1 C 68 %
70 03-09-2015 13:50:17 17.1 C 68 %
71 03-09-2015 14:02:17 17.1 C 69 %
72 03-09-2015 14:14:17 17.2 C 69 %
73 03-09-2015 14:26:17 17.1 C 69 %
74 03-09-2015 14:38:17 17.1 C 69 %
75 03-09-2015 14:50:17 17.1 C 69 %
Sensor: Nr:Datum:Temp:Feuchte:
G-T/H 76 03-09-2015 15:02:17 17.2 C 69 %
77 03-09-2015 15:14:17 17.4 C 69 %
78 03-09-2015 15:26:17 17.7 C 69 %
79 03-09-2015 15:38:17 17.8 C 69 %
80 03-09-2015 15:50:17 17.8 C 69 %
81 03-09-2015 16:02:17 17.9 C 69 %
82 03-09-2015 16:14:17 17.8 C 69 %
83 03-09-2015 16:26:17 17.9 C 69 %
84 03-09-2015 16:38:17 17.8 C 68 %
85 03-09-2015 16:50:17 17.8 C 67 %
86 03-09-2015 17:02:17 17.8 C 67 %
87 03-09-2015 17:14:17 17.8 C 67 %
88 03-09-2015 17:26:17 17.7 C 66 %
89 03-09-2015 17:38:17 17.7 C 66 %
90 03-09-2015 17:50:17 17.7 C 66 %
91 03-09-2015 18:02:17 17.8 C 66 %
92 03-09-2015 18:14:17 17.8 C 66 %
93 03-09-2015 18:26:17 17.7 C 66 %
94 03-09-2015 18:38:17 17.7 C 65 %
95 03-09-2015 18:50:17 17.7 C 65 %
96 03-09-2015 19:02:17 17.7 C 65 %
97 03-09-2015 19:14:17 17.7 C 65 %
98 03-09-2015 19:26:17 17.7 C 66 %
99 03-09-2015 19:38:17 17.7 C 66 %
100 03-09-2015 19:50:17 17.7 C 66 %
Sensor: Nr:Datum:Temp:Feuchte:
G-T/H 101 03-09-2015 20:02:17 17.6 C 66 %
102 03-09-2015 20:14:17 17.7 C 66 %
103 03-09-2015 20:26:17 17.6 C 66 %
104 03-09-2015 20:38:17 17.5 C 65 %
105 03-09-2015 20:50:17 17.5 C 65 %
106 03-09-2015 21:02:17 17.5 C 66 %
107 03-09-2015 21:14:17 17.5 C 66 %
108 03-09-2015 21:26:17 17.5 C 66 %
109 03-09-2015 21:38:17 17.5 C 66 %
110 03-09-2015 21:50:17 17.5 C 66 %
111 03-09-2015 22:02:17 17.5 C 66 %
112 03-09-2015 22:14:17 17.5 C 66 %
113 03-09-2015 22:26:17 17.5 C 66 %
114 03-09-2015 22:38:17 17.5 C 66 %
115 03-09-2015 22:50:17 17.5 C 67 %
116 03-09-2015 23:02:17 17.4 C 67 %
117 03-09-2015 23:14:17 17.4 C 67 %
118 03-09-2015 23:26:17 17.4 C 67 %
119 03-09-2015 23:38:17 17.4 C 67 %
120 03-09-2015 23:50:17 17.4 C 67 %
121 04-09-2015 00:02:17 17.3 C 67 %
122 04-09-2015 00:14:17 17.3 C 67 %
123 04-09-2015 00:26:17 17.3 C 67 %
124 04-09-2015 00:38:17 17.3 C 67 %
125 04-09-2015 00:50:17 17.2 C 67 %
Sensor: Nr:Datum:Temp:Feuchte:
G-T/H 126 04-09-2015 01:02:17 17.2 C 67 %
127 04-09-2015 01:14:17 17.2 C 67 %
128 04-09-2015 01:26:16 17.2 C 67 %
129 04-09-2015 01:38:17 17.2 C 67 %
130 04-09-2015 01:50:17 17.2 C 67 %
131 04-09-2015 02:02:17 17.2 C 67 %
132 04-09-2015 02:14:17 17.1 C 67 %
133 04-09-2015 02:26:17 17.1 C 67 %
134 04-09-2015 02:38:17 17.1 C 67 %
135 04-09-2015 02:50:17 17.1 C 67 %
136 04-09-2015 03:02:17 17 C 67 %
137 04-09-2015 03:14:17 17 C 67 %
138 04-09-2015 03:26:17 17.1 C 67 %
139 04-09-2015 03:38:17 17 C 67 %
140 04-09-2015 03:50:16 17 C 67 %
141 04-09-2015 04:02:17 17 C 67 %
142 04-09-2015 04:14:17 17 C 67 %
143 04-09-2015 04:26:17 16.9 C 68 %
144 04-09-2015 04:38:17 16.9 C 68 %
145 04-09-2015 04:50:17 16.9 C 68 %
146 04-09-2015 05:02:17 16.9 C 68 %
147 04-09-2015 05:14:17 16.9 C 68 %
148 04-09-2015 05:26:17 16.8 C 68 %
149 04-09-2015 05:38:17 16.8 C 68 %
150 04-09-2015 05:50:17 16.8 C 68 %
Sensor: Nr:Datum:Temp:Feuchte:
G-T/H 151 04-09-2015 06:02:17 16.8 C 68 %
152 04-09-2015 06:14:17 16.8 C 68 %
153 04-09-2015 06:26:17 16.7 C 68 %
154 04-09-2015 06:38:17 16.6 C 68 %
155 04-09-2015 06:50:17 16.5 C 67 %
156 04-09-2015 07:02:17 16.6 C 67 %
157 04-09-2015 07:14:17 16.6 C 67 %
158 04-09-2015 07:26:17 16.6 C 68 %
159 04-09-2015 07:38:17 16.6 C 68 %
160 04-09-2015 07:50:17 16.5 C 68 %
161 04-09-2015 08:02:17 16.5 C 68 %
162 04-09-2015 08:14:17 16.4 C 67 %
163 04-09-2015 08:26:17 16.4 C 68 %
164 04-09-2015 08:38:17 16.4 C 68 %
165 04-09-2015 08:50:17 16.4 C 68 %
166 04-09-2015 09:02:17 16.4 C 68 %
167 04-09-2015 09:14:17 16.4 C 68 %
168 04-09-2015 09:26:17 16.4 C 68 %
169 04-09-2015 09:38:17 16.4 C 68 %
170 04-09-2015 09:50:17 16.4 C 68 %
171 04-09-2015 10:02:17 16.4 C 68 %
172 04-09-2015 10:14:17 16.4 C 69 %
173 04-09-2015 10:26:17 16.4 C 69 %
174 04-09-2015 10:38:17 16.4 C 69 %
175 04-09-2015 10:50:17 16.3 C 69 %
Sensor: Nr:Datum:Temp:Feuchte:
G-T/H 176 04-09-2015 11:02:17 16.3 C 69 %
177 04-09-2015 11:14:17 16.4 C 69 %
178 04-09-2015 11:26:17 16.4 C 69 %
179 04-09-2015 11:38:17 16.4 C 69 %
180 04-09-2015 11:50:17 16.4 C 69 %
181 04-09-2015 12:02:17 16.4 C 69 %
182 04-09-2015 12:14:17 16.4 C 69 %
183 04-09-2015 12:26:17 16.4 C 69 %
184 04-09-2015 12:38:17 16.4 C 69 %
185 04-09-2015 12:50:17 16.4 C 69 %
186 04-09-2015 13:02:17 16.4 C 69 %
187 04-09-2015 13:14:17 16.4 C 69 %
188 04-09-2015 13:26:17 16.5 C 69 %
189 04-09-2015 13:38:17 16.5 C 69 %
190 04-09-2015 13:50:17 16.6 C 68 %
191 04-09-2015 14:02:17 16.8 C 67 %
192 04-09-2015 14:14:17 17 C 65 %
193 04-09-2015 14:26:17 17.1 C 64 %
194 04-09-2015 14:38:17 17.1 C 64 %
195 04-09-2015 14:50:17 17.1 C 64 %
196 04-09-2015 15:02:17 17.1 C 64 %
197 04-09-2015 15:14:18 17.1 C 64 %
198 04-09-2015 15:26:17 17.1 C 63 %
199 04-09-2015 15:38:17 17.1 C 62 %
200 04-09-2015 15:50:17 17.1 C 60 %
Sensor: Nr:Datum:Temp:Feuchte:
G-T/H 201 04-09-2015 16:02:17 17.2 C 59 %
202 04-09-2015 16:14:17 17.2 C 58 %
203 04-09-2015 16:26:17 17.2 C 58 %
204 04-09-2015 16:38:17 17.3 C 57 %
205 04-09-2015 16:50:17 17.3 C 56 %
206 04-09-2015 17:02:17 17.4 C 56 %
207 04-09-2015 17:14:17 17.3 C 56 %
208 04-09-2015 17:26:17 17.3 C 56 %
209 04-09-2015 17:38:17 17.3 C 56 %
210 04-09-2015 17:50:17 17.2 C 56 %
211 04-09-2015 18:02:17 17.2 C 55 %
212 04-09-2015 18:14:17 17.2 C 56 %
213 04-09-2015 18:26:17 17.2 C 56 %
214 04-09-2015 18:38:17 17.1 C 56 %
215 04-09-2015 18:50:17 17 C 56 %
216 04-09-2015 19:02:17 17 C 56 %
217 04-09-2015 19:14:17 17 C 56 %
218 04-09-2015 19:26:17 17 C 56 %
219 04-09-2015 19:38:17 17 C 56 %
220 04-09-2015 19:50:17 16.9 C 57 %
221 04-09-2015 20:02:17 16.6 C 57 %
222 04-09-2015 20:14:17 16.4 C 57 %
223 04-09-2015 20:26:17 16.2 C 58 %
224 04-09-2015 20:38:17 15.9 C 59 %
225 04-09-2015 20:50:17 15.8 C 59 %
Sensor: Nr:Datum:Temp:Feuchte:
G-T/H 226 04-09-2015 21:02:17 15.6 C 60 %
227 04-09-2015 21:14:17 15.5 C 60 %
228 04-09-2015 21:26:17 15.5 C 59 %
229 04-09-2015 21:38:17 15.6 C 59 %
230 04-09-2015 21:50:17 15.7 C 58 %
231 04-09-2015 22:02:17 15.6 C 58 %
232 04-09-2015 22:14:17 15.6 C 58 %
233 04-09-2015 22:26:17 15.6 C 58 %
234 04-09-2015 22:38:17 15.4 C 58 %
235 04-09-2015 22:50:17 15.3 C 58 %
236 04-09-2015 23:02:17 15.2 C 58 %
237 04-09-2015 23:14:17 15 C 58 %
238 04-09-2015 23:26:17 14.9 C 59 %
239 04-09-2015 23:38:17 14.7 C 60 %
240 04-09-2015 23:50:17 14.7 C 60 %
241 05-09-2015 00:02:17 14.4 C 60 %
242 05-09-2015 00:14:17 14.3 C 60 %
243 05-09-2015 00:26:17 14.3 C 60 %
244 05-09-2015 00:38:17 14.3 C 60 %
245 05-09-2015 00:50:17 14.2 C 60 %
246 05-09-2015 01:02:17 14 C 61 %
247 05-09-2015 01:14:17 13.9 C 62 %
248 05-09-2015 01:26:17 13.7 C 62 %
249 05-09-2015 01:38:17 13.6 C 62 %
250 05-09-2015 01:50:17 13.5 C 63 %
Sensor: Nr:Datum:Temp:Feuchte:
G-T/H 251 05-09-2015 02:02:17 13.5 C 63 %
252 05-09-2015 02:14:17 13.5 C 63 %
253 05-09-2015 02:26:17 13.6 C 63 %
254 05-09-2015 02:38:17 13.3 C 63 %
255 05-09-2015 02:50:17 13.2 C 64 %
256 05-09-2015 03:02:17 13.2 C 64 %
257 05-09-2015 03:14:17 13.2 C 64 %
258 05-09-2015 03:26:16 13.2 C 64 %
259 05-09-2015 03:38:17 13.1 C 64 %
260 05-09-2015 03:50:17 13 C 65 %
261 05-09-2015 04:02:17 13 C 65 %
262 05-09-2015 04:14:17 13 C 65 %
263 05-09-2015 04:26:17 13.1 C 66 %
264 05-09-2015 04:38:17 13.2 C 66 %
265 05-09-2015 04:50:17 13.4 C 66 %
266 05-09-2015 05:02:17 13.4 C 66 %
267 05-09-2015 05:14:17 13.5 C 66 %
268 05-09-2015 05:26:17 13.5 C 66 %
269 05-09-2015 05:38:17 13.6 C 66 %
270 05-09-2015 05:50:17 13.7 C 65 %
271 05-09-2015 06:02:17 13.7 C 65 %
272 05-09-2015 06:14:18 13.8 C 65 %
273 05-09-2015 06:26:16 13.8 C 65 %
274 05-09-2015 06:38:17 13.8 C 65 %
275 05-09-2015 06:50:17 13.8 C 65 %
Sensor: Nr:Datum:Temp:Feuchte:
G-T/H 276 05-09-2015 07:02:17 13.8 C 65 %
277 05-09-2015 07:14:17 13.8 C 66 %
278 05-09-2015 07:26:17 13.8 C 66 %
279 05-09-2015 07:38:17 13.7 C 66 %
280 05-09-2015 07:50:17 13.8 C 66 %
281 05-09-2015 08:02:18 13.8 C 66 %
282 05-09-2015 08:14:18 13.9 C 66 %
283 05-09-2015 08:26:17 14 C 66 %
284 05-09-2015 08:38:17 14.1 C 66 %
285 05-09-2015 08:50:17 14.2 C 66 %
286 05-09-2015 09:02:17 14.2 C 66 %
287 05-09-2015 09:14:17 14.3 C 66 %
288 05-09-2015 09:26:17 14.4 C 66 %
289 05-09-2015 09:38:17 14.4 C 67 %
290 05-09-2015 09:50:17 14.5 C 67 %
291 05-09-2015 10:02:17 14.5 C 67 %
292 05-09-2015 10:14:17 14.6 C 67 %
293 05-09-2015 10:26:17 14.5 C 68 %
294 05-09-2015 10:38:17 14.5 C 69 %
295 05-09-2015 10:50:17 14.7 C 69 %
296 05-09-2015 11:02:17 14.8 C 70 %
297 05-09-2015 11:14:17 14.8 C 70 %
298 05-09-2015 11:26:17 14.6 C 71 %
299 05-09-2015 11:38:17 14.7 C 72 %
300 05-09-2015 11:50:17 14.7 C 72 %
Sensor: Nr:Datum:Temp:Feuchte:
G-T/H 301 05-09-2015 12:02:17 14.9 C 73 %
302 05-09-2015 12:14:17 15 C 72 %
303 05-09-2015 12:26:17 15.2 C 72 %
304 05-09-2015 12:38:17 15.2 C 73 %
305 05-09-2015 12:50:17 15.2 C 73 %
306 05-09-2015 13:02:17 15.2 C 73 %
307 05-09-2015 13:14:17 15.4 C 73 %
308 05-09-2015 13:26:17 15.4 C 73 %
309 05-09-2015 13:38:17 15.4 C 74 %
310 05-09-2015 13:50:17 15.5 C 74 %
311 05-09-2015 14:02:17 15.6 C 74 %
312 05-09-2015 14:14:17 15.6 C 74 %
313 05-09-2015 14:26:17 15.7 C 74 %
314 05-09-2015 14:38:17 15.7 C 73 %
315 05-09-2015 14:50:17 15.8 C 73 %
316 05-09-2015 15:02:17 15.8 C 73 %
317 05-09-2015 15:14:17 15.8 C 72 %
318 05-09-2015 15:26:17 15.9 C 71 %
319 05-09-2015 15:38:17 16 C 69 %
320 05-09-2015 15:50:17 16 C 68 %
321 05-09-2015 16:02:17 16 C 67 %
322 05-09-2015 16:14:17 16.1 C 65 %
323 05-09-2015 16:26:17 16.2 C 65 %
324 05-09-2015 16:38:17 16 C 65 %
325 05-09-2015 16:50:17 16 C 65 %
Sensor: Nr:Datum:Temp:Feuchte:
G-T/H 326 05-09-2015 17:02:17 15.9 C 66 %
327 05-09-2015 17:14:18 15.9 C 66 %
328 05-09-2015 17:26:17 15.9 C 66 %
329 05-09-2015 17:38:17 16 C 66 %
330 05-09-2015 17:50:17 15.9 C 67 %
331 05-09-2015 18:02:17 16 C 66 %
332 05-09-2015 18:14:17 15.9 C 67 %
333 05-09-2015 18:26:17 15.9 C 67 %
334 05-09-2015 18:38:17 16 C 67 %
335 05-09-2015 18:50:17 16 C 67 %
336 05-09-2015 19:02:17 15.9 C 68 %
337 05-09-2015 19:14:17 15.9 C 68 %
338 05-09-2015 19:26:17 15.9 C 68 %
339 05-09-2015 19:38:17 15.9 C 68 %
340 05-09-2015 19:50:17 15.9 C 68 %
341 05-09-2015 20:02:17 15.9 C 68 %
342 05-09-2015 20:14:17 15.9 C 68 %
343 05-09-2015 20:26:17 15.9 C 68 %
344 05-09-2015 20:38:17 15.9 C 68 %
345 05-09-2015 20:50:17 15.9 C 68 %
346 05-09-2015 21:02:17 15.9 C 68 %
347 05-09-2015 21:14:17 15.9 C 68 %
348 05-09-2015 21:26:17 15.9 C 68 %
349 05-09-2015 21:38:17 15.9 C 68 %
350 05-09-2015 21:50:17 15.9 C 68 %
Sensor: Nr:Datum:Temp:Feuchte:
G-T/H 351 05-09-2015 22:02:17 15.9 C 68 %
352 05-09-2015 22:14:17 15.9 C 68 %
353 05-09-2015 22:26:17 15.9 C 68 %
354 05-09-2015 22:38:17 15.9 C 68 %
355 05-09-2015 22:50:17 15.9 C 68 %
356 05-09-2015 23:02:17 15.9 C 68 %
357 05-09-2015 23:14:17 15.9 C 68 %
358 05-09-2015 23:26:17 15.9 C 68 %
359 05-09-2015 23:38:17 15.9 C 68 %
360 05-09-2015 23:50:17 15.9 C 69 %
361 06-09-2015 00:02:17 15.9 C 69 %
362 06-09-2015 00:14:17 15.8 C 69 %
363 06-09-2015 00:26:17 15.8 C 69 %
364 06-09-2015 00:38:17 15.8 C 69 %
365 06-09-2015 00:50:17 15.8 C 68 %
366 06-09-2015 01:02:17 15.8 C 68 %
367 06-09-2015 01:14:17 15.8 C 68 %
368 06-09-2015 01:26:17 15.8 C 68 %
369 06-09-2015 01:38:17 15.8 C 68 %
370 06-09-2015 01:50:17 15.8 C 68 %
371 06-09-2015 02:02:17 15.8 C 68 %
372 06-09-2015 02:14:17 15.8 C 68 %
373 06-09-2015 02:26:17 15.8 C 68 %
374 06-09-2015 02:38:17 15.7 C 68 %
375 06-09-2015 02:50:17 15.7 C 68 %
Sensor: Nr:Datum:Temp:Feuchte:
G-T/H 376 06-09-2015 03:02:17 15.7 C 68 %
377 06-09-2015 03:14:17 15.7 C 68 %
378 06-09-2015 03:26:17 15.7 C 68 %
379 06-09-2015 03:38:17 15.7 C 68 %
380 06-09-2015 03:50:17 15.7 C 68 %
381 06-09-2015 04:02:17 15.7 C 68 %
382 06-09-2015 04:14:17 15.6 C 68 %
383 06-09-2015 04:26:17 15.6 C 68 %
384 06-09-2015 04:38:17 15.6 C 68 %
385 06-09-2015 04:50:17 15.6 C 68 %
386 06-09-2015 05:02:17 15.6 C 68 %
387 06-09-2015 05:14:17 15.6 C 68 %
388 06-09-2015 05:26:17 15.6 C 68 %
389 06-09-2015 05:38:17 15.6 C 68 %
390 06-09-2015 05:50:17 15.5 C 68 %
391 06-09-2015 06:02:17 15.5 C 68 %
392 06-09-2015 06:14:17 15.4 C 68 %
393 06-09-2015 06:26:17 15.3 C 67 %
394 06-09-2015 06:38:17 15.3 C 67 %
395 06-09-2015 06:50:17 15.2 C 66 %
396 06-09-2015 07:02:17 15.2 C 65 %
397 06-09-2015 07:14:17 15.1 C 65 %
398 06-09-2015 07:26:17 15.2 C 65 %
399 06-09-2015 07:38:17 15.2 C 65 %
400 06-09-2015 07:50:17 15.2 C 65 %
Sensor: Nr:Datum:Temp:Feuchte:
G-T/H 401 06-09-2015 08:02:17 15.2 C 66 %
402 06-09-2015 08:14:17 15.2 C 66 %
403 06-09-2015 08:26:17 15.2 C 66 %
404 06-09-2015 08:38:17 15.1 C 65 %
405 06-09-2015 08:50:17 15.1 C 65 %
406 06-09-2015 09:02:16 15.1 C 65 %
407 06-09-2015 09:14:17 15.1 C 65 %
408 06-09-2015 09:26:17 15.2 C 66 %
409 06-09-2015 09:38:17 15.2 C 66 %
410 06-09-2015 09:50:17 15.2 C 66 %
411 06-09-2015 10:02:17 15.1 C 66 %
412 06-09-2015 10:14:17 15.2 C 67 %
413 06-09-2015 10:26:17 15.2 C 67 %
414 06-09-2015 10:38:17 15.2 C 67 %
415 06-09-2015 10:50:16 15.2 C 67 %
416 06-09-2015 11:02:17 15.2 C 67 %
417 06-09-2015 11:14:17 15.1 C 67 %
418 06-09-2015 11:26:17 15.2 C 67 %
419 06-09-2015 11:38:17 15.2 C 67 %
420 06-09-2015 11:50:17 15.2 C 67 %
421 06-09-2015 12:02:17 15.2 C 67 %
422 06-09-2015 12:14:17 15.2 C 67 %
423 06-09-2015 12:26:17 15.2 C 67 %
424 06-09-2015 12:38:17 15.2 C 67 %
425 06-09-2015 12:50:17 15.2 C 67 %
Sensor: Nr:Datum:Temp:Feuchte:
G-T/H 426 06-09-2015 13:02:17 15.2 C 67 %
427 06-09-2015 13:14:17 15.2 C 67 %
428 06-09-2015 13:26:17 15.3 C 67 %
429 06-09-2015 13:38:16 15.2 C 66 %
430 06-09-2015 13:50:17 15.2 C 66 %
431 06-09-2015 14:02:17 15.3 C 65 %
432 06-09-2015 14:14:17 15.3 C 65 %
433 06-09-2015 14:26:17 15.3 C 65 %
434 06-09-2015 14:38:17 15.4 C 65 %
435 06-09-2015 14:50:17 15.4 C 66 %
436 06-09-2015 15:02:17 15.4 C 66 %
437 06-09-2015 15:14:17 15.4 C 66 %
438 06-09-2015 15:26:17 15.4 C 66 %
439 06-09-2015 15:38:17 15.4 C 66 %
440 06-09-2015 15:50:17 15.5 C 66 %
441 06-09-2015 16:14:17 15.4 C 66 %
442 06-09-2015 16:14:17 15.5 C 67 %
443 06-09-2015 16:26:17 15.5 C 67 %
444 06-09-2015 16:38:17 15.5 C 67 %
445 06-09-2015 16:50:17 15.5 C 67 %
446 06-09-2015 17:03:16 15.5 C 67 %
447 06-09-2015 17:14:17 15.6 C 67 %
448 06-09-2015 17:26:17 15.6 C 67 %
449 06-09-2015 17:38:17 15.6 C 66 %
450 06-09-2015 17:50:17 15.6 C 65 %
Sensor: Nr:Datum:Temp:Feuchte:
G-T/H 451 06-09-2015 18:02:17 15.6 C 64 %
452 06-09-2015 18:14:17 15.6 C 63 %
453 06-09-2015 18:26:17 15.7 C 63 %
454 06-09-2015 18:38:17 15.7 C 64 %
455 06-09-2015 18:50:17 15.7 C 64 %
456 06-09-2015 19:02:17 15.7 C 64 %
457 06-09-2015 19:14:17 15.7 C 64 %
458 06-09-2015 19:27:16 15.7 C 65 %
459 06-09-2015 19:38:17 15.7 C 65 %
460 06-09-2015 19:50:17 15.7 C 65 %
461 06-09-2015 20:03:17 15.7 C 65 %
462 06-09-2015 20:14:17 15.8 C 66 %
463 06-09-2015 20:26:17 15.8 C 66 %
464 06-09-2015 20:38:18 15.8 C 66 %
465 06-09-2015 20:50:17 15.8 C 66 %
466 06-09-2015 21:02:17 15.8 C 66 %
467 06-09-2015 21:14:17 15.8 C 66 %
468 06-09-2015 21:27:17 15.8 C 66 %
469 06-09-2015 21:38:17 15.8 C 67 %
470 06-09-2015 21:50:17 15.8 C 67 %
471 06-09-2015 22:02:17 15.8 C 67 %
472 06-09-2015 22:14:17 15.8 C 67 %
473 06-09-2015 22:26:17 15.8 C 67 %
474 06-09-2015 22:38:17 15.8 C 67 %
475 06-09-2015 22:50:17 15.8 C 67 %
Sensor: Nr:Datum:Temp:Feuchte:
G-T/H 476 06-09-2015 23:02:17 15.7 C 67 %
477 06-09-2015 23:14:17 15.7 C 66 %
478 06-09-2015 23:26:17 15.7 C 66 %
479 06-09-2015 23:38:17 15.8 C 66 %
480 06-09-2015 23:50:17 15.8 C 66 %
481 07-09-2015 00:02:17 15.8 C 66 %
482 07-09-2015 00:14:17 15.8 C 66 %
483 07-09-2015 00:26:17 15.8 C 66 %
484 07-09-2015 00:38:17 15.8 C 67 %
485 07-09-2015 00:50:17 15.8 C 67 %
486 07-09-2015 01:02:17 15.8 C 67 %
487 07-09-2015 01:14:17 15.8 C 67 %
488 07-09-2015 01:26:17 15.8 C 67 %
489 07-09-2015 01:39:17 15.8 C 67 %
490 07-09-2015 01:50:17 15.8 C 67 %
491 07-09-2015 02:02:17 15.7 C 67 %
492 07-09-2015 02:14:17 15.7 C 67 %
493 07-09-2015 02:26:17 15.7 C 67 %
494 07-09-2015 02:38:17 15.7 C 67 %
495 07-09-2015 02:51:17 15.7 C 67 %
496 07-09-2015 03:03:17 15.7 C 67 %
497 07-09-2015 03:15:17 15.7 C 67 %
498 07-09-2015 03:27:17 15.7 C 67 %
499 07-09-2015 03:39:17 15.7 C 68 %
500 07-09-2015 03:51:17 15.7 C 68 %
Sensor: Nr:Datum:Temp:Feuchte:
G-T/H 501 07-09-2015 04:03:17 15.7 C 68 %
502 07-09-2015 04:15:17 15.7 C 68 %
503 07-09-2015 04:27:17 15.7 C 68 %
504 07-09-2015 04:39:17 15.6 C 68 %
505 07-09-2015 04:51:17 15.6 C 68 %
506 07-09-2015 05:03:17 15.7 C 68 %
507 07-09-2015 05:15:17 15.6 C 68 %
508 07-09-2015 05:27:17 15.7 C 68 %
509 07-09-2015 05:39:17 15.6 C 68 %
510 07-09-2015 05:51:17 15.6 C 68 %
511 07-09-2015 06:03:17 15.6 C 68 %
512 07-09-2015 06:15:16 15.6 C 68 %
513 07-09-2015 06:27:17 15.6 C 68 %
514 07-09-2015 06:39:17 15.6 C 68 %
515 07-09-2015 06:51:17 15.6 C 68 %
516 07-09-2015 07:03:16 15.6 C 68 %
517 07-09-2015 07:15:17 15.5 C 68 %
518 07-09-2015 07:27:17 15.6 C 68 %
519 07-09-2015 07:39:16 15.6 C 68 %
520 07-09-2015 07:51:17 15.5 C 69 %
521 07-09-2015 08:03:16 15.5 C 69 %
522 07-09-2015 08:15:16 15.5 C 69 %
523 07-09-2015 08:27:16 15.5 C 69 %
524 07-09-2015 08:39:17 15.5 C 69 %
525 07-09-2015 08:51:17 15.5 C 69 %
Sensor: Nr:Datum:Temp:Feuchte:
G-T/H 526 07-09-2015 09:03:17 15.6 C 69 %
527 07-09-2015 09:15:17 15.5 C 69 %
528 07-09-2015 09:27:17 15.5 C 69 %
529 07-09-2015 09:39:16 15.5 C 69 %
530 07-09-2015 09:51:17 15.5 C 69 %
531 07-09-2015 10:03:17 15.5 C 69 %
532 07-09-2015 10:15:16 15.5 C 69 %
533 07-09-2015 10:27:16 15.5 C 69 %
534 07-09-2015 10:39:16 15.5 C 69 %
535 07-09-2015 10:51:17 15.5 C 69 %
536 07-09-2015 11:03:17 15.5 C 69 %
537 07-09-2015 11:15:17 15.5 C 69 %
538 07-09-2015 11:27:17 15.5 C 69 %
539 07-09-2015 11:39:16 15.5 C 69 %
540 07-09-2015 11:51:16 15.5 C 69 %
541 07-09-2015 12:03:17 15.5 C 69 %
542 07-09-2015 12:15:17 15.5 C 69 %
543 07-09-2015 12:27:17 15.5 C 69 %
544 07-09-2015 12:39:16 15.5 C 69 %
545 07-09-2015 12:51:17 15.5 C 69 %
546 07-09-2015 13:03:16 15.5 C 69 %
547 07-09-2015 13:15:16 15.5 C 69 %
548 07-09-2015 13:27:16 15.5 C 70 %
549 07-09-2015 13:39:16 15.5 C 70 %
550 07-09-2015 13:51:17 15.6 C 70 %
Sensor: Nr:Datum:Temp:Feuchte:
G-T/H 551 07-09-2015 14:03:16 15.5 C 70 %
552 07-09-2015 14:15:16 15.6 C 70 %
553 07-09-2015 14:27:16 15.6 C 70 %
554 07-09-2015 14:39:16 15.6 C 70 %
555 07-09-2015 14:51:16 15.6 C 70 %
556 07-09-2015 15:03:16 15.6 C 70 %
557 07-09-2015 15:15:16 15.6 C 70 %
558 07-09-2015 15:27:17 15.6 C 70 %
559 07-09-2015 15:39:16 15.6 C 70 %
560 07-09-2015 15:51:16 15.6 C 70 %
561 07-09-2015 16:03:16 15.7 C 70 %
562 07-09-2015 16:15:16 15.7 C 70 %
563 07-09-2015 16:27:16 15.7 C 70 %
564 07-09-2015 16:39:16 15.7 C 70 %
565 07-09-2015 16:51:16 15.7 C 70 %
566 07-09-2015 17:03:16 15.7 C 70 %
567 07-09-2015 17:15:16 15.7 C 70 %
568 07-09-2015 17:27:16 15.7 C 70 %
569 07-09-2015 17:39:16 15.7 C 70 %
570 07-09-2015 17:51:16 15.8 C 70 %
571 07-09-2015 18:03:16 15.8 C 70 %
572 07-09-2015 18:15:16 15.8 C 70 %
573 07-09-2015 18:27:16 15.8 C 70 %
574 07-09-2015 18:39:16 15.8 C 70 %
575 07-09-2015 18:51:16 15.8 C 70 %
Sensor: Nr:Datum:Temp:Feuchte:
G-T/H 576 07-09-2015 19:03:16 15.8 C 70 %
577 07-09-2015 19:15:15 15.8 C 70 %
578 07-09-2015 19:27:15 15.8 C 70 %
579 07-09-2015 19:39:16 15.8 C 71 %
580 07-09-2015 19:51:16 15.8 C 71 %
581 07-09-2015 20:03:16 15.8 C 71 %
582 07-09-2015 20:15:16 15.8 C 71 %
583 07-09-2015 20:27:16 15.9 C 71 %
584 07-09-2015 20:39:16 15.8 C 71 %
585 07-09-2015 20:51:16 15.8 C 71 %
586 07-09-2015 21:03:16 15.8 C 71 %
587 07-09-2015 21:15:16 15.8 C 71 %
588 07-09-2015 21:27:16 15.9 C 71 %
589 07-09-2015 21:39:16 15.9 C 71 %
590 07-09-2015 21:51:16 15.9 C 71 %
591 07-09-2015 22:03:16 15.8 C 71 %
592 07-09-2015 22:15:16 15.9 C 71 %
593 07-09-2015 22:27:16 15.9 C 71 %
594 07-09-2015 22:39:16 15.9 C 71 %
595 07-09-2015 22:51:15 15.9 C 71 %
596 07-09-2015 23:03:16 15.9 C 71 %
597 07-09-2015 23:15:16 15.9 C 71 %
598 07-09-2015 23:27:16 15.9 C 71 %
599 07-09-2015 23:39:16 15.9 C 71 %
600 07-09-2015 23:51:15 15.9 C 71 %
Sensor: Nr:Datum:Temp:Feuchte:
G-T/H 601 08-09-2015 00:03:15 15.9 C 71 %
602 08-09-2015 00:15:16 15.9 C 71 %
603 08-09-2015 00:27:16 15.9 C 71 %
604 08-09-2015 00:39:16 15.9 C 71 %
605 08-09-2015 00:51:16 15.9 C 71 %
606 08-09-2015 01:03:16 15.9 C 71 %
607 08-09-2015 01:15:15 15.9 C 71 %
608 08-09-2015 01:27:15 15.9 C 71 %
609 08-09-2015 01:39:15 15.9 C 71 %
610 08-09-2015 01:51:16 15.9 C 71 %
611 08-09-2015 02:03:16 15.9 C 71 %
612 08-09-2015 02:15:15 15.9 C 71 %
613 08-09-2015 02:27:15 15.8 C 71 %
614 08-09-2015 02:39:15 15.8 C 71 %
615 08-09-2015 02:51:17 15.8 C 71 %
616 08-09-2015 03:03:17 15.8 C 71 %
617 08-09-2015 03:15:17 15.8 C 71 %
618 08-09-2015 03:27:17 15.8 C 71 %
619 08-09-2015 03:39:17 15.8 C 71 %
620 08-09-2015 03:51:17 15.8 C 71 %
621 08-09-2015 04:03:17 15.9 C 71 %
622 08-09-2015 04:15:17 15.8 C 71 %
623 08-09-2015 04:27:17 15.8 C 71 %
624 08-09-2015 04:39:17 15.8 C 71 %
625 08-09-2015 04:51:17 15.8 C 72 %
Sensor: Nr:Datum:Temp:Feuchte:
G-T/H 626 08-09-2015 05:03:17 15.8 C 72 %
627 08-09-2015 05:15:17 15.8 C 72 %
628 08-09-2015 05:27:17 15.8 C 72 %
629 08-09-2015 05:39:17 15.8 C 72 %
630 08-09-2015 05:51:17 15.8 C 72 %
631 08-09-2015 06:03:17 15.8 C 72 %
632 08-09-2015 06:15:17 15.8 C 72 %
633 08-09-2015 06:27:17 15.8 C 72 %
634 08-09-2015 06:39:17 15.8 C 72 %
635 08-09-2015 06:51:17 15.8 C 72 %
636 08-09-2015 07:03:17 15.8 C 72 %
637 08-09-2015 07:15:17 15.8 C 72 %
638 08-09-2015 07:27:17 15.8 C 72 %
639 08-09-2015 07:39:17 15.7 C 72 %
640 08-09-2015 07:51:17 15.7 C 72 %
641 08-09-2015 08:03:17 15.8 C 72 %
642 08-09-2015 08:15:17 15.8 C 72 %
643 08-09-2015 08:27:17 15.8 C 72 %
644 08-09-2015 08:39:17 15.8 C 72 %
645 08-09-2015 08:51:17 15.8 C 72 %
646 08-09-2015 09:03:17 15.8 C 72 %
647 08-09-2015 09:15:17 15.8 C 72 %
648 08-09-2015 09:27:17 15.8 C 72 %
649 08-09-2015 09:39:17 15.7 C 72 %
650 08-09-2015 09:51:17 15.8 C 72 %
Sensor: Nr:Datum:Temp:Feuchte:
G-T/H 651 08-09-2015 10:03:17 15.8 C 72 %
652 08-09-2015 10:15:17 15.8 C 72 %
653 08-09-2015 10:27:17 15.7 C 72 %
654 08-09-2015 10:39:17 15.8 C 72 %
655 08-09-2015 10:51:17 15.8 C 72 %
656 08-09-2015 11:03:17 15.8 C 72 %
657 08-09-2015 11:15:17 15.8 C 72 %
658 08-09-2015 11:27:17 15.8 C 72 %
659 08-09-2015 11:39:17 15.8 C 72 %
660 08-09-2015 11:51:17 15.8 C 72 %
661 08-09-2015 12:03:17 15.8 C 72 %
662 08-09-2015 12:15:17 15.8 C 72 %
663 08-09-2015 12:27:17 15.9 C 72 %
664 08-09-2015 12:39:17 15.9 C 72 %
665 08-09-2015 12:51:17 15.9 C 72 %
666 08-09-2015 13:03:17 15.9 C 72 %
667 08-09-2015 13:15:17 15.9 C 72 %
668 08-09-2015 13:27:17 15.9 C 72 %
669 08-09-2015 13:39:17 15.9 C 72 %
670 08-09-2015 13:51:17 15.9 C 72 %
671 08-09-2015 14:03:17 16 C 71 %
672 08-09-2015 14:15:17 16 C 71 %
673 08-09-2015 14:27:17 16 C 71 %
674 08-09-2015 14:39:17 16 C 71 %
675 08-09-2015 14:51:17 16 C 71 %
Sensor: Nr:Datum:Temp:Feuchte:
G-T/H 676 08-09-2015 15:03:17 16 C 71 %
677 08-09-2015 15:15:17 16.1 C 71 %
678 08-09-2015 15:27:17 16.1 C 71 %
679 08-09-2015 15:39:17 16.1 C 71 %
680 08-09-2015 15:51:17 16.1 C 71 %
681 08-09-2015 16:03:17 16.1 C 71 %
682 08-09-2015 16:15:17 16.1 C 71 %
683 08-09-2015 16:27:17 16.1 C 71 %
684 08-09-2015 16:39:17 16.2 C 71 %
685 08-09-2015 16:51:17 16.2 C 71 %
686 08-09-2015 17:03:17 16.2 C 71 %
687 08-09-2015 17:15:17 16.2 C 71 %
688 08-09-2015 17:27:17 16.2 C 71 %
689 08-09-2015 17:39:17 16.2 C 71 %
690 08-09-2015 17:51:17 16.2 C 71 %
691 08-09-2015 18:03:17 16.2 C 71 %
692 08-09-2015 18:15:17 16.3 C 71 %
693 08-09-2015 18:27:17 16.3 C 71 %
694 08-09-2015 18:39:17 16.3 C 71 %
695 08-09-2015 18:51:17 16.3 C 71 %
696 08-09-2015 19:03:17 16.3 C 71 %
697 08-09-2015 19:15:17 16.4 C 71 %
698 08-09-2015 19:27:17 16.4 C 71 %
699 08-09-2015 19:39:17 16.4 C 71 %
700 08-09-2015 19:51:17 16.3 C 71 %
Sensor: Nr:Datum:Temp:Feuchte:
G-T/H 701 08-09-2015 20:03:17 16.4 C 71 %
702 08-09-2015 20:15:17 16.4 C 71 %
703 08-09-2015 20:27:17 16.4 C 71 %
704 08-09-2015 20:39:17 16.4 C 71 %
705 08-09-2015 20:51:17 16.4 C 71 %
706 08-09-2015 21:03:17 16.4 C 71 %
707 08-09-2015 21:15:17 16.3 C 71 %
708 08-09-2015 21:27:17 16.4 C 71 %
709 08-09-2015 21:39:17 16.4 C 71 %
710 08-09-2015 21:51:17 16.4 C 71 %
711 08-09-2015 22:03:17 16.4 C 71 %
712 08-09-2015 22:15:17 16.4 C 71 %
713 08-09-2015 22:27:17 16.4 C 71 %
714 08-09-2015 22:39:17 16.4 C 71 %
715 08-09-2015 22:51:17 16.4 C 71 %
716 08-09-2015 23:03:17 16.4 C 71 %
717 08-09-2015 23:15:17 16.4 C 71 %
718 08-09-2015 23:27:17 16.4 C 71 %
719 08-09-2015 23:39:17 16.4 C 71 %
720 08-09-2015 23:51:17 16.4 C 71 %
721 09-09-2015 00:03:17 16.4 C 71 %
722 09-09-2015 00:15:17 16.4 C 71 %
723 09-09-2015 00:27:17 16.4 C 71 %
724 09-09-2015 00:39:17 16.3 C 71 %
725 09-09-2015 00:51:17 16.3 C 71 %
Sensor: Nr:Datum:Temp:Feuchte:
G-T/H 726 09-09-2015 01:03:17 16.4 C 71 %
727 09-09-2015 01:15:17 16.4 C 71 %
728 09-09-2015 01:27:17 16.4 C 71 %
729 09-09-2015 01:39:17 16.4 C 71 %
730 09-09-2015 01:51:17 16.4 C 71 %
731 09-09-2015 02:03:17 16.4 C 71 %
732 09-09-2015 02:15:17 16.3 C 71 %
733 09-09-2015 02:27:18 16.4 C 71 %
734 09-09-2015 02:39:17 16.3 C 71 %
735 09-09-2015 02:51:17 16.3 C 71 %
736 09-09-2015 03:03:17 16.3 C 71 %
737 09-09-2015 03:15:17 16.3 C 71 %
738 09-09-2015 03:27:17 16.3 C 71 %
739 09-09-2015 03:39:17 16.3 C 71 %
740 09-09-2015 03:51:17 16.3 C 71 %
741 09-09-2015 04:03:18 16.3 C 71 %
742 09-09-2015 04:15:17 16.3 C 71 %
743 09-09-2015 04:27:17 16.3 C 71 %
744 09-09-2015 04:39:17 16.2 C 71 %
745 09-09-2015 04:51:17 16.3 C 71 %
746 09-09-2015 05:03:17 16.3 C 71 %
747 09-09-2015 05:15:17 16.2 C 71 %
748 09-09-2015 05:27:17 16.2 C 71 %
749 09-09-2015 05:39:17 16.2 C 71 %
750 09-09-2015 05:51:17 16.2 C 71 %
Sensor: Nr:Datum:Temp:Feuchte:
G-T/H 751 09-09-2015 06:03:17 16.2 C 71 %
752 09-09-2015 06:15:17 16.2 C 71 %
753 09-09-2015 06:27:17 16.2 C 71 %
754 09-09-2015 06:39:17 16.2 C 71 %
755 09-09-2015 06:51:17 16.2 C 71 %
756 09-09-2015 07:03:17 16.2 C 71 %
757 09-09-2015 07:15:17 16.2 C 71 %
758 09-09-2015 07:27:17 16.2 C 71 %
759 09-09-2015 07:39:17 16.2 C 71 %
760 09-09-2015 07:51:17 16.2 C 71 %
761 09-09-2015 08:03:17 16.2 C 71 %
762 09-09-2015 08:15:17 16.2 C 71 %
763 09-09-2015 08:27:17 16.2 C 71 %
764 09-09-2015 08:39:18 16.1 C 71 %
765 09-09-2015 08:51:17 16.1 C 71 %
766 09-09-2015 09:03:17 16.1 C 71 %
767 09-09-2015 09:15:17 16.1 C 71 %
768 09-09-2015 09:27:17 16.1 C 71 %
769 09-09-2015 09:39:17 16.1 C 71 %
770 09-09-2015 09:51:17 16.1 C 71 %
771 09-09-2015 10:03:17 16.1 C 71 %
772 09-09-2015 10:15:17 16.1 C 71 %
773 09-09-2015 10:27:17 16.1 C 71 %
774 09-09-2015 10:39:17 16.1 C 71 %
775 09-09-2015 10:51:17 16.1 C 71 %
Sensor: Nr:Datum:Temp:Feuchte:
G-T/H 776 09-09-2015 11:03:17 16.1 C 71 %
777 09-09-2015 11:15:17 16.1 C 71 %
778 09-09-2015 11:27:17 16.1 C 71 %
779 09-09-2015 11:39:17 16.2 C 71 %
780 09-09-2015 11:51:17 16.1 C 71 %
781 09-09-2015 12:03:17 16.1 C 71 %
782 09-09-2015 12:15:17 16.1 C 71 %
783 09-09-2015 12:27:17 16.2 C 71 %
784 09-09-2015 12:39:17 16.4 C 70 %
785 09-09-2015 12:51:17 16.4 C 69 %
786 09-09-2015 13:03:17 16.5 C 68 %
787 09-09-2015 13:15:17 16.5 C 67 %
788 09-09-2015 13:27:17 16.7 C 66 %
789 09-09-2015 13:39:17 16.8 C 64 %
790 09-09-2015 13:51:17 16.9 C 63 %
791 09-09-2015 14:03:17 17 C 61 %
792 09-09-2015 14:15:17 17 C 60 %
793 09-09-2015 14:27:17 17.2 C 58 %
794 09-09-2015 14:39:17 17.3 C 58 %
795 09-09-2015 14:51:17 17.2 C 57 %
796 09-09-2015 15:03:17 17.3 C 57 %
797 09-09-2015 15:15:16 17.4 C 57 %
798 09-09-2015 15:27:17 17.4 C 56 %
799 09-09-2015 15:39:17 17.5 C 55 %
800 09-09-2015 15:51:17 17.5 C 55 %
Sensor: Nr:Datum:Temp:Feuchte:
G-T/H 801 09-09-2015 16:03:17 17.5 C 54 %
802 09-09-2015 16:15:17 17.7 C 54 %
803 09-09-2015 16:27:17 17.9 C 54 %
804 09-09-2015 16:39:17 17.9 C 55 %
805 09-09-2015 16:51:17 17.8 C 56 %
806 09-09-2015 17:03:17 17.7 C 57 %
807 09-09-2015 17:15:17 17.7 C 57 %
808 09-09-2015 17:27:17 17.6 C 58 %
809 09-09-2015 17:39:18 17.6 C 59 %
810 09-09-2015 17:51:17 17.6 C 59 %
811 09-09-2015 18:03:18 17.5 C 59 %
812 09-09-2015 18:15:17 17.5 C 60 %
813 09-09-2015 18:27:17 17.5 C 60 %
814 09-09-2015 18:39:17 17.4 C 60 %
815 09-09-2015 18:51:17 17.4 C 61 %
816 09-09-2015 19:03:17 17.4 C 61 %
817 09-09-2015 19:15:17 17.4 C 61 %
818 09-09-2015 19:27:17 17.3 C 62 %
819 09-09-2015 19:39:17 17.4 C 62 %
820 09-09-2015 19:51:17 17.3 C 62 %
821 09-09-2015 20:03:17 17.3 C 62 %
822 09-09-2015 20:15:17 17.3 C 63 %
823 09-09-2015 20:27:17 17.2 C 63 %
824 09-09-2015 20:39:17 17.2 C 63 %
825 09-09-2015 20:51:17 17.1 C 62 %
Sensor: Nr:Datum:Temp:Feuchte:
G-T/H 826 09-09-2015 21:03:17 17 C 61 %
827 09-09-2015 21:15:17 17 C 61 %
828 09-09-2015 21:27:18 16.9 C 61 %
829 09-09-2015 21:39:17 16.9 C 60 %
830 09-09-2015 21:51:17 16.9 C 61 %
831 09-09-2015 22:03:17 17 C 60 %
832 09-09-2015 22:15:17 17 C 60 %
833 09-09-2015 22:27:17 17 C 61 %
834 09-09-2015 22:39:17 16.9 C 62 %
835 09-09-2015 22:51:17 17 C 61 %
836 09-09-2015 23:03:17 16.8 C 61 %
837 09-09-2015 23:15:17 16.8 C 61 %
838 09-09-2015 23:27:17 16.7 C 60 %
839 09-09-2015 23:39:17 16.6 C 60 %
840 09-09-2015 23:51:17 16.6 C 60 %
841 10-09-2015 00:03:17 16.6 C 60 %
842 10-09-2015 00:15:17 16.7 C 60 %
843 10-09-2015 00:27:17 16.7 C 60 %
844 10-09-2015 00:39:18 16.7 C 60 %
845 10-09-2015 00:51:17 16.7 C 60 %
846 10-09-2015 01:03:17 16.7 C 61 %
847 10-09-2015 01:15:17 16.7 C 61 %
848 10-09-2015 01:27:17 16.7 C 61 %
849 10-09-2015 01:39:17 16.6 C 61 %
850 10-09-2015 01:51:17 16.6 C 61 %
Sensor: Nr:Datum:Temp:Feuchte:
G-T/H 851 10-09-2015 02:03:17 16.6 C 61 %
852 10-09-2015 02:15:17 16.6 C 61 %
853 10-09-2015 02:27:17 16.6 C 62 %
854 10-09-2015 02:39:17 16.6 C 62 %
855 10-09-2015 02:51:17 16.6 C 62 %
856 10-09-2015 03:03:17 16.5 C 62 %
857 10-09-2015 03:15:17 16.5 C 62 %
858 10-09-2015 03:27:17 16.5 C 62 %
859 10-09-2015 03:39:17 16.4 C 62 %
860 10-09-2015 03:51:17 16.4 C 63 %
861 10-09-2015 04:03:17 16.4 C 63 %
862 10-09-2015 04:15:17 16.4 C 63 %
863 10-09-2015 04:27:17 16.4 C 63 %
864 10-09-2015 04:39:17 16.3 C 63 %
865 10-09-2015 04:51:17 16.3 C 63 %
866 10-09-2015 05:03:17 16.3 C 63 %
867 10-09-2015 05:15:17 16.3 C 63 %
868 10-09-2015 05:27:17 16.2 C 63 %
869 10-09-2015 05:39:17 16.2 C 63 %
870 10-09-2015 05:51:17 16.2 C 63 %
871 10-09-2015 06:03:17 16.1 C 63 %
872 10-09-2015 06:15:17 16 C 63 %
873 10-09-2015 06:27:17 15.9 C 63 %
874 10-09-2015 06:39:17 15.8 C 62 %
875 10-09-2015 06:51:17 15.7 C 62 %
Sensor: Nr:Datum:Temp:Feuchte:
G-T/H 876 10-09-2015 07:03:17 15.6 C 62 %
877 10-09-2015 07:15:17 15.6 C 61 %
878 10-09-2015 07:27:17 15.6 C 61 %
879 10-09-2015 07:39:17 15.6 C 61 %
880 10-09-2015 07:51:17 15.5 C 61 %
881 10-09-2015 08:03:17 15.6 C 61 %
882 10-09-2015 08:15:17 15.6 C 61 %
883 10-09-2015 08:27:17 15.6 C 62 %
884 10-09-2015 08:39:17 15.6 C 62 %
885 10-09-2015 08:51:17 15.6 C 62 %
886 10-09-2015 09:03:17 15.6 C 63 %
887 10-09-2015 09:15:17 15.6 C 63 %
888 10-09-2015 09:27:17 15.6 C 63 %
889 10-09-2015 09:39:17 15.6 C 63 %
890 10-09-2015 09:51:17 15.5 C 63 %
891 10-09-2015 10:03:17 15.5 C 64 %
892 10-09-2015 10:15:17 15.5 C 64 %
893 10-09-2015 10:27:17 15.5 C 64 %
894 10-09-2015 10:39:17 15.5 C 64 %
895 10-09-2015 10:51:16 15.5 C 64 %
896 10-09-2015 11:03:17 15.5 C 65 %
897 10-09-2015 11:15:17 15.5 C 65 %
898 10-09-2015 11:27:17 15.4 C 65 %
899 10-09-2015 11:39:17 15.4 C 65 %
900 10-09-2015 11:51:17 15.4 C 65 %
Sensor: Nr:Datum:Temp:Feuchte:
G-T/H 901 10-09-2015 12:03:17 15.4 C 65 %
902 10-09-2015 12:15:17 15.4 C 65 %
903 10-09-2015 12:27:17 15.4 C 65 %
904 10-09-2015 12:39:17 15.4 C 65 %
905 10-09-2015 12:51:17 15.5 C 65 %
906 10-09-2015 13:03:17 15.5 C 66 %
907 10-09-2015 13:15:17 15.5 C 66 %
908 10-09-2015 13:27:17 15.5 C 66 %
909 10-09-2015 13:39:17 15.5 C 66 %
910 10-09-2015 13:51:17 15.6 C 66 %
911 10-09-2015 14:03:17 15.6 C 66 %
912 10-09-2015 14:15:17 15.6 C 66 %
913 10-09-2015 14:27:17 15.6 C 66 %
914 10-09-2015 14:39:17 15.6 C 66 %
915 10-09-2015 14:51:17 15.6 C 66 %
916 10-09-2015 15:03:17 15.6 C 66 %
917 10-09-2015 15:15:17 15.7 C 66 %
918 10-09-2015 15:27:17 15.7 C 66 %
919 10-09-2015 15:39:17 15.7 C 66 %
920 10-09-2015 15:51:17 15.7 C 66 %
921 10-09-2015 16:03:17 15.7 C 66 %
922 10-09-2015 16:15:17 15.8 C 66 %
923 10-09-2015 16:27:17 15.7 C 66 %
924 10-09-2015 16:39:18 15.8 C 66 %
925 10-09-2015 16:51:16 15.8 C 66 %
Sensor: Nr:Datum:Temp:Feuchte:
G-T/H 926 10-09-2015 17:03:17 15.8 C 66 %
927 10-09-2015 17:15:17 15.8 C 66 %
928 10-09-2015 17:27:17 15.8 C 66 %
929 10-09-2015 17:39:17 15.8 C 66 %
930 10-09-2015 17:51:17 15.9 C 66 %
931 10-09-2015 18:03:17 15.9 C 66 %
932 10-09-2015 18:15:17 15.9 C 66 %
933 10-09-2015 18:27:17 15.9 C 66 %
934 10-09-2015 18:39:17 15.9 C 66 %
935 10-09-2015 18:51:17 15.9 C 67 %
936 10-09-2015 19:03:17 16 C 66 %
937 10-09-2015 19:15:16 16 C 66 %
938 10-09-2015 19:27:16 16 C 66 %
939 10-09-2015 19:39:17 16 C 66 %
940 10-09-2015 19:51:17 16 C 66 %
941 10-09-2015 20:03:17 16 C 66 %
942 10-09-2015 20:15:17 16 C 66 %
943 10-09-2015 20:27:17 16 C 66 %
944 10-09-2015 20:39:17 16 C 66 %
945 10-09-2015 20:51:16 16 C 66 %
946 10-09-2015 21:03:17 16 C 66 %
947 10-09-2015 21:15:17 15.9 C 67 %
948 10-09-2015 21:27:17 16 C 66 %
949 10-09-2015 21:39:17 15.9 C 67 %
950 10-09-2015 21:51:17 15.9 C 67 %
Sensor: Nr:Datum:Temp:Feuchte:
G-T/H 951 10-09-2015 22:03:17 16 C 66 %
952 10-09-2015 22:15:17 15.9 C 67 %
953 10-09-2015 22:27:17 16 C 66 %
954 10-09-2015 22:39:17 15.9 C 67 %
955 10-09-2015 22:51:17 15.9 C 67 %
956 10-09-2015 23:03:17 16 C 66 %
957 10-09-2015 23:15:17 16 C 66 %
958 10-09-2015 23:27:17 15.9 C 67 %
959 10-09-2015 23:39:17 15.8 C 66 %
960 10-09-2015 23:51:17 15.8 C 66 %
961 11-09-2015 00:03:17 15.7 C 65 %
962 11-09-2015 00:15:17 15.6 C 65 %
963 11-09-2015 00:27:17 15.6 C 64 %
964 11-09-2015 00:39:17 15.6 C 64 %
965 11-09-2015 00:51:17 15.6 C 63 %
966 11-09-2015 01:03:17 15.6 C 63 %
967 11-09-2015 01:15:17 15.5 C 63 %
968 11-09-2015 01:27:17 15.5 C 63 %
969 11-09-2015 01:39:17 15.5 C 62 %
970 11-09-2015 01:51:17 15.4 C 62 %
971 11-09-2015 02:03:17 15.4 C 62 %
972 11-09-2015 02:15:17 15.4 C 62 %
973 11-09-2015 02:27:17 15.3 C 62 %
974 11-09-2015 02:39:17 15.3 C 62 %
975 11-09-2015 02:51:17 15.3 C 62 %
Sensor: Nr:Datum:Temp:Feuchte:
G-T/H 976 11-09-2015 03:03:17 15.2 C 62 %
977 11-09-2015 03:15:17 15.2 C 61 %
978 11-09-2015 03:27:17 15.2 C 61 %
979 11-09-2015 03:39:17 15.2 C 61 %
980 11-09-2015 03:51:17 15.2 C 61 %
981 11-09-2015 04:03:17 15.1 C 61 %
982 11-09-2015 04:15:17 15.1 C 61 %
983 11-09-2015 04:27:17 15.1 C 61 %
984 11-09-2015 04:39:17 15 C 61 %
985 11-09-2015 04:51:17 15.1 C 61 %
986 11-09-2015 05:03:17 15 C 61 %
987 11-09-2015 05:15:17 15 C 61 %
988 11-09-2015 05:27:17 15 C 61 %
989 11-09-2015 05:39:17 14.9 C 62 %
990 11-09-2015 05:51:17 14.9 C 62 %
991 11-09-2015 06:03:17 14.9 C 62 %
992 11-09-2015 06:15:17 15 C 61 %
993 11-09-2015 06:27:17 15 C 61 %
994 11-09-2015 06:39:17 15 C 62 %
995 11-09-2015 06:51:17 15 C 62 %
996 11-09-2015 07:03:17 15 C 62 %
997 11-09-2015 07:15:17 15 C 62 %
998 11-09-2015 07:27:17 14.9 C 63 %
999 11-09-2015 07:39:17 14.9 C 63 %
1000 11-09-2015 07:51:16 14.9 C 63 %
Sensor: Nr:Datum:Temp:Feuchte:
G-T/H 1001 11-09-2015 08:03:17 14.9 C 63 %
1002 11-09-2015 08:15:17 14.9 C 64 %
1003 11-09-2015 08:27:17 14.9 C 64 %
1004 11-09-2015 08:39:17 14.9 C 64 %
1005 11-09-2015 08:51:17 14.9 C 64 %
1006 11-09-2015 09:03:17 14.9 C 64 %
1007 11-09-2015 09:15:17 14.9 C 65 %
1008 11-09-2015 09:27:17 14.9 C 65 %
1009 11-09-2015 09:39:17 14.9 C 65 %
1010 11-09-2015 09:51:17 14.8 C 65 %
1011 11-09-2015 10:03:17 14.9 C 65 %
1012 11-09-2015 10:15:17 14.8 C 65 %
1013 11-09-2015 10:27:17 14.8 C 66 %
1014 11-09-2015 10:39:17 14.8 C 66 %
1015 11-09-2015 10:51:17 14.8 C 66 %
1016 11-09-2015 11:03:17 14.8 C 66 %
1017 11-09-2015 11:15:17 14.8 C 66 %
1018 11-09-2015 11:27:17 14.8 C 66 %
1019 11-09-2015 11:39:17 14.8 C 66 %
1020 11-09-2015 11:51:17 14.8 C 66 %
1021 11-09-2015 12:03:17 14.8 C 67 %
1022 11-09-2015 12:15:16 14.8 C 67 %
1023 11-09-2015 12:27:16 14.8 C 67 %
1024 11-09-2015 12:39:17 14.8 C 67 %
1025 11-09-2015 12:51:17 14.9 C 67 %
Sensor: Nr:Datum:Temp:Feuchte:
G-T/H 1026 11-09-2015 13:03:17 14.9 C 67 %
1027 11-09-2015 13:15:17 14.9 C 67 %
1028 11-09-2015 13:27:17 14.9 C 67 %
1029 11-09-2015 13:39:17 14.9 C 67 %
1030 11-09-2015 13:51:17 15 C 66 %
1031 11-09-2015 14:03:17 15 C 66 %
1032 11-09-2015 14:15:17 15 C 67 %
1033 11-09-2015 14:27:17 15 C 67 %
1034 11-09-2015 14:39:17 15 C 67 %
1035 11-09-2015 14:51:17 15 C 67 %
1036 11-09-2015 15:03:17 15.1 C 67 %
1037 11-09-2015 15:15:17 15.1 C 67 %
1038 11-09-2015 15:27:17 15.2 C 67 %
1039 11-09-2015 15:39:17 15.5 C 65 %
1040 11-09-2015 15:51:17 16.2 C 59 %
1041 11-09-2015 16:03:17 16.5 C 57 %
1042 11-09-2015 16:15:17 16.8 C 56 %
1043 11-09-2015 16:27:17 17 C 57 %
1044 11-09-2015 16:39:17 16.9 C 60 %
1045 11-09-2015 16:51:17 16.7 C 61 %
1046 11-09-2015 17:03:17 16.5 C 62 %
1047 11-09-2015 17:15:17 16.6 C 63 %
1048 11-09-2015 17:27:17 16.7 C 63 %
1049 11-09-2015 17:39:17 16.9 C 63 %
1050 11-09-2015 17:51:17 17 C 62 %
Sensor: Nr:Datum:Temp:Feuchte:
G-T/H 1051 11-09-2015 18:03:17 17 C 61 %
1052 11-09-2015 18:15:16 17.2 C 60 %
1053 11-09-2015 18:27:16 17.2 C 60 %
1054 11-09-2015 18:39:16 17.2 C 60 %
1055 11-09-2015 18:51:16 17.1 C 61 %
1056 11-09-2015 19:03:17 17 C 61 %
1057 11-09-2015 19:15:17 16.9 C 62 %
1058 11-09-2015 19:27:17 16.9 C 63 %
1059 11-09-2015 19:39:17 16.8 C 63 %
1060 11-09-2015 19:51:17 16.7 C 63 %
1061 11-09-2015 20:03:17 16.7 C 63 %
1062 11-09-2015 20:15:17 16.7 C 64 %
1063 11-09-2015 20:27:17 16.6 C 64 %
1064 11-09-2015 20:39:17 16.6 C 64 %
1065 11-09-2015 20:51:17 16.6 C 64 %
1066 11-09-2015 21:03:17 16.5 C 64 %
1067 11-09-2015 21:15:17 16.5 C 64 %
1068 11-09-2015 21:27:17 16.5 C 64 %
1069 11-09-2015 21:39:17 16.5 C 64 %
1070 11-09-2015 21:51:17 16.4 C 64 %
1071 11-09-2015 22:03:17 16.4 C 64 %
1072 11-09-2015 22:15:17 16.4 C 64 %
1073 11-09-2015 22:27:17 16.3 C 64 %
1074 11-09-2015 22:39:17 16.3 C 64 %
1075 11-09-2015 22:51:17 16.3 C 64 %
Sensor: Nr:Datum:Temp:Feuchte:
G-T/H 1076 11-09-2015 23:03:17 16.3 C 64 %
1077 11-09-2015 23:15:17 16.2 C 64 %
1078 11-09-2015 23:27:17 16.2 C 64 %
1079 11-09-2015 23:39:17 16 C 63 %
1080 11-09-2015 23:51:17 16 C 63 %
1081 12-09-2015 00:03:18 15.9 C 63 %
1082 12-09-2015 00:15:17 15.8 C 63 %
1083 12-09-2015 00:27:17 15.8 C 62 %
1084 12-09-2015 00:39:17 15.7 C 62 %
1085 12-09-2015 00:51:17 15.7 C 62 %
1086 12-09-2015 01:03:17 15.6 C 62 %
1087 12-09-2015 01:15:17 15.6 C 62 %
1088 12-09-2015 01:27:17 15.6 C 61 %
1089 12-09-2015 01:39:17 15.5 C 61 %
1090 12-09-2015 01:51:17 15.5 C 61 %
1091 12-09-2015 02:03:17 15.5 C 62 %
1092 12-09-2015 02:15:17 15.4 C 62 %
1093 12-09-2015 02:27:17 15.4 C 62 %
1094 12-09-2015 02:39:17 15.4 C 61 %
1095 12-09-2015 02:51:17 15.4 C 61 %
1096 12-09-2015 03:03:17 15.3 C 61 %
1097 12-09-2015 03:15:17 15.3 C 61 %
1098 12-09-2015 03:27:17 15.3 C 61 %
1099 12-09-2015 03:39:17 15.2 C 61 %
1100 12-09-2015 03:51:17 15.2 C 61 %
Sensor: Nr:Datum:Temp:Feuchte:
G-T/H 1101 12-09-2015 04:03:17 15.2 C 61 %
1102 12-09-2015 04:15:17 15.2 C 61 %
1103 12-09-2015 04:27:17 15.1 C 61 %
1104 12-09-2015 04:39:17 15.1 C 61 %
1105 12-09-2015 04:51:17 15.1 C 61 %
1106 12-09-2015 05:03:17 15.1 C 61 %
1107 12-09-2015 05:15:17 15 C 61 %
1108 12-09-2015 05:27:17 15 C 61 %
1109 12-09-2015 05:39:17 15 C 61 %
1110 12-09-2015 05:51:17 15 C 61 %
1111 12-09-2015 06:03:17 15 C 61 %
1112 12-09-2015 06:15:17 15 C 62 %
1113 12-09-2015 06:27:17 15 C 62 %
1114 12-09-2015 06:39:17 15.1 C 62 %
1115 12-09-2015 06:51:17 15.1 C 62 %
1116 12-09-2015 07:03:17 15.1 C 63 %
1117 12-09-2015 07:15:17 15.1 C 63 %
1118 12-09-2015 07:27:17 15.1 C 63 %
1119 12-09-2015 07:39:17 15.1 C 63 %
1120 12-09-2015 07:51:17 15 C 63 %
1121 12-09-2015 08:03:17 15.1 C 64 %
1122 12-09-2015 08:15:17 15.1 C 64 %
1123 12-09-2015 08:27:17 15 C 64 %
1124 12-09-2015 08:39:17 15 C 64 %
1125 12-09-2015 08:51:17 15 C 64 %
Sensor: Nr:Datum:Temp:Feuchte:
G-T/H 1126 12-09-2015 09:03:17 15 C 64 %
1127 12-09-2015 09:15:17 15 C 64 %
1128 12-09-2015 09:27:17 15 C 65 %
1129 12-09-2015 09:39:18 15 C 65 %
1130 12-09-2015 09:51:17 15 C 65 %
1131 12-09-2015 10:03:17 15 C 65 %
1132 12-09-2015 10:15:17 15 C 65 %
1133 12-09-2015 10:27:17 15 C 65 %
1134 12-09-2015 10:39:17 15 C 65 %
1135 12-09-2015 10:51:17 15 C 65 %
1136 12-09-2015 11:03:17 15.1 C 66 %
1137 12-09-2015 11:15:17 15.1 C 66 %
1138 12-09-2015 11:27:17 15.1 C 66 %
1139 12-09-2015 11:39:17 15.1 C 66 %
1140 12-09-2015 11:51:16 15.2 C 66 %
1141 12-09-2015 12:03:17 15.2 C 66 %
1142 12-09-2015 12:15:17 15.3 C 66 %
1143 12-09-2015 12:27:17 15.3 C 66 %
1144 12-09-2015 12:39:17 15.3 C 66 %
1145 12-09-2015 12:51:17 15.3 C 66 %
1146 12-09-2015 13:03:17 15.3 C 66 %
1147 12-09-2015 13:15:17 15.4 C 66 %
1148 12-09-2015 13:27:17 15.3 C 66 %
1149 12-09-2015 13:39:17 15.6 C 68 %
1150 12-09-2015 13:51:17 16.5 C 69 %
Sensor: Nr:Datum:Temp:Feuchte:
G-T/H 1151 12-09-2015 14:03:17 16.1 C 68 %
1152 12-09-2015 14:15:16 15.9 C 69 %
1153 12-09-2015 14:27:17 15.8 C 69 %
1154 12-09-2015 14:39:17 15.8 C 69 %
1155 12-09-2015 14:51:17 15.7 C 69 %
1156 12-09-2015 15:03:17 15.7 C 69 %
1157 12-09-2015 15:15:17 15.7 C 69 %
1158 12-09-2015 15:27:17 15.7 C 69 %
1159 12-09-2015 15:39:17 15.7 C 69 %
1160 12-09-2015 15:51:17 15.7 C 69 %
1161 12-09-2015 16:03:17 15.8 C 69 %
1162 12-09-2015 16:15:16 15.7 C 69 %
1163 12-09-2015 16:27:16 15.8 C 70 %
1164 12-09-2015 16:39:17 15.8 C 70 %
1165 12-09-2015 16:51:17 15.8 C 70 %
1166 12-09-2015 17:03:17 15.9 C 70 %
1167 12-09-2015 17:15:17 15.9 C 70 %
1168 12-09-2015 17:27:17 15.9 C 70 %
1169 12-09-2015 17:39:17 15.9 C 70 %
1170 12-09-2015 17:51:17 16 C 69 %
1171 12-09-2015 18:03:17 16 C 69 %
1172 12-09-2015 18:15:17 16 C 69 %
1173 12-09-2015 18:27:17 16 C 69 %
1174 12-09-2015 18:39:17 16 C 69 %
1175 12-09-2015 18:51:17 16 C 69 %
Sensor: Nr:Datum:Temp:Feuchte:
G-T/H 1176 12-09-2015 19:03:17 16 C 69 %
1177 12-09-2015 19:15:17 16.1 C 69 %
1178 12-09-2015 19:27:17 16.1 C 69 %
1179 12-09-2015 19:39:18 16.1 C 69 %
1180 12-09-2015 19:51:17 16.1 C 69 %
1181 12-09-2015 20:03:17 16.1 C 69 %
1182 12-09-2015 20:15:17 16.1 C 69 %
1183 12-09-2015 20:27:17 16.2 C 70 %
1184 12-09-2015 20:39:17 16.2 C 70 %
1185 12-09-2015 20:51:17 16.2 C 70 %
1186 12-09-2015 21:03:17 16.2 C 70 %
1187 12-09-2015 21:15:17 16.2 C 70 %
1188 12-09-2015 21:27:17 16.3 C 70 %
1189 12-09-2015 21:39:17 16.2 C 70 %
1190 12-09-2015 21:51:17 16.2 C 70 %
1191 12-09-2015 22:03:17 16.3 C 70 %
1192 12-09-2015 22:15:17 16.3 C 70 %
1193 12-09-2015 22:27:17 16.3 C 70 %
1194 12-09-2015 22:39:17 16.3 C 70 %
<